<?xml version="1.0" encoding="UTF-8" standalone="no" ?>
<gpx xmlns="http://www.topografix.com/GPX/1/1" xmlns:xsi="http://www.w3.org/2001/XMLSchema-instance" xsi:schemaLocation="http://www.topografix.com/GPX/1/1 http://www.topografix.com/GPX/1/1/gpx.xsd" version="1.1" creator="VisuGPX - https://www.visugpx.com">
  <metadata>
    <name>sortie du 09/04/2017</name>
    <desc><![CDATA[950 m de dénivelé sur 23km avec un temps magnifique]]></desc>
  </metadata>
  <trk>
    <name><![CDATA[Tracé actuel: 09 AVR 2017 07:40]]></name>
    <trkseg>
      <trkpt lat="43.35224" lon="-0.55321">
        <ele>120.3</ele>
        <time>2017-04-09T05:40:35Z</time>
      </trkpt>
      <trkpt lat="43.35222" lon="-0.55322">
        <ele>119.82</ele>
        <time>2017-04-09T05:41:13Z</time>
      </trkpt>
      <trkpt lat="43.35224" lon="-0.55323">
        <ele>118.38</ele>
        <time>2017-04-09T05:41:35Z</time>
      </trkpt>
      <trkpt lat="43.35223" lon="-0.55319">
        <ele>117.42</ele>
        <time>2017-04-09T05:41:48Z</time>
      </trkpt>
      <trkpt lat="43.35223" lon="-0.55289">
        <ele>119.34</ele>
        <time>2017-04-09T05:42:02Z</time>
      </trkpt>
      <trkpt lat="43.35214" lon="-0.55228">
        <ele>118.38</ele>
        <time>2017-04-09T05:42:18Z</time>
      </trkpt>
      <trkpt lat="43.35187" lon="-0.55178">
        <ele>119.82</ele>
        <time>2017-04-09T05:42:32Z</time>
      </trkpt>
      <trkpt lat="43.35157" lon="-0.55134">
        <ele>122.22</ele>
        <time>2017-04-09T05:42:44Z</time>
      </trkpt>
      <trkpt lat="43.35103" lon="-0.55107">
        <ele>123.67</ele>
        <time>2017-04-09T05:42:59Z</time>
      </trkpt>
      <trkpt lat="43.351" lon="-0.55106">
        <ele>123.67</ele>
        <time>2017-04-09T05:43:00Z</time>
      </trkpt>
      <trkpt lat="43.35091" lon="-0.55101">
        <ele>123.19</ele>
        <time>2017-04-09T05:43:02Z</time>
      </trkpt>
      <trkpt lat="43.35048" lon="-0.55079">
        <ele>122.71</ele>
        <time>2017-04-09T05:43:12Z</time>
      </trkpt>
      <trkpt lat="43.35045" lon="-0.55076">
        <ele>122.71</ele>
        <time>2017-04-09T05:43:13Z</time>
      </trkpt>
      <trkpt lat="43.35034" lon="-0.55067">
        <ele>121.74</ele>
        <time>2017-04-09T05:43:16Z</time>
      </trkpt>
      <trkpt lat="43.35023" lon="-0.55056">
        <ele>121.26</ele>
        <time>2017-04-09T05:43:19Z</time>
      </trkpt>
      <trkpt lat="43.34969" lon="-0.54979">
        <ele>121.26</ele>
        <time>2017-04-09T05:43:38Z</time>
      </trkpt>
      <trkpt lat="43.34941" lon="-0.54929">
        <ele>124.15</ele>
        <time>2017-04-09T05:43:52Z</time>
      </trkpt>
      <trkpt lat="43.34906" lon="-0.54905">
        <ele>127.03</ele>
        <time>2017-04-09T05:44:03Z</time>
      </trkpt>
      <trkpt lat="43.34881" lon="-0.54897">
        <ele>125.59</ele>
        <time>2017-04-09T05:44:09Z</time>
      </trkpt>
      <trkpt lat="43.34876" lon="-0.54896">
        <ele>125.59</ele>
        <time>2017-04-09T05:44:10Z</time>
      </trkpt>
      <trkpt lat="43.34872" lon="-0.54895">
        <ele>125.59</ele>
        <time>2017-04-09T05:44:11Z</time>
      </trkpt>
      <trkpt lat="43.34863" lon="-0.54894">
        <ele>126.07</ele>
        <time>2017-04-09T05:44:13Z</time>
      </trkpt>
      <trkpt lat="43.34858" lon="-0.54892">
        <ele>126.07</ele>
        <time>2017-04-09T05:44:14Z</time>
      </trkpt>
      <trkpt lat="43.34831" lon="-0.54861">
        <ele>124.15</ele>
        <time>2017-04-09T05:44:23Z</time>
      </trkpt>
      <trkpt lat="43.34829" lon="-0.54855">
        <ele>123.67</ele>
        <time>2017-04-09T05:44:24Z</time>
      </trkpt>
      <trkpt lat="43.34828" lon="-0.54849">
        <ele>123.19</ele>
        <time>2017-04-09T05:44:25Z</time>
      </trkpt>
      <trkpt lat="43.34827" lon="-0.54843">
        <ele>123.19</ele>
        <time>2017-04-09T05:44:26Z</time>
      </trkpt>
      <trkpt lat="43.34828" lon="-0.54838">
        <ele>122.71</ele>
        <time>2017-04-09T05:44:27Z</time>
      </trkpt>
      <trkpt lat="43.34829" lon="-0.54833">
        <ele>122.71</ele>
        <time>2017-04-09T05:44:28Z</time>
      </trkpt>
      <trkpt lat="43.34829" lon="-0.54828">
        <ele>122.71</ele>
        <time>2017-04-09T05:44:29Z</time>
      </trkpt>
      <trkpt lat="43.34845" lon="-0.54794">
        <ele>126.07</ele>
        <time>2017-04-09T05:44:41Z</time>
      </trkpt>
      <trkpt lat="43.34875" lon="-0.5477">
        <ele>130.88</ele>
        <time>2017-04-09T05:44:58Z</time>
      </trkpt>
      <trkpt lat="43.34901" lon="-0.54733">
        <ele>134.24</ele>
        <time>2017-04-09T05:45:17Z</time>
      </trkpt>
      <trkpt lat="43.34918" lon="-0.5469">
        <ele>133.28</ele>
        <time>2017-04-09T05:45:33Z</time>
      </trkpt>
      <trkpt lat="43.34932" lon="-0.54649">
        <ele>135.68</ele>
        <time>2017-04-09T05:45:49Z</time>
      </trkpt>
      <trkpt lat="43.34951" lon="-0.54637">
        <ele>140.01</ele>
        <time>2017-04-09T05:46:04Z</time>
      </trkpt>
      <trkpt lat="43.34976" lon="-0.54636">
        <ele>144.82</ele>
        <time>2017-04-09T05:46:23Z</time>
      </trkpt>
      <trkpt lat="43.34992" lon="-0.5464">
        <ele>147.7</ele>
        <time>2017-04-09T05:46:36Z</time>
      </trkpt>
      <trkpt lat="43.34994" lon="-0.54641">
        <ele>147.7</ele>
        <time>2017-04-09T05:46:37Z</time>
      </trkpt>
      <trkpt lat="43.34995" lon="-0.54641">
        <ele>148.18</ele>
        <time>2017-04-09T05:46:38Z</time>
      </trkpt>
      <trkpt lat="43.34996" lon="-0.54641">
        <ele>148.18</ele>
        <time>2017-04-09T05:46:39Z</time>
      </trkpt>
      <trkpt lat="43.34998" lon="-0.54641">
        <ele>148.18</ele>
        <time>2017-04-09T05:46:40Z</time>
      </trkpt>
      <trkpt lat="43.34999" lon="-0.54641">
        <ele>148.18</ele>
        <time>2017-04-09T05:46:41Z</time>
      </trkpt>
      <trkpt lat="43.35001" lon="-0.54642">
        <ele>148.66</ele>
        <time>2017-04-09T05:46:42Z</time>
      </trkpt>
      <trkpt lat="43.35019" lon="-0.54646">
        <ele>149.62</ele>
        <time>2017-04-09T05:46:56Z</time>
      </trkpt>
      <trkpt lat="43.3502" lon="-0.54647">
        <ele>150.1</ele>
        <time>2017-04-09T05:46:57Z</time>
      </trkpt>
      <trkpt lat="43.35021" lon="-0.54647">
        <ele>150.1</ele>
        <time>2017-04-09T05:46:58Z</time>
      </trkpt>
      <trkpt lat="43.35022" lon="-0.54648">
        <ele>150.58</ele>
        <time>2017-04-09T05:46:59Z</time>
      </trkpt>
      <trkpt lat="43.35023" lon="-0.54648">
        <ele>151.06</ele>
        <time>2017-04-09T05:47:00Z</time>
      </trkpt>
      <trkpt lat="43.35025" lon="-0.54648">
        <ele>151.06</ele>
        <time>2017-04-09T05:47:01Z</time>
      </trkpt>
      <trkpt lat="43.35026" lon="-0.54649">
        <ele>151.54</ele>
        <time>2017-04-09T05:47:02Z</time>
      </trkpt>
      <trkpt lat="43.35046" lon="-0.5465">
        <ele>154.91</ele>
        <time>2017-04-09T05:47:17Z</time>
      </trkpt>
      <trkpt lat="43.35071" lon="-0.54652">
        <ele>157.31</ele>
        <time>2017-04-09T05:47:34Z</time>
      </trkpt>
      <trkpt lat="43.3509" lon="-0.5466">
        <ele>158.75</ele>
        <time>2017-04-09T05:47:50Z</time>
      </trkpt>
      <trkpt lat="43.3511" lon="-0.54645">
        <ele>163.56</ele>
        <time>2017-04-09T05:48:04Z</time>
      </trkpt>
      <trkpt lat="43.35112" lon="-0.54642">
        <ele>164.04</ele>
        <time>2017-04-09T05:48:06Z</time>
      </trkpt>
      <trkpt lat="43.35114" lon="-0.54641">
        <ele>164.04</ele>
        <time>2017-04-09T05:48:07Z</time>
      </trkpt>
      <trkpt lat="43.35115" lon="-0.5464">
        <ele>164.04</ele>
        <time>2017-04-09T05:48:08Z</time>
      </trkpt>
      <trkpt lat="43.35117" lon="-0.54638">
        <ele>164.04</ele>
        <time>2017-04-09T05:48:09Z</time>
      </trkpt>
      <trkpt lat="43.35118" lon="-0.54636">
        <ele>164.04</ele>
        <time>2017-04-09T05:48:10Z</time>
      </trkpt>
      <trkpt lat="43.3512" lon="-0.54635">
        <ele>164.04</ele>
        <time>2017-04-09T05:48:11Z</time>
      </trkpt>
      <trkpt lat="43.35121" lon="-0.54634">
        <ele>163.56</ele>
        <time>2017-04-09T05:48:12Z</time>
      </trkpt>
      <trkpt lat="43.35146" lon="-0.54623">
        <ele>170.29</ele>
        <time>2017-04-09T05:48:28Z</time>
      </trkpt>
      <trkpt lat="43.35158" lon="-0.54611">
        <ele>175.1</ele>
        <time>2017-04-09T05:48:37Z</time>
      </trkpt>
      <trkpt lat="43.35159" lon="-0.54609">
        <ele>176.06</ele>
        <time>2017-04-09T05:48:38Z</time>
      </trkpt>
      <trkpt lat="43.35165" lon="-0.546">
        <ele>177.98</ele>
        <time>2017-04-09T05:48:44Z</time>
      </trkpt>
      <trkpt lat="43.35165" lon="-0.54598">
        <ele>178.46</ele>
        <time>2017-04-09T05:48:45Z</time>
      </trkpt>
      <trkpt lat="43.35165" lon="-0.54595">
        <ele>178.94</ele>
        <time>2017-04-09T05:48:46Z</time>
      </trkpt>
      <trkpt lat="43.35168" lon="-0.54572">
        <ele>181.35</ele>
        <time>2017-04-09T05:48:59Z</time>
      </trkpt>
      <trkpt lat="43.35168" lon="-0.54551">
        <ele>182.31</ele>
        <time>2017-04-09T05:49:10Z</time>
      </trkpt>
      <trkpt lat="43.3517" lon="-0.54519">
        <ele>176.06</ele>
        <time>2017-04-09T05:49:23Z</time>
      </trkpt>
      <trkpt lat="43.3517" lon="-0.54517">
        <ele>175.58</ele>
        <time>2017-04-09T05:49:24Z</time>
      </trkpt>
      <trkpt lat="43.3517" lon="-0.54515">
        <ele>175.58</ele>
        <time>2017-04-09T05:49:25Z</time>
      </trkpt>
      <trkpt lat="43.3517" lon="-0.54513">
        <ele>175.58</ele>
        <time>2017-04-09T05:49:26Z</time>
      </trkpt>
      <trkpt lat="43.3517" lon="-0.5451">
        <ele>175.1</ele>
        <time>2017-04-09T05:49:27Z</time>
      </trkpt>
      <trkpt lat="43.35168" lon="-0.54473">
        <ele>175.1</ele>
        <time>2017-04-09T05:49:46Z</time>
      </trkpt>
      <trkpt lat="43.35173" lon="-0.54452">
        <ele>176.54</ele>
        <time>2017-04-09T05:49:58Z</time>
      </trkpt>
      <trkpt lat="43.35174" lon="-0.5445">
        <ele>176.54</ele>
        <time>2017-04-09T05:49:59Z</time>
      </trkpt>
      <trkpt lat="43.35188" lon="-0.54398">
        <ele>176.06</ele>
        <time>2017-04-09T05:50:15Z</time>
      </trkpt>
      <trkpt lat="43.35199" lon="-0.54331">
        <ele>174.14</ele>
        <time>2017-04-09T05:50:30Z</time>
      </trkpt>
      <trkpt lat="43.35201" lon="-0.54321">
        <ele>173.66</ele>
        <time>2017-04-09T05:50:32Z</time>
      </trkpt>
      <trkpt lat="43.35202" lon="-0.54315">
        <ele>173.66</ele>
        <time>2017-04-09T05:50:33Z</time>
      </trkpt>
      <trkpt lat="43.35202" lon="-0.54309">
        <ele>173.66</ele>
        <time>2017-04-09T05:50:34Z</time>
      </trkpt>
      <trkpt lat="43.35202" lon="-0.54303">
        <ele>173.66</ele>
        <time>2017-04-09T05:50:35Z</time>
      </trkpt>
      <trkpt lat="43.35201" lon="-0.54298">
        <ele>173.66</ele>
        <time>2017-04-09T05:50:36Z</time>
      </trkpt>
      <trkpt lat="43.352" lon="-0.54293">
        <ele>173.66</ele>
        <time>2017-04-09T05:50:37Z</time>
      </trkpt>
      <trkpt lat="43.35198" lon="-0.54289">
        <ele>173.66</ele>
        <time>2017-04-09T05:50:38Z</time>
      </trkpt>
      <trkpt lat="43.35185" lon="-0.54228">
        <ele>175.1</ele>
        <time>2017-04-09T05:50:55Z</time>
      </trkpt>
      <trkpt lat="43.3517" lon="-0.54183">
        <ele>177.98</ele>
        <time>2017-04-09T05:51:11Z</time>
      </trkpt>
      <trkpt lat="43.35174" lon="-0.54146">
        <ele>183.27</ele>
        <time>2017-04-09T05:51:28Z</time>
      </trkpt>
      <trkpt lat="43.35184" lon="-0.54111">
        <ele>186.15</ele>
        <time>2017-04-09T05:51:47Z</time>
      </trkpt>
      <trkpt lat="43.35186" lon="-0.54102">
        <ele>187.11</ele>
        <time>2017-04-09T05:51:52Z</time>
      </trkpt>
      <trkpt lat="43.35187" lon="-0.54101">
        <ele>187.11</ele>
        <time>2017-04-09T05:51:53Z</time>
      </trkpt>
      <trkpt lat="43.35188" lon="-0.54099">
        <ele>187.59</ele>
        <time>2017-04-09T05:51:54Z</time>
      </trkpt>
      <trkpt lat="43.35188" lon="-0.54097">
        <ele>187.59</ele>
        <time>2017-04-09T05:51:55Z</time>
      </trkpt>
      <trkpt lat="43.35189" lon="-0.54096">
        <ele>187.59</ele>
        <time>2017-04-09T05:51:56Z</time>
      </trkpt>
      <trkpt lat="43.35189" lon="-0.54094">
        <ele>188.08</ele>
        <time>2017-04-09T05:51:57Z</time>
      </trkpt>
      <trkpt lat="43.35189" lon="-0.54092">
        <ele>188.08</ele>
        <time>2017-04-09T05:51:58Z</time>
      </trkpt>
      <trkpt lat="43.35188" lon="-0.54066">
        <ele>191.92</ele>
        <time>2017-04-09T05:52:14Z</time>
      </trkpt>
      <trkpt lat="43.35166" lon="-0.54049">
        <ele>193.36</ele>
        <time>2017-04-09T05:52:27Z</time>
      </trkpt>
      <trkpt lat="43.35143" lon="-0.54036">
        <ele>197.21</ele>
        <time>2017-04-09T05:52:40Z</time>
      </trkpt>
      <trkpt lat="43.35141" lon="-0.54035">
        <ele>197.21</ele>
        <time>2017-04-09T05:52:41Z</time>
      </trkpt>
      <trkpt lat="43.3511" lon="-0.54027">
        <ele>201.05</ele>
        <time>2017-04-09T05:52:52Z</time>
      </trkpt>
      <trkpt lat="43.35088" lon="-0.53991">
        <ele>202.01</ele>
        <time>2017-04-09T05:53:03Z</time>
      </trkpt>
      <trkpt lat="43.35086" lon="-0.53986">
        <ele>202.01</ele>
        <time>2017-04-09T05:53:04Z</time>
      </trkpt>
      <trkpt lat="43.35073" lon="-0.5396">
        <ele>201.05</ele>
        <time>2017-04-09T05:53:09Z</time>
      </trkpt>
      <trkpt lat="43.35071" lon="-0.53953">
        <ele>200.57</ele>
        <time>2017-04-09T05:53:10Z</time>
      </trkpt>
      <trkpt lat="43.3507" lon="-0.53945">
        <ele>200.57</ele>
        <time>2017-04-09T05:53:11Z</time>
      </trkpt>
      <trkpt lat="43.35069" lon="-0.53931">
        <ele>200.09</ele>
        <time>2017-04-09T05:53:13Z</time>
      </trkpt>
      <trkpt lat="43.35069" lon="-0.53925">
        <ele>200.09</ele>
        <time>2017-04-09T05:53:14Z</time>
      </trkpt>
      <trkpt lat="43.3507" lon="-0.5392">
        <ele>199.61</ele>
        <time>2017-04-09T05:53:15Z</time>
      </trkpt>
      <trkpt lat="43.3507" lon="-0.53916">
        <ele>199.61</ele>
        <time>2017-04-09T05:53:16Z</time>
      </trkpt>
      <trkpt lat="43.3507" lon="-0.53911">
        <ele>199.13</ele>
        <time>2017-04-09T05:53:17Z</time>
      </trkpt>
      <trkpt lat="43.3507" lon="-0.53905">
        <ele>199.13</ele>
        <time>2017-04-09T05:53:18Z</time>
      </trkpt>
      <trkpt lat="43.35071" lon="-0.53898">
        <ele>198.65</ele>
        <time>2017-04-09T05:53:19Z</time>
      </trkpt>
      <trkpt lat="43.35071" lon="-0.53891">
        <ele>198.65</ele>
        <time>2017-04-09T05:53:20Z</time>
      </trkpt>
      <trkpt lat="43.35071" lon="-0.53884">
        <ele>198.65</ele>
        <time>2017-04-09T05:53:21Z</time>
      </trkpt>
      <trkpt lat="43.35068" lon="-0.53865">
        <ele>198.17</ele>
        <time>2017-04-09T05:53:24Z</time>
      </trkpt>
      <trkpt lat="43.35057" lon="-0.53807">
        <ele>197.21</ele>
        <time>2017-04-09T05:53:32Z</time>
      </trkpt>
      <trkpt lat="43.35055" lon="-0.53797">
        <ele>196.73</ele>
        <time>2017-04-09T05:53:33Z</time>
      </trkpt>
      <trkpt lat="43.35046" lon="-0.53744">
        <ele>191.44</ele>
        <time>2017-04-09T05:53:42Z</time>
      </trkpt>
      <trkpt lat="43.35037" lon="-0.53721">
        <ele>188.56</ele>
        <time>2017-04-09T05:53:50Z</time>
      </trkpt>
      <trkpt lat="43.35012" lon="-0.53743">
        <ele>183.75</ele>
        <time>2017-04-09T05:53:59Z</time>
      </trkpt>
      <trkpt lat="43.34977" lon="-0.53783">
        <ele>174.14</ele>
        <time>2017-04-09T05:54:09Z</time>
      </trkpt>
      <trkpt lat="43.34974" lon="-0.53788">
        <ele>173.17</ele>
        <time>2017-04-09T05:54:10Z</time>
      </trkpt>
      <trkpt lat="43.34972" lon="-0.53794">
        <ele>171.73</ele>
        <time>2017-04-09T05:54:11Z</time>
      </trkpt>
      <trkpt lat="43.3497" lon="-0.53797">
        <ele>170.77</ele>
        <time>2017-04-09T05:54:12Z</time>
      </trkpt>
      <trkpt lat="43.34972" lon="-0.53796">
        <ele>167.89</ele>
        <time>2017-04-09T05:54:25Z</time>
      </trkpt>
      <trkpt lat="43.34971" lon="-0.53798">
        <ele>169.81</ele>
        <time>2017-04-09T05:55:07Z</time>
      </trkpt>
      <trkpt lat="43.34972" lon="-0.53797">
        <ele>170.77</ele>
        <time>2017-04-09T05:55:31Z</time>
      </trkpt>
      <trkpt lat="43.3497" lon="-0.53797">
        <ele>173.17</ele>
        <time>2017-04-09T05:55:49Z</time>
      </trkpt>
      <trkpt lat="43.34971" lon="-0.53796">
        <ele>176.06</ele>
        <time>2017-04-09T05:56:04Z</time>
      </trkpt>
      <trkpt lat="43.34973" lon="-0.53793">
        <ele>173.66</ele>
        <time>2017-04-09T05:56:19Z</time>
      </trkpt>
      <trkpt lat="43.34971" lon="-0.53796">
        <ele>169.33</ele>
        <time>2017-04-09T05:56:38Z</time>
      </trkpt>
      <trkpt lat="43.34972" lon="-0.53799">
        <ele>169.81</ele>
        <time>2017-04-09T05:56:45Z</time>
      </trkpt>
      <trkpt lat="43.34972" lon="-0.53801">
        <ele>169.81</ele>
        <time>2017-04-09T05:56:46Z</time>
      </trkpt>
      <trkpt lat="43.34972" lon="-0.53846">
        <ele>172.21</ele>
        <time>2017-04-09T05:56:57Z</time>
      </trkpt>
      <trkpt lat="43.34973" lon="-0.53853">
        <ele>175.1</ele>
        <time>2017-04-09T05:57:08Z</time>
      </trkpt>
      <trkpt lat="43.34975" lon="-0.53871">
        <ele>175.58</ele>
        <time>2017-04-09T05:57:22Z</time>
      </trkpt>
      <trkpt lat="43.34982" lon="-0.53921">
        <ele>177.98</ele>
        <time>2017-04-09T05:57:34Z</time>
      </trkpt>
      <trkpt lat="43.34996" lon="-0.53977">
        <ele>180.87</ele>
        <time>2017-04-09T05:57:47Z</time>
      </trkpt>
      <trkpt lat="43.35" lon="-0.53994">
        <ele>180.87</ele>
        <time>2017-04-09T05:57:50Z</time>
      </trkpt>
      <trkpt lat="43.35001" lon="-0.54">
        <ele>180.87</ele>
        <time>2017-04-09T05:57:51Z</time>
      </trkpt>
      <trkpt lat="43.35002" lon="-0.54006">
        <ele>180.38</ele>
        <time>2017-04-09T05:57:52Z</time>
      </trkpt>
      <trkpt lat="43.35002" lon="-0.54013">
        <ele>180.38</ele>
        <time>2017-04-09T05:57:53Z</time>
      </trkpt>
      <trkpt lat="43.35002" lon="-0.5402">
        <ele>180.38</ele>
        <time>2017-04-09T05:57:54Z</time>
      </trkpt>
      <trkpt lat="43.35001" lon="-0.54026">
        <ele>179.9</ele>
        <time>2017-04-09T05:57:55Z</time>
      </trkpt>
      <trkpt lat="43.35" lon="-0.54032">
        <ele>179.9</ele>
        <time>2017-04-09T05:57:56Z</time>
      </trkpt>
      <trkpt lat="43.34999" lon="-0.54038">
        <ele>179.9</ele>
        <time>2017-04-09T05:57:57Z</time>
      </trkpt>
      <trkpt lat="43.34997" lon="-0.54057">
        <ele>179.9</ele>
        <time>2017-04-09T05:58:00Z</time>
      </trkpt>
      <trkpt lat="43.34992" lon="-0.54128">
        <ele>178.46</ele>
        <time>2017-04-09T05:58:10Z</time>
      </trkpt>
      <trkpt lat="43.34993" lon="-0.54135">
        <ele>177.98</ele>
        <time>2017-04-09T05:58:11Z</time>
      </trkpt>
      <trkpt lat="43.34993" lon="-0.54142">
        <ele>177.5</ele>
        <time>2017-04-09T05:58:12Z</time>
      </trkpt>
      <trkpt lat="43.34993" lon="-0.54148">
        <ele>177.5</ele>
        <time>2017-04-09T05:58:13Z</time>
      </trkpt>
      <trkpt lat="43.34994" lon="-0.54155">
        <ele>177.02</ele>
        <time>2017-04-09T05:58:14Z</time>
      </trkpt>
      <trkpt lat="43.34995" lon="-0.54161">
        <ele>177.02</ele>
        <time>2017-04-09T05:58:15Z</time>
      </trkpt>
      <trkpt lat="43.34997" lon="-0.54166">
        <ele>176.06</ele>
        <time>2017-04-09T05:58:16Z</time>
      </trkpt>
      <trkpt lat="43.34999" lon="-0.54172">
        <ele>175.58</ele>
        <time>2017-04-09T05:58:17Z</time>
      </trkpt>
      <trkpt lat="43.3501" lon="-0.54215">
        <ele>172.21</ele>
        <time>2017-04-09T05:58:23Z</time>
      </trkpt>
      <trkpt lat="43.35011" lon="-0.54222">
        <ele>171.25</ele>
        <time>2017-04-09T05:58:24Z</time>
      </trkpt>
      <trkpt lat="43.3501" lon="-0.5423">
        <ele>170.29</ele>
        <time>2017-04-09T05:58:25Z</time>
      </trkpt>
      <trkpt lat="43.35008" lon="-0.54237">
        <ele>169.33</ele>
        <time>2017-04-09T05:58:26Z</time>
      </trkpt>
      <trkpt lat="43.35004" lon="-0.54243">
        <ele>168.37</ele>
        <time>2017-04-09T05:58:27Z</time>
      </trkpt>
      <trkpt lat="43.34999" lon="-0.5425">
        <ele>167.89</ele>
        <time>2017-04-09T05:58:28Z</time>
      </trkpt>
      <trkpt lat="43.34994" lon="-0.54257">
        <ele>166.93</ele>
        <time>2017-04-09T05:58:29Z</time>
      </trkpt>
      <trkpt lat="43.34924" lon="-0.54346">
        <ele>157.31</ele>
        <time>2017-04-09T05:58:39Z</time>
      </trkpt>
      <trkpt lat="43.3491" lon="-0.54363">
        <ele>156.35</ele>
        <time>2017-04-09T05:58:41Z</time>
      </trkpt>
      <trkpt lat="43.34903" lon="-0.54368">
        <ele>155.87</ele>
        <time>2017-04-09T05:58:42Z</time>
      </trkpt>
      <trkpt lat="43.34896" lon="-0.54371">
        <ele>155.87</ele>
        <time>2017-04-09T05:58:43Z</time>
      </trkpt>
      <trkpt lat="43.3489" lon="-0.54372">
        <ele>155.39</ele>
        <time>2017-04-09T05:58:44Z</time>
      </trkpt>
      <trkpt lat="43.34883" lon="-0.54374">
        <ele>155.39</ele>
        <time>2017-04-09T05:58:45Z</time>
      </trkpt>
      <trkpt lat="43.34876" lon="-0.54375">
        <ele>154.91</ele>
        <time>2017-04-09T05:58:46Z</time>
      </trkpt>
      <trkpt lat="43.34869" lon="-0.54378">
        <ele>154.43</ele>
        <time>2017-04-09T05:58:47Z</time>
      </trkpt>
      <trkpt lat="43.34862" lon="-0.54382">
        <ele>153.95</ele>
        <time>2017-04-09T05:58:48Z</time>
      </trkpt>
      <trkpt lat="43.34855" lon="-0.54387">
        <ele>153.47</ele>
        <time>2017-04-09T05:58:49Z</time>
      </trkpt>
      <trkpt lat="43.34848" lon="-0.54392">
        <ele>152.99</ele>
        <time>2017-04-09T05:58:50Z</time>
      </trkpt>
      <trkpt lat="43.34842" lon="-0.54398">
        <ele>152.99</ele>
        <time>2017-04-09T05:58:51Z</time>
      </trkpt>
      <trkpt lat="43.34772" lon="-0.54479">
        <ele>149.62</ele>
        <time>2017-04-09T05:59:03Z</time>
      </trkpt>
      <trkpt lat="43.34689" lon="-0.5458">
        <ele>142.89</ele>
        <time>2017-04-09T05:59:15Z</time>
      </trkpt>
      <trkpt lat="43.3466" lon="-0.54617">
        <ele>139.05</ele>
        <time>2017-04-09T05:59:24Z</time>
      </trkpt>
      <trkpt lat="43.34658" lon="-0.54617">
        <ele>138.57</ele>
        <time>2017-04-09T05:59:25Z</time>
      </trkpt>
      <trkpt lat="43.34655" lon="-0.54616">
        <ele>138.09</ele>
        <time>2017-04-09T05:59:26Z</time>
      </trkpt>
      <trkpt lat="43.34654" lon="-0.54613">
        <ele>138.09</ele>
        <time>2017-04-09T05:59:27Z</time>
      </trkpt>
      <trkpt lat="43.34653" lon="-0.54611">
        <ele>137.61</ele>
        <time>2017-04-09T05:59:28Z</time>
      </trkpt>
      <trkpt lat="43.34653" lon="-0.54607">
        <ele>137.13</ele>
        <time>2017-04-09T05:59:29Z</time>
      </trkpt>
      <trkpt lat="43.34655" lon="-0.54558">
        <ele>134.24</ele>
        <time>2017-04-09T05:59:40Z</time>
      </trkpt>
      <trkpt lat="43.34656" lon="-0.54537">
        <ele>133.76</ele>
        <time>2017-04-09T05:59:45Z</time>
      </trkpt>
      <trkpt lat="43.34659" lon="-0.5448">
        <ele>134.24</ele>
        <time>2017-04-09T05:59:56Z</time>
      </trkpt>
      <trkpt lat="43.3466" lon="-0.54467">
        <ele>134.24</ele>
        <time>2017-04-09T05:59:58Z</time>
      </trkpt>
      <trkpt lat="43.34668" lon="-0.54419">
        <ele>134.72</ele>
        <time>2017-04-09T06:00:06Z</time>
      </trkpt>
      <trkpt lat="43.34663" lon="-0.54397">
        <ele>136.16</ele>
        <time>2017-04-09T06:00:11Z</time>
      </trkpt>
      <trkpt lat="43.34664" lon="-0.54394">
        <ele>136.64</ele>
        <time>2017-04-09T06:00:12Z</time>
      </trkpt>
      <trkpt lat="43.34664" lon="-0.54391">
        <ele>137.13</ele>
        <time>2017-04-09T06:00:13Z</time>
      </trkpt>
      <trkpt lat="43.34665" lon="-0.54388">
        <ele>137.61</ele>
        <time>2017-04-09T06:00:14Z</time>
      </trkpt>
      <trkpt lat="43.34667" lon="-0.54385">
        <ele>138.57</ele>
        <time>2017-04-09T06:00:15Z</time>
      </trkpt>
      <trkpt lat="43.34668" lon="-0.54382">
        <ele>139.05</ele>
        <time>2017-04-09T06:00:16Z</time>
      </trkpt>
      <trkpt lat="43.34672" lon="-0.54369">
        <ele>142.41</ele>
        <time>2017-04-09T06:00:20Z</time>
      </trkpt>
      <trkpt lat="43.34673" lon="-0.54367">
        <ele>142.89</ele>
        <time>2017-04-09T06:00:21Z</time>
      </trkpt>
      <trkpt lat="43.34678" lon="-0.54346">
        <ele>151.06</ele>
        <time>2017-04-09T06:00:31Z</time>
      </trkpt>
      <trkpt lat="43.34678" lon="-0.54343">
        <ele>151.54</ele>
        <time>2017-04-09T06:00:32Z</time>
      </trkpt>
      <trkpt lat="43.34679" lon="-0.5434">
        <ele>152.51</ele>
        <time>2017-04-09T06:00:34Z</time>
      </trkpt>
      <trkpt lat="43.3468" lon="-0.54328">
        <ele>156.83</ele>
        <time>2017-04-09T06:00:41Z</time>
      </trkpt>
      <trkpt lat="43.3468" lon="-0.54326">
        <ele>157.31</ele>
        <time>2017-04-09T06:00:42Z</time>
      </trkpt>
      <trkpt lat="43.34683" lon="-0.54309">
        <ele>164.52</ele>
        <time>2017-04-09T06:00:56Z</time>
      </trkpt>
      <trkpt lat="43.34686" lon="-0.54289">
        <ele>167.89</ele>
        <time>2017-04-09T06:01:08Z</time>
      </trkpt>
      <trkpt lat="43.3469" lon="-0.54268">
        <ele>163.56</ele>
        <time>2017-04-09T06:01:21Z</time>
      </trkpt>
      <trkpt lat="43.34695" lon="-0.54245">
        <ele>161.16</ele>
        <time>2017-04-09T06:01:32Z</time>
      </trkpt>
      <trkpt lat="43.34693" lon="-0.54237">
        <ele>159.24</ele>
        <time>2017-04-09T06:01:38Z</time>
      </trkpt>
      <trkpt lat="43.34691" lon="-0.54235">
        <ele>162.12</ele>
        <time>2017-04-09T06:01:51Z</time>
      </trkpt>
      <trkpt lat="43.34684" lon="-0.54242">
        <ele>173.66</ele>
        <time>2017-04-09T06:02:05Z</time>
      </trkpt>
      <trkpt lat="43.34683" lon="-0.54242">
        <ele>175.1</ele>
        <time>2017-04-09T06:02:07Z</time>
      </trkpt>
      <trkpt lat="43.34682" lon="-0.54243">
        <ele>175.58</ele>
        <time>2017-04-09T06:02:08Z</time>
      </trkpt>
      <trkpt lat="43.34681" lon="-0.54243">
        <ele>176.54</ele>
        <time>2017-04-09T06:02:09Z</time>
      </trkpt>
      <trkpt lat="43.34671" lon="-0.54251">
        <ele>185.67</ele>
        <time>2017-04-09T06:02:21Z</time>
      </trkpt>
      <trkpt lat="43.3466" lon="-0.54259">
        <ele>190.48</ele>
        <time>2017-04-09T06:02:34Z</time>
      </trkpt>
      <trkpt lat="43.34637" lon="-0.54267">
        <ele>195.28</ele>
        <time>2017-04-09T06:02:48Z</time>
      </trkpt>
      <trkpt lat="43.34626" lon="-0.54273">
        <ele>202.98</ele>
        <time>2017-04-09T06:02:58Z</time>
      </trkpt>
      <trkpt lat="43.34624" lon="-0.54273">
        <ele>203.46</ele>
        <time>2017-04-09T06:02:59Z</time>
      </trkpt>
      <trkpt lat="43.34606" lon="-0.54274">
        <ele>206.34</ele>
        <time>2017-04-09T06:03:09Z</time>
      </trkpt>
      <trkpt lat="43.34571" lon="-0.54264">
        <ele>202.98</ele>
        <time>2017-04-09T06:03:21Z</time>
      </trkpt>
      <trkpt lat="43.34554" lon="-0.54233">
        <ele>196.73</ele>
        <time>2017-04-09T06:03:33Z</time>
      </trkpt>
      <trkpt lat="43.34563" lon="-0.54206">
        <ele>196.73</ele>
        <time>2017-04-09T06:03:47Z</time>
      </trkpt>
      <trkpt lat="43.34568" lon="-0.54192">
        <ele>197.69</ele>
        <time>2017-04-09T06:03:55Z</time>
      </trkpt>
      <trkpt lat="43.34568" lon="-0.5419">
        <ele>198.17</ele>
        <time>2017-04-09T06:03:56Z</time>
      </trkpt>
      <trkpt lat="43.34569" lon="-0.54188">
        <ele>198.17</ele>
        <time>2017-04-09T06:03:57Z</time>
      </trkpt>
      <trkpt lat="43.34569" lon="-0.54184">
        <ele>197.69</ele>
        <time>2017-04-09T06:04:00Z</time>
      </trkpt>
      <trkpt lat="43.34568" lon="-0.54183">
        <ele>197.21</ele>
        <time>2017-04-09T06:04:01Z</time>
      </trkpt>
      <trkpt lat="43.34568" lon="-0.54182">
        <ele>196.73</ele>
        <time>2017-04-09T06:04:02Z</time>
      </trkpt>
      <trkpt lat="43.34568" lon="-0.54182">
        <ele>195.77</ele>
        <time>2017-04-09T06:04:03Z</time>
      </trkpt>
      <trkpt lat="43.34567" lon="-0.54182">
        <ele>195.28</ele>
        <time>2017-04-09T06:04:05Z</time>
      </trkpt>
      <trkpt lat="43.34554" lon="-0.54175">
        <ele>199.13</ele>
        <time>2017-04-09T06:04:18Z</time>
      </trkpt>
      <trkpt lat="43.3455" lon="-0.54172">
        <ele>199.13</ele>
        <time>2017-04-09T06:04:23Z</time>
      </trkpt>
      <trkpt lat="43.34543" lon="-0.54166">
        <ele>199.13</ele>
        <time>2017-04-09T06:04:30Z</time>
      </trkpt>
      <trkpt lat="43.34537" lon="-0.54164">
        <ele>198.65</ele>
        <time>2017-04-09T06:04:35Z</time>
      </trkpt>
      <trkpt lat="43.34531" lon="-0.54161">
        <ele>198.65</ele>
        <time>2017-04-09T06:04:40Z</time>
      </trkpt>
      <trkpt lat="43.34516" lon="-0.54151">
        <ele>199.61</ele>
        <time>2017-04-09T06:04:52Z</time>
      </trkpt>
      <trkpt lat="43.34514" lon="-0.54151">
        <ele>200.09</ele>
        <time>2017-04-09T06:04:53Z</time>
      </trkpt>
      <trkpt lat="43.34509" lon="-0.54154">
        <ele>200.57</ele>
        <time>2017-04-09T06:04:56Z</time>
      </trkpt>
      <trkpt lat="43.3449" lon="-0.54146">
        <ele>202.49</ele>
        <time>2017-04-09T06:05:08Z</time>
      </trkpt>
      <trkpt lat="43.34466" lon="-0.54118">
        <ele>202.01</ele>
        <time>2017-04-09T06:05:25Z</time>
      </trkpt>
      <trkpt lat="43.34455" lon="-0.54106">
        <ele>201.53</ele>
        <time>2017-04-09T06:05:33Z</time>
      </trkpt>
      <trkpt lat="43.34458" lon="-0.54094">
        <ele>204.9</ele>
        <time>2017-04-09T06:05:38Z</time>
      </trkpt>
      <trkpt lat="43.34463" lon="-0.54086">
        <ele>206.82</ele>
        <time>2017-04-09T06:05:42Z</time>
      </trkpt>
      <trkpt lat="43.34474" lon="-0.54069">
        <ele>208.74</ele>
        <time>2017-04-09T06:05:53Z</time>
      </trkpt>
      <trkpt lat="43.34485" lon="-0.54058">
        <ele>209.7</ele>
        <time>2017-04-09T06:06:01Z</time>
      </trkpt>
      <trkpt lat="43.34496" lon="-0.54047">
        <ele>212.11</ele>
        <time>2017-04-09T06:06:12Z</time>
      </trkpt>
      <trkpt lat="43.34506" lon="-0.54031">
        <ele>217.88</ele>
        <time>2017-04-09T06:06:27Z</time>
      </trkpt>
      <trkpt lat="43.34513" lon="-0.54014">
        <ele>224.61</ele>
        <time>2017-04-09T06:06:39Z</time>
      </trkpt>
      <trkpt lat="43.34515" lon="-0.54007">
        <ele>226.05</ele>
        <time>2017-04-09T06:06:43Z</time>
      </trkpt>
      <trkpt lat="43.34516" lon="-0.53986">
        <ele>219.8</ele>
        <time>2017-04-09T06:06:57Z</time>
      </trkpt>
      <trkpt lat="43.34514" lon="-0.53978">
        <ele>215.95</ele>
        <time>2017-04-09T06:07:03Z</time>
      </trkpt>
      <trkpt lat="43.34512" lon="-0.53957">
        <ele>212.11</ele>
        <time>2017-04-09T06:07:14Z</time>
      </trkpt>
      <trkpt lat="43.34509" lon="-0.53949">
        <ele>211.15</ele>
        <time>2017-04-09T06:07:19Z</time>
      </trkpt>
      <trkpt lat="43.34506" lon="-0.5393">
        <ele>214.51</ele>
        <time>2017-04-09T06:07:31Z</time>
      </trkpt>
      <trkpt lat="43.34506" lon="-0.53915">
        <ele>216.91</ele>
        <time>2017-04-09T06:07:39Z</time>
      </trkpt>
      <trkpt lat="43.34504" lon="-0.53909">
        <ele>217.88</ele>
        <time>2017-04-09T06:07:42Z</time>
      </trkpt>
      <trkpt lat="43.34499" lon="-0.53883">
        <ele>219.32</ele>
        <time>2017-04-09T06:07:52Z</time>
      </trkpt>
      <trkpt lat="43.34506" lon="-0.5384">
        <ele>218.84</ele>
        <time>2017-04-09T06:08:03Z</time>
      </trkpt>
      <trkpt lat="43.34515" lon="-0.53801">
        <ele>217.88</ele>
        <time>2017-04-09T06:08:13Z</time>
      </trkpt>
      <trkpt lat="43.34518" lon="-0.53794">
        <ele>218.36</ele>
        <time>2017-04-09T06:08:15Z</time>
      </trkpt>
      <trkpt lat="43.34519" lon="-0.5379">
        <ele>218.84</ele>
        <time>2017-04-09T06:08:16Z</time>
      </trkpt>
      <trkpt lat="43.34519" lon="-0.53787">
        <ele>218.84</ele>
        <time>2017-04-09T06:08:17Z</time>
      </trkpt>
      <trkpt lat="43.34519" lon="-0.53784">
        <ele>218.84</ele>
        <time>2017-04-09T06:08:18Z</time>
      </trkpt>
      <trkpt lat="43.3452" lon="-0.53782">
        <ele>219.32</ele>
        <time>2017-04-09T06:08:19Z</time>
      </trkpt>
      <trkpt lat="43.34528" lon="-0.53758">
        <ele>219.32</ele>
        <time>2017-04-09T06:08:31Z</time>
      </trkpt>
      <trkpt lat="43.34542" lon="-0.53722">
        <ele>221.72</ele>
        <time>2017-04-09T06:08:47Z</time>
      </trkpt>
      <trkpt lat="43.34549" lon="-0.53697">
        <ele>223.16</ele>
        <time>2017-04-09T06:09:01Z</time>
      </trkpt>
      <trkpt lat="43.34556" lon="-0.53673">
        <ele>230.85</ele>
        <time>2017-04-09T06:09:15Z</time>
      </trkpt>
      <trkpt lat="43.34557" lon="-0.5367">
        <ele>233.26</ele>
        <time>2017-04-09T06:09:16Z</time>
      </trkpt>
      <trkpt lat="43.34559" lon="-0.53669">
        <ele>233.74</ele>
        <time>2017-04-09T06:09:17Z</time>
      </trkpt>
      <trkpt lat="43.3456" lon="-0.53667">
        <ele>234.22</ele>
        <time>2017-04-09T06:09:18Z</time>
      </trkpt>
      <trkpt lat="43.34562" lon="-0.53665">
        <ele>234.22</ele>
        <time>2017-04-09T06:09:19Z</time>
      </trkpt>
      <trkpt lat="43.34563" lon="-0.53664">
        <ele>234.22</ele>
        <time>2017-04-09T06:09:20Z</time>
      </trkpt>
      <trkpt lat="43.34588" lon="-0.53643">
        <ele>238.54</ele>
        <time>2017-04-09T06:09:30Z</time>
      </trkpt>
      <trkpt lat="43.34606" lon="-0.53621">
        <ele>240.47</ele>
        <time>2017-04-09T06:09:34Z</time>
      </trkpt>
      <trkpt lat="43.3461" lon="-0.53614">
        <ele>240.95</ele>
        <time>2017-04-09T06:09:35Z</time>
      </trkpt>
      <trkpt lat="43.34628" lon="-0.53576">
        <ele>242.87</ele>
        <time>2017-04-09T06:09:40Z</time>
      </trkpt>
      <trkpt lat="43.34641" lon="-0.53526">
        <ele>245.27</ele>
        <time>2017-04-09T06:09:45Z</time>
      </trkpt>
      <trkpt lat="43.34644" lon="-0.53515">
        <ele>245.27</ele>
        <time>2017-04-09T06:09:46Z</time>
      </trkpt>
      <trkpt lat="43.34647" lon="-0.53504">
        <ele>245.27</ele>
        <time>2017-04-09T06:09:47Z</time>
      </trkpt>
      <trkpt lat="43.34652" lon="-0.53493">
        <ele>245.27</ele>
        <time>2017-04-09T06:09:48Z</time>
      </trkpt>
      <trkpt lat="43.34656" lon="-0.53483">
        <ele>244.79</ele>
        <time>2017-04-09T06:09:49Z</time>
      </trkpt>
      <trkpt lat="43.34681" lon="-0.53427">
        <ele>243.83</ele>
        <time>2017-04-09T06:09:56Z</time>
      </trkpt>
      <trkpt lat="43.34685" lon="-0.5341">
        <ele>243.35</ele>
        <time>2017-04-09T06:09:58Z</time>
      </trkpt>
      <trkpt lat="43.3469" lon="-0.53385">
        <ele>242.87</ele>
        <time>2017-04-09T06:10:01Z</time>
      </trkpt>
      <trkpt lat="43.34691" lon="-0.53377">
        <ele>242.87</ele>
        <time>2017-04-09T06:10:02Z</time>
      </trkpt>
      <trkpt lat="43.34693" lon="-0.53351">
        <ele>243.35</ele>
        <time>2017-04-09T06:10:05Z</time>
      </trkpt>
      <trkpt lat="43.34695" lon="-0.53343">
        <ele>243.83</ele>
        <time>2017-04-09T06:10:06Z</time>
      </trkpt>
      <trkpt lat="43.34697" lon="-0.53336">
        <ele>244.31</ele>
        <time>2017-04-09T06:10:07Z</time>
      </trkpt>
      <trkpt lat="43.34699" lon="-0.53329">
        <ele>244.31</ele>
        <time>2017-04-09T06:10:08Z</time>
      </trkpt>
      <trkpt lat="43.34701" lon="-0.53322">
        <ele>244.79</ele>
        <time>2017-04-09T06:10:09Z</time>
      </trkpt>
      <trkpt lat="43.34717" lon="-0.53277">
        <ele>244.31</ele>
        <time>2017-04-09T06:10:18Z</time>
      </trkpt>
      <trkpt lat="43.34743" lon="-0.53236">
        <ele>237.1</ele>
        <time>2017-04-09T06:10:27Z</time>
      </trkpt>
      <trkpt lat="43.34756" lon="-0.53217">
        <ele>231.81</ele>
        <time>2017-04-09T06:10:30Z</time>
      </trkpt>
      <trkpt lat="43.34784" lon="-0.53182">
        <ele>219.32</ele>
        <time>2017-04-09T06:10:36Z</time>
      </trkpt>
      <trkpt lat="43.34787" lon="-0.53178">
        <ele>218.84</ele>
        <time>2017-04-09T06:10:37Z</time>
      </trkpt>
      <trkpt lat="43.34791" lon="-0.53175">
        <ele>217.4</ele>
        <time>2017-04-09T06:10:38Z</time>
      </trkpt>
      <trkpt lat="43.34794" lon="-0.53173">
        <ele>215.95</ele>
        <time>2017-04-09T06:10:39Z</time>
      </trkpt>
      <trkpt lat="43.34796" lon="-0.53171">
        <ele>214.51</ele>
        <time>2017-04-09T06:10:40Z</time>
      </trkpt>
      <trkpt lat="43.34801" lon="-0.53166">
        <ele>209.22</ele>
        <time>2017-04-09T06:10:43Z</time>
      </trkpt>
      <trkpt lat="43.34801" lon="-0.53163">
        <ele>209.22</ele>
        <time>2017-04-09T06:10:45Z</time>
      </trkpt>
      <trkpt lat="43.34801" lon="-0.53164">
        <ele>209.22</ele>
        <time>2017-04-09T06:10:46Z</time>
      </trkpt>
      <trkpt lat="43.34799" lon="-0.53164">
        <ele>209.22</ele>
        <time>2017-04-09T06:10:47Z</time>
      </trkpt>
      <trkpt lat="43.34798" lon="-0.53164">
        <ele>209.7</ele>
        <time>2017-04-09T06:10:48Z</time>
      </trkpt>
      <trkpt lat="43.34797" lon="-0.53164">
        <ele>209.7</ele>
        <time>2017-04-09T06:10:49Z</time>
      </trkpt>
      <trkpt lat="43.34769" lon="-0.53157">
        <ele>208.74</ele>
        <time>2017-04-09T06:11:04Z</time>
      </trkpt>
      <trkpt lat="43.34761" lon="-0.53153">
        <ele>209.7</ele>
        <time>2017-04-09T06:11:09Z</time>
      </trkpt>
      <trkpt lat="43.34745" lon="-0.53132">
        <ele>215.95</ele>
        <time>2017-04-09T06:11:21Z</time>
      </trkpt>
      <trkpt lat="43.34734" lon="-0.53122">
        <ele>219.32</ele>
        <time>2017-04-09T06:11:28Z</time>
      </trkpt>
      <trkpt lat="43.34719" lon="-0.53102">
        <ele>221.72</ele>
        <time>2017-04-09T06:11:39Z</time>
      </trkpt>
      <trkpt lat="43.34711" lon="-0.53092">
        <ele>223.16</ele>
        <time>2017-04-09T06:11:44Z</time>
      </trkpt>
      <trkpt lat="43.34699" lon="-0.53087">
        <ele>233.26</ele>
        <time>2017-04-09T06:11:54Z</time>
      </trkpt>
      <trkpt lat="43.34698" lon="-0.53078">
        <ele>239.51</ele>
        <time>2017-04-09T06:11:59Z</time>
      </trkpt>
      <trkpt lat="43.34697" lon="-0.53075">
        <ele>240.95</ele>
        <time>2017-04-09T06:12:00Z</time>
      </trkpt>
      <trkpt lat="43.34687" lon="-0.53054">
        <ele>253.93</ele>
        <time>2017-04-09T06:12:12Z</time>
      </trkpt>
      <trkpt lat="43.34686" lon="-0.53053">
        <ele>254.89</ele>
        <time>2017-04-09T06:12:13Z</time>
      </trkpt>
      <trkpt lat="43.34685" lon="-0.53051">
        <ele>256.33</ele>
        <time>2017-04-09T06:12:14Z</time>
      </trkpt>
      <trkpt lat="43.34683" lon="-0.53049">
        <ele>257.77</ele>
        <time>2017-04-09T06:12:15Z</time>
      </trkpt>
      <trkpt lat="43.34668" lon="-0.53028">
        <ele>274.59</ele>
        <time>2017-04-09T06:12:27Z</time>
      </trkpt>
      <trkpt lat="43.34655" lon="-0.53011">
        <ele>279.88</ele>
        <time>2017-04-09T06:12:33Z</time>
      </trkpt>
      <trkpt lat="43.34653" lon="-0.53009">
        <ele>280.36</ele>
        <time>2017-04-09T06:12:34Z</time>
      </trkpt>
      <trkpt lat="43.34652" lon="-0.53007">
        <ele>281.32</ele>
        <time>2017-04-09T06:12:35Z</time>
      </trkpt>
      <trkpt lat="43.3465" lon="-0.53006">
        <ele>281.8</ele>
        <time>2017-04-09T06:12:36Z</time>
      </trkpt>
      <trkpt lat="43.34649" lon="-0.53005">
        <ele>281.8</ele>
        <time>2017-04-09T06:12:37Z</time>
      </trkpt>
      <trkpt lat="43.34634" lon="-0.52988">
        <ele>288.05</ele>
        <time>2017-04-09T06:12:49Z</time>
      </trkpt>
      <trkpt lat="43.3463" lon="-0.52986">
        <ele>289.97</ele>
        <time>2017-04-09T06:12:51Z</time>
      </trkpt>
      <trkpt lat="43.34625" lon="-0.5298">
        <ele>292.86</ele>
        <time>2017-04-09T06:12:55Z</time>
      </trkpt>
      <trkpt lat="43.34623" lon="-0.52978">
        <ele>293.82</ele>
        <time>2017-04-09T06:12:56Z</time>
      </trkpt>
      <trkpt lat="43.34617" lon="-0.52968">
        <ele>298.63</ele>
        <time>2017-04-09T06:13:01Z</time>
      </trkpt>
      <trkpt lat="43.34615" lon="-0.52965">
        <ele>299.59</ele>
        <time>2017-04-09T06:13:02Z</time>
      </trkpt>
      <trkpt lat="43.34599" lon="-0.52952">
        <ele>306.32</ele>
        <time>2017-04-09T06:13:10Z</time>
      </trkpt>
      <trkpt lat="43.34596" lon="-0.52946">
        <ele>307.28</ele>
        <time>2017-04-09T06:13:13Z</time>
      </trkpt>
      <trkpt lat="43.34592" lon="-0.52945">
        <ele>307.76</ele>
        <time>2017-04-09T06:13:14Z</time>
      </trkpt>
      <trkpt lat="43.3459" lon="-0.52942">
        <ele>308.72</ele>
        <time>2017-04-09T06:13:15Z</time>
      </trkpt>
      <trkpt lat="43.34588" lon="-0.52939">
        <ele>309.68</ele>
        <time>2017-04-09T06:13:16Z</time>
      </trkpt>
      <trkpt lat="43.34584" lon="-0.52935">
        <ele>311.12</ele>
        <time>2017-04-09T06:13:17Z</time>
      </trkpt>
      <trkpt lat="43.3458" lon="-0.52931">
        <ele>312.09</ele>
        <time>2017-04-09T06:13:18Z</time>
      </trkpt>
      <trkpt lat="43.34576" lon="-0.52927">
        <ele>313.05</ele>
        <time>2017-04-09T06:13:19Z</time>
      </trkpt>
      <trkpt lat="43.34572" lon="-0.52923">
        <ele>313.53</ele>
        <time>2017-04-09T06:13:20Z</time>
      </trkpt>
      <trkpt lat="43.34568" lon="-0.52918">
        <ele>314.97</ele>
        <time>2017-04-09T06:13:21Z</time>
      </trkpt>
      <trkpt lat="43.34562" lon="-0.52911">
        <ele>315.93</ele>
        <time>2017-04-09T06:13:22Z</time>
      </trkpt>
      <trkpt lat="43.34556" lon="-0.52905">
        <ele>317.37</ele>
        <time>2017-04-09T06:13:23Z</time>
      </trkpt>
      <trkpt lat="43.34547" lon="-0.52896">
        <ele>318.33</ele>
        <time>2017-04-09T06:13:25Z</time>
      </trkpt>
      <trkpt lat="43.34543" lon="-0.52893">
        <ele>318.81</ele>
        <time>2017-04-09T06:13:26Z</time>
      </trkpt>
      <trkpt lat="43.34539" lon="-0.52891">
        <ele>318.33</ele>
        <time>2017-04-09T06:13:27Z</time>
      </trkpt>
      <trkpt lat="43.34536" lon="-0.52889">
        <ele>318.33</ele>
        <time>2017-04-09T06:13:28Z</time>
      </trkpt>
      <trkpt lat="43.34534" lon="-0.52887">
        <ele>318.33</ele>
        <time>2017-04-09T06:13:29Z</time>
      </trkpt>
      <trkpt lat="43.34532" lon="-0.52885">
        <ele>317.85</ele>
        <time>2017-04-09T06:13:30Z</time>
      </trkpt>
      <trkpt lat="43.3453" lon="-0.52883">
        <ele>317.37</ele>
        <time>2017-04-09T06:13:31Z</time>
      </trkpt>
      <trkpt lat="43.34528" lon="-0.52882">
        <ele>317.37</ele>
        <time>2017-04-09T06:13:32Z</time>
      </trkpt>
      <trkpt lat="43.34525" lon="-0.5288">
        <ele>317.37</ele>
        <time>2017-04-09T06:13:33Z</time>
      </trkpt>
      <trkpt lat="43.34523" lon="-0.52878">
        <ele>317.37</ele>
        <time>2017-04-09T06:13:34Z</time>
      </trkpt>
      <trkpt lat="43.34521" lon="-0.52877">
        <ele>317.37</ele>
        <time>2017-04-09T06:13:35Z</time>
      </trkpt>
      <trkpt lat="43.3452" lon="-0.52875">
        <ele>316.89</ele>
        <time>2017-04-09T06:13:36Z</time>
      </trkpt>
      <trkpt lat="43.34484" lon="-0.52848">
        <ele>306.32</ele>
        <time>2017-04-09T06:13:47Z</time>
      </trkpt>
      <trkpt lat="43.34465" lon="-0.52832">
        <ele>298.15</ele>
        <time>2017-04-09T06:13:51Z</time>
      </trkpt>
      <trkpt lat="43.34461" lon="-0.52825">
        <ele>296.7</ele>
        <time>2017-04-09T06:13:52Z</time>
      </trkpt>
      <trkpt lat="43.3446" lon="-0.52818">
        <ele>297.18</ele>
        <time>2017-04-09T06:13:53Z</time>
      </trkpt>
      <trkpt lat="43.34455" lon="-0.52785">
        <ele>301.03</ele>
        <time>2017-04-09T06:14:01Z</time>
      </trkpt>
      <trkpt lat="43.34454" lon="-0.52777">
        <ele>302.47</ele>
        <time>2017-04-09T06:14:04Z</time>
      </trkpt>
      <trkpt lat="43.34454" lon="-0.52774">
        <ele>303.43</ele>
        <time>2017-04-09T06:14:05Z</time>
      </trkpt>
      <trkpt lat="43.34453" lon="-0.5277">
        <ele>303.43</ele>
        <time>2017-04-09T06:14:06Z</time>
      </trkpt>
      <trkpt lat="43.34452" lon="-0.52766">
        <ele>303.43</ele>
        <time>2017-04-09T06:14:07Z</time>
      </trkpt>
      <trkpt lat="43.3445" lon="-0.52763">
        <ele>303.43</ele>
        <time>2017-04-09T06:14:08Z</time>
      </trkpt>
      <trkpt lat="43.34448" lon="-0.52759">
        <ele>301.99</ele>
        <time>2017-04-09T06:14:09Z</time>
      </trkpt>
      <trkpt lat="43.34447" lon="-0.52755">
        <ele>300.55</ele>
        <time>2017-04-09T06:14:10Z</time>
      </trkpt>
      <trkpt lat="43.34445" lon="-0.52752">
        <ele>299.59</ele>
        <time>2017-04-09T06:14:11Z</time>
      </trkpt>
      <trkpt lat="43.34444" lon="-0.52749">
        <ele>298.63</ele>
        <time>2017-04-09T06:14:12Z</time>
      </trkpt>
      <trkpt lat="43.34437" lon="-0.52742">
        <ele>295.74</ele>
        <time>2017-04-09T06:14:16Z</time>
      </trkpt>
      <trkpt lat="43.34435" lon="-0.52739">
        <ele>295.74</ele>
        <time>2017-04-09T06:14:17Z</time>
      </trkpt>
      <trkpt lat="43.34434" lon="-0.52734">
        <ele>295.74</ele>
        <time>2017-04-09T06:14:18Z</time>
      </trkpt>
      <trkpt lat="43.34433" lon="-0.52729">
        <ele>295.74</ele>
        <time>2017-04-09T06:14:19Z</time>
      </trkpt>
      <trkpt lat="43.34433" lon="-0.52723">
        <ele>295.26</ele>
        <time>2017-04-09T06:14:20Z</time>
      </trkpt>
      <trkpt lat="43.34432" lon="-0.52717">
        <ele>293.82</ele>
        <time>2017-04-09T06:14:22Z</time>
      </trkpt>
      <trkpt lat="43.3443" lon="-0.52714">
        <ele>293.82</ele>
        <time>2017-04-09T06:14:23Z</time>
      </trkpt>
      <trkpt lat="43.34429" lon="-0.52713">
        <ele>293.34</ele>
        <time>2017-04-09T06:14:24Z</time>
      </trkpt>
      <trkpt lat="43.34428" lon="-0.52713">
        <ele>293.34</ele>
        <time>2017-04-09T06:14:25Z</time>
      </trkpt>
      <trkpt lat="43.34421" lon="-0.52699">
        <ele>293.82</ele>
        <time>2017-04-09T06:14:32Z</time>
      </trkpt>
      <trkpt lat="43.34416" lon="-0.52689">
        <ele>293.34</ele>
        <time>2017-04-09T06:14:36Z</time>
      </trkpt>
      <trkpt lat="43.34414" lon="-0.52686">
        <ele>292.86</ele>
        <time>2017-04-09T06:14:37Z</time>
      </trkpt>
      <trkpt lat="43.34413" lon="-0.52683">
        <ele>292.38</ele>
        <time>2017-04-09T06:14:38Z</time>
      </trkpt>
      <trkpt lat="43.34412" lon="-0.5268">
        <ele>291.9</ele>
        <time>2017-04-09T06:14:39Z</time>
      </trkpt>
      <trkpt lat="43.34412" lon="-0.52676">
        <ele>292.86</ele>
        <time>2017-04-09T06:14:40Z</time>
      </trkpt>
      <trkpt lat="43.34411" lon="-0.52673">
        <ele>293.82</ele>
        <time>2017-04-09T06:14:41Z</time>
      </trkpt>
      <trkpt lat="43.34411" lon="-0.52671">
        <ele>293.82</ele>
        <time>2017-04-09T06:14:42Z</time>
      </trkpt>
      <trkpt lat="43.3441" lon="-0.52667">
        <ele>293.34</ele>
        <time>2017-04-09T06:14:43Z</time>
      </trkpt>
      <trkpt lat="43.34409" lon="-0.52664">
        <ele>292.86</ele>
        <time>2017-04-09T06:14:44Z</time>
      </trkpt>
      <trkpt lat="43.34407" lon="-0.52655">
        <ele>291.42</ele>
        <time>2017-04-09T06:14:47Z</time>
      </trkpt>
      <trkpt lat="43.34406" lon="-0.52653">
        <ele>290.94</ele>
        <time>2017-04-09T06:14:48Z</time>
      </trkpt>
      <trkpt lat="43.34411" lon="-0.52634">
        <ele>282.77</ele>
        <time>2017-04-09T06:15:01Z</time>
      </trkpt>
      <trkpt lat="43.34405" lon="-0.52622">
        <ele>275.07</ele>
        <time>2017-04-09T06:15:13Z</time>
      </trkpt>
      <trkpt lat="43.34399" lon="-0.52618">
        <ele>272.67</ele>
        <time>2017-04-09T06:15:20Z</time>
      </trkpt>
      <trkpt lat="43.34397" lon="-0.52617">
        <ele>272.67</ele>
        <time>2017-04-09T06:15:21Z</time>
      </trkpt>
      <trkpt lat="43.34396" lon="-0.52615">
        <ele>272.67</ele>
        <time>2017-04-09T06:15:22Z</time>
      </trkpt>
      <trkpt lat="43.34394" lon="-0.52612">
        <ele>273.15</ele>
        <time>2017-04-09T06:15:23Z</time>
      </trkpt>
      <trkpt lat="43.34391" lon="-0.52609">
        <ele>273.15</ele>
        <time>2017-04-09T06:15:24Z</time>
      </trkpt>
      <trkpt lat="43.34388" lon="-0.52606">
        <ele>273.63</ele>
        <time>2017-04-09T06:15:25Z</time>
      </trkpt>
      <trkpt lat="43.34373" lon="-0.52579">
        <ele>276.52</ele>
        <time>2017-04-09T06:15:32Z</time>
      </trkpt>
      <trkpt lat="43.34372" lon="-0.52576">
        <ele>277</ele>
        <time>2017-04-09T06:15:33Z</time>
      </trkpt>
      <trkpt lat="43.3437" lon="-0.52574">
        <ele>277.48</ele>
        <time>2017-04-09T06:15:34Z</time>
      </trkpt>
      <trkpt lat="43.34369" lon="-0.52572">
        <ele>277.96</ele>
        <time>2017-04-09T06:15:35Z</time>
      </trkpt>
      <trkpt lat="43.34368" lon="-0.52569">
        <ele>277.96</ele>
        <time>2017-04-09T06:15:36Z</time>
      </trkpt>
      <trkpt lat="43.34366" lon="-0.52566">
        <ele>277.96</ele>
        <time>2017-04-09T06:15:37Z</time>
      </trkpt>
      <trkpt lat="43.34365" lon="-0.52563">
        <ele>277.96</ele>
        <time>2017-04-09T06:15:38Z</time>
      </trkpt>
      <trkpt lat="43.34364" lon="-0.52561">
        <ele>277.96</ele>
        <time>2017-04-09T06:15:39Z</time>
      </trkpt>
      <trkpt lat="43.34363" lon="-0.52559">
        <ele>277.48</ele>
        <time>2017-04-09T06:15:40Z</time>
      </trkpt>
      <trkpt lat="43.34361" lon="-0.52557">
        <ele>277.48</ele>
        <time>2017-04-09T06:15:41Z</time>
      </trkpt>
      <trkpt lat="43.3436" lon="-0.52555">
        <ele>276.52</ele>
        <time>2017-04-09T06:15:42Z</time>
      </trkpt>
      <trkpt lat="43.3436" lon="-0.52552">
        <ele>276.04</ele>
        <time>2017-04-09T06:15:43Z</time>
      </trkpt>
      <trkpt lat="43.34359" lon="-0.5255">
        <ele>276.04</ele>
        <time>2017-04-09T06:15:44Z</time>
      </trkpt>
      <trkpt lat="43.34358" lon="-0.52548">
        <ele>276.04</ele>
        <time>2017-04-09T06:15:45Z</time>
      </trkpt>
      <trkpt lat="43.34356" lon="-0.52546">
        <ele>275.56</ele>
        <time>2017-04-09T06:15:46Z</time>
      </trkpt>
      <trkpt lat="43.34355" lon="-0.52545">
        <ele>275.56</ele>
        <time>2017-04-09T06:15:47Z</time>
      </trkpt>
      <trkpt lat="43.34353" lon="-0.52543">
        <ele>275.56</ele>
        <time>2017-04-09T06:15:48Z</time>
      </trkpt>
      <trkpt lat="43.34331" lon="-0.52513">
        <ele>277</ele>
        <time>2017-04-09T06:15:58Z</time>
      </trkpt>
      <trkpt lat="43.34326" lon="-0.52502">
        <ele>277.96</ele>
        <time>2017-04-09T06:16:00Z</time>
      </trkpt>
      <trkpt lat="43.34323" lon="-0.52498">
        <ele>278.92</ele>
        <time>2017-04-09T06:16:01Z</time>
      </trkpt>
      <trkpt lat="43.34296" lon="-0.52461">
        <ele>282.28</ele>
        <time>2017-04-09T06:16:11Z</time>
      </trkpt>
      <trkpt lat="43.34282" lon="-0.52438">
        <ele>289.01</ele>
        <time>2017-04-09T06:16:20Z</time>
      </trkpt>
      <trkpt lat="43.34281" lon="-0.52435">
        <ele>289.97</ele>
        <time>2017-04-09T06:16:21Z</time>
      </trkpt>
      <trkpt lat="43.3428" lon="-0.52431">
        <ele>291.42</ele>
        <time>2017-04-09T06:16:22Z</time>
      </trkpt>
      <trkpt lat="43.34279" lon="-0.52428">
        <ele>292.38</ele>
        <time>2017-04-09T06:16:23Z</time>
      </trkpt>
      <trkpt lat="43.34278" lon="-0.52425">
        <ele>293.34</ele>
        <time>2017-04-09T06:16:24Z</time>
      </trkpt>
      <trkpt lat="43.34276" lon="-0.52416">
        <ele>295.26</ele>
        <time>2017-04-09T06:16:28Z</time>
      </trkpt>
      <trkpt lat="43.34275" lon="-0.52413">
        <ele>295.74</ele>
        <time>2017-04-09T06:16:29Z</time>
      </trkpt>
      <trkpt lat="43.34274" lon="-0.5241">
        <ele>296.22</ele>
        <time>2017-04-09T06:16:30Z</time>
      </trkpt>
      <trkpt lat="43.34273" lon="-0.52408">
        <ele>296.22</ele>
        <time>2017-04-09T06:16:31Z</time>
      </trkpt>
      <trkpt lat="43.34271" lon="-0.52404">
        <ele>296.22</ele>
        <time>2017-04-09T06:16:32Z</time>
      </trkpt>
      <trkpt lat="43.34269" lon="-0.52402">
        <ele>295.74</ele>
        <time>2017-04-09T06:16:33Z</time>
      </trkpt>
      <trkpt lat="43.34267" lon="-0.52398">
        <ele>295.26</ele>
        <time>2017-04-09T06:16:34Z</time>
      </trkpt>
      <trkpt lat="43.34265" lon="-0.52393">
        <ele>292.86</ele>
        <time>2017-04-09T06:16:35Z</time>
      </trkpt>
      <trkpt lat="43.34262" lon="-0.5239">
        <ele>292.86</ele>
        <time>2017-04-09T06:16:36Z</time>
      </trkpt>
      <trkpt lat="43.34237" lon="-0.52372">
        <ele>289.97</ele>
        <time>2017-04-09T06:16:45Z</time>
      </trkpt>
      <trkpt lat="43.34219" lon="-0.52354">
        <ele>290.46</ele>
        <time>2017-04-09T06:16:54Z</time>
      </trkpt>
      <trkpt lat="43.34205" lon="-0.5233">
        <ele>291.9</ele>
        <time>2017-04-09T06:17:04Z</time>
      </trkpt>
      <trkpt lat="43.34204" lon="-0.52328">
        <ele>291.9</ele>
        <time>2017-04-09T06:17:05Z</time>
      </trkpt>
      <trkpt lat="43.34203" lon="-0.52325">
        <ele>292.38</ele>
        <time>2017-04-09T06:17:06Z</time>
      </trkpt>
      <trkpt lat="43.34201" lon="-0.52323">
        <ele>292.86</ele>
        <time>2017-04-09T06:17:07Z</time>
      </trkpt>
      <trkpt lat="43.34194" lon="-0.52314">
        <ele>294.3</ele>
        <time>2017-04-09T06:17:11Z</time>
      </trkpt>
      <trkpt lat="43.34192" lon="-0.52312">
        <ele>294.3</ele>
        <time>2017-04-09T06:17:12Z</time>
      </trkpt>
      <trkpt lat="43.3419" lon="-0.5231">
        <ele>294.78</ele>
        <time>2017-04-09T06:17:13Z</time>
      </trkpt>
      <trkpt lat="43.34181" lon="-0.52302">
        <ele>294.3</ele>
        <time>2017-04-09T06:17:19Z</time>
      </trkpt>
      <trkpt lat="43.34179" lon="-0.52301">
        <ele>294.3</ele>
        <time>2017-04-09T06:17:20Z</time>
      </trkpt>
      <trkpt lat="43.34164" lon="-0.52289">
        <ele>296.22</ele>
        <time>2017-04-09T06:17:31Z</time>
      </trkpt>
      <trkpt lat="43.34161" lon="-0.52287">
        <ele>295.74</ele>
        <time>2017-04-09T06:17:32Z</time>
      </trkpt>
      <trkpt lat="43.34157" lon="-0.52284">
        <ele>294.78</ele>
        <time>2017-04-09T06:17:33Z</time>
      </trkpt>
      <trkpt lat="43.34152" lon="-0.52279">
        <ele>293.82</ele>
        <time>2017-04-09T06:17:34Z</time>
      </trkpt>
      <trkpt lat="43.34147" lon="-0.52274">
        <ele>293.34</ele>
        <time>2017-04-09T06:17:35Z</time>
      </trkpt>
      <trkpt lat="43.34115" lon="-0.52245">
        <ele>288.53</ele>
        <time>2017-04-09T06:17:40Z</time>
      </trkpt>
      <trkpt lat="43.34107" lon="-0.52241">
        <ele>287.09</ele>
        <time>2017-04-09T06:17:41Z</time>
      </trkpt>
      <trkpt lat="43.341" lon="-0.52238">
        <ele>286.13</ele>
        <time>2017-04-09T06:17:42Z</time>
      </trkpt>
      <trkpt lat="43.3406" lon="-0.5222">
        <ele>277</ele>
        <time>2017-04-09T06:17:50Z</time>
      </trkpt>
      <trkpt lat="43.34027" lon="-0.52208">
        <ele>264.5</ele>
        <time>2017-04-09T06:17:58Z</time>
      </trkpt>
      <trkpt lat="43.34017" lon="-0.52205">
        <ele>260.65</ele>
        <time>2017-04-09T06:18:01Z</time>
      </trkpt>
      <trkpt lat="43.34018" lon="-0.52204">
        <ele>258.73</ele>
        <time>2017-04-09T06:18:05Z</time>
      </trkpt>
      <trkpt lat="43.3402" lon="-0.52207">
        <ele>257.77</ele>
        <time>2017-04-09T06:18:06Z</time>
      </trkpt>
      <trkpt lat="43.34022" lon="-0.52211">
        <ele>256.33</ele>
        <time>2017-04-09T06:18:07Z</time>
      </trkpt>
      <trkpt lat="43.34041" lon="-0.52263">
        <ele>242.87</ele>
        <time>2017-04-09T06:18:15Z</time>
      </trkpt>
      <trkpt lat="43.34052" lon="-0.52274">
        <ele>230.85</ele>
        <time>2017-04-09T06:18:24Z</time>
      </trkpt>
      <trkpt lat="43.3407" lon="-0.52284">
        <ele>217.4</ele>
        <time>2017-04-09T06:18:37Z</time>
      </trkpt>
      <trkpt lat="43.34076" lon="-0.52293">
        <ele>214.99</ele>
        <time>2017-04-09T06:18:43Z</time>
      </trkpt>
      <trkpt lat="43.34077" lon="-0.52295">
        <ele>214.99</ele>
        <time>2017-04-09T06:18:44Z</time>
      </trkpt>
      <trkpt lat="43.34077" lon="-0.52298">
        <ele>214.99</ele>
        <time>2017-04-09T06:18:45Z</time>
      </trkpt>
      <trkpt lat="43.34078" lon="-0.523">
        <ele>215.47</ele>
        <time>2017-04-09T06:18:46Z</time>
      </trkpt>
      <trkpt lat="43.34079" lon="-0.52302">
        <ele>215.47</ele>
        <time>2017-04-09T06:18:47Z</time>
      </trkpt>
      <trkpt lat="43.3408" lon="-0.52305">
        <ele>215.95</ele>
        <time>2017-04-09T06:18:48Z</time>
      </trkpt>
      <trkpt lat="43.3408" lon="-0.52307">
        <ele>215.95</ele>
        <time>2017-04-09T06:18:49Z</time>
      </trkpt>
      <trkpt lat="43.34093" lon="-0.52348">
        <ele>220.76</ele>
        <time>2017-04-09T06:19:02Z</time>
      </trkpt>
      <trkpt lat="43.34113" lon="-0.52403">
        <ele>222.68</ele>
        <time>2017-04-09T06:19:14Z</time>
      </trkpt>
      <trkpt lat="43.34134" lon="-0.52461">
        <ele>221.24</ele>
        <time>2017-04-09T06:19:25Z</time>
      </trkpt>
      <trkpt lat="43.34147" lon="-0.52508">
        <ele>219.32</ele>
        <time>2017-04-09T06:19:36Z</time>
      </trkpt>
      <trkpt lat="43.34152" lon="-0.52547">
        <ele>219.32</ele>
        <time>2017-04-09T06:19:41Z</time>
      </trkpt>
      <trkpt lat="43.34143" lon="-0.52567">
        <ele>218.84</ele>
        <time>2017-04-09T06:19:44Z</time>
      </trkpt>
      <trkpt lat="43.34096" lon="-0.52608">
        <ele>216.43</ele>
        <time>2017-04-09T06:19:55Z</time>
      </trkpt>
      <trkpt lat="43.34056" lon="-0.52633">
        <ele>218.36</ele>
        <time>2017-04-09T06:20:07Z</time>
      </trkpt>
      <trkpt lat="43.34048" lon="-0.52645">
        <ele>219.8</ele>
        <time>2017-04-09T06:20:11Z</time>
      </trkpt>
      <trkpt lat="43.34046" lon="-0.52647">
        <ele>220.76</ele>
        <time>2017-04-09T06:20:12Z</time>
      </trkpt>
      <trkpt lat="43.34034" lon="-0.52664">
        <ele>225.09</ele>
        <time>2017-04-09T06:20:18Z</time>
      </trkpt>
      <trkpt lat="43.34033" lon="-0.52667">
        <ele>226.05</ele>
        <time>2017-04-09T06:20:19Z</time>
      </trkpt>
      <trkpt lat="43.34033" lon="-0.52671">
        <ele>226.53</ele>
        <time>2017-04-09T06:20:20Z</time>
      </trkpt>
      <trkpt lat="43.34033" lon="-0.52675">
        <ele>227.01</ele>
        <time>2017-04-09T06:20:21Z</time>
      </trkpt>
      <trkpt lat="43.34031" lon="-0.52681">
        <ele>227.97</ele>
        <time>2017-04-09T06:20:22Z</time>
      </trkpt>
      <trkpt lat="43.34029" lon="-0.52686">
        <ele>228.93</ele>
        <time>2017-04-09T06:20:23Z</time>
      </trkpt>
      <trkpt lat="43.34015" lon="-0.5273">
        <ele>235.66</ele>
        <time>2017-04-09T06:20:33Z</time>
      </trkpt>
      <trkpt lat="43.33989" lon="-0.52783">
        <ele>226.05</ele>
        <time>2017-04-09T06:20:46Z</time>
      </trkpt>
      <trkpt lat="43.33969" lon="-0.5285">
        <ele>213.07</ele>
        <time>2017-04-09T06:20:57Z</time>
      </trkpt>
      <trkpt lat="43.33953" lon="-0.52942">
        <ele>204.9</ele>
        <time>2017-04-09T06:21:08Z</time>
      </trkpt>
      <trkpt lat="43.33958" lon="-0.53028">
        <ele>201.05</ele>
        <time>2017-04-09T06:21:21Z</time>
      </trkpt>
      <trkpt lat="43.33961" lon="-0.53061">
        <ele>200.09</ele>
        <time>2017-04-09T06:21:26Z</time>
      </trkpt>
      <trkpt lat="43.33961" lon="-0.53087">
        <ele>200.57</ele>
        <time>2017-04-09T06:21:30Z</time>
      </trkpt>
      <trkpt lat="43.33962" lon="-0.53092">
        <ele>201.05</ele>
        <time>2017-04-09T06:21:31Z</time>
      </trkpt>
      <trkpt lat="43.33973" lon="-0.53135">
        <ele>202.01</ele>
        <time>2017-04-09T06:21:39Z</time>
      </trkpt>
      <trkpt lat="43.33996" lon="-0.53162">
        <ele>203.46</ele>
        <time>2017-04-09T06:21:49Z</time>
      </trkpt>
      <trkpt lat="43.33996" lon="-0.53165">
        <ele>203.46</ele>
        <time>2017-04-09T06:21:50Z</time>
      </trkpt>
      <trkpt lat="43.33993" lon="-0.53194">
        <ele>202.01</ele>
        <time>2017-04-09T06:21:57Z</time>
      </trkpt>
      <trkpt lat="43.33988" lon="-0.53201">
        <ele>202.01</ele>
        <time>2017-04-09T06:21:59Z</time>
      </trkpt>
      <trkpt lat="43.33954" lon="-0.53223">
        <ele>202.01</ele>
        <time>2017-04-09T06:22:09Z</time>
      </trkpt>
      <trkpt lat="43.33944" lon="-0.53221">
        <ele>202.01</ele>
        <time>2017-04-09T06:22:16Z</time>
      </trkpt>
      <trkpt lat="43.33938" lon="-0.5322">
        <ele>203.46</ele>
        <time>2017-04-09T06:22:19Z</time>
      </trkpt>
      <trkpt lat="43.3392" lon="-0.53207">
        <ele>209.7</ele>
        <time>2017-04-09T06:22:29Z</time>
      </trkpt>
      <trkpt lat="43.33904" lon="-0.53214">
        <ele>216.43</ele>
        <time>2017-04-09T06:22:36Z</time>
      </trkpt>
      <trkpt lat="43.33902" lon="-0.53214">
        <ele>216.91</ele>
        <time>2017-04-09T06:22:37Z</time>
      </trkpt>
      <trkpt lat="43.33879" lon="-0.53206">
        <ele>222.2</ele>
        <time>2017-04-09T06:22:45Z</time>
      </trkpt>
      <trkpt lat="43.33864" lon="-0.5319">
        <ele>225.09</ele>
        <time>2017-04-09T06:22:53Z</time>
      </trkpt>
      <trkpt lat="43.33845" lon="-0.53189">
        <ele>226.05</ele>
        <time>2017-04-09T06:23:03Z</time>
      </trkpt>
      <trkpt lat="43.33829" lon="-0.53187">
        <ele>221.24</ele>
        <time>2017-04-09T06:23:11Z</time>
      </trkpt>
      <trkpt lat="43.3382" lon="-0.53183">
        <ele>217.4</ele>
        <time>2017-04-09T06:23:14Z</time>
      </trkpt>
      <trkpt lat="43.33817" lon="-0.5318">
        <ele>216.43</ele>
        <time>2017-04-09T06:23:16Z</time>
      </trkpt>
      <trkpt lat="43.33797" lon="-0.53182">
        <ele>216.43</ele>
        <time>2017-04-09T06:23:22Z</time>
      </trkpt>
      <trkpt lat="43.33787" lon="-0.53179">
        <ele>215.95</ele>
        <time>2017-04-09T06:23:24Z</time>
      </trkpt>
      <trkpt lat="43.33772" lon="-0.53184">
        <ele>215.95</ele>
        <time>2017-04-09T06:23:28Z</time>
      </trkpt>
      <trkpt lat="43.33753" lon="-0.53197">
        <ele>215.47</ele>
        <time>2017-04-09T06:23:33Z</time>
      </trkpt>
      <trkpt lat="43.33742" lon="-0.53193">
        <ele>214.51</ele>
        <time>2017-04-09T06:23:36Z</time>
      </trkpt>
      <trkpt lat="43.33704" lon="-0.53159">
        <ele>208.74</ele>
        <time>2017-04-09T06:23:43Z</time>
      </trkpt>
      <trkpt lat="43.33686" lon="-0.5315">
        <ele>203.46</ele>
        <time>2017-04-09T06:23:47Z</time>
      </trkpt>
      <trkpt lat="43.33662" lon="-0.53174">
        <ele>196.25</ele>
        <time>2017-04-09T06:23:55Z</time>
      </trkpt>
      <trkpt lat="43.33647" lon="-0.53176">
        <ele>193.84</ele>
        <time>2017-04-09T06:23:58Z</time>
      </trkpt>
      <trkpt lat="43.33631" lon="-0.53176">
        <ele>190.96</ele>
        <time>2017-04-09T06:24:01Z</time>
      </trkpt>
      <trkpt lat="43.33614" lon="-0.53195">
        <ele>188.08</ele>
        <time>2017-04-09T06:24:08Z</time>
      </trkpt>
      <trkpt lat="43.33598" lon="-0.53192">
        <ele>187.59</ele>
        <time>2017-04-09T06:24:11Z</time>
      </trkpt>
      <trkpt lat="43.33588" lon="-0.53186">
        <ele>186.15</ele>
        <time>2017-04-09T06:24:13Z</time>
      </trkpt>
      <trkpt lat="43.33562" lon="-0.53194">
        <ele>183.75</ele>
        <time>2017-04-09T06:24:20Z</time>
      </trkpt>
      <trkpt lat="43.33557" lon="-0.53201">
        <ele>182.79</ele>
        <time>2017-04-09T06:24:22Z</time>
      </trkpt>
      <trkpt lat="43.3354" lon="-0.53216">
        <ele>180.38</ele>
        <time>2017-04-09T06:24:29Z</time>
      </trkpt>
      <trkpt lat="43.33535" lon="-0.53217">
        <ele>180.38</ele>
        <time>2017-04-09T06:24:30Z</time>
      </trkpt>
      <trkpt lat="43.3353" lon="-0.5322">
        <ele>179.9</ele>
        <time>2017-04-09T06:24:31Z</time>
      </trkpt>
      <trkpt lat="43.33514" lon="-0.5323">
        <ele>178.94</ele>
        <time>2017-04-09T06:24:35Z</time>
      </trkpt>
      <trkpt lat="43.33507" lon="-0.53241">
        <ele>178.46</ele>
        <time>2017-04-09T06:24:39Z</time>
      </trkpt>
      <trkpt lat="43.33505" lon="-0.53244">
        <ele>178.46</ele>
        <time>2017-04-09T06:24:40Z</time>
      </trkpt>
      <trkpt lat="43.33502" lon="-0.53246">
        <ele>178.46</ele>
        <time>2017-04-09T06:24:41Z</time>
      </trkpt>
      <trkpt lat="43.33499" lon="-0.5325">
        <ele>178.46</ele>
        <time>2017-04-09T06:24:42Z</time>
      </trkpt>
      <trkpt lat="43.33495" lon="-0.53253">
        <ele>178.46</ele>
        <time>2017-04-09T06:24:43Z</time>
      </trkpt>
      <trkpt lat="43.33492" lon="-0.53253">
        <ele>178.94</ele>
        <time>2017-04-09T06:24:44Z</time>
      </trkpt>
      <trkpt lat="43.33487" lon="-0.53253">
        <ele>178.46</ele>
        <time>2017-04-09T06:24:45Z</time>
      </trkpt>
      <trkpt lat="43.33483" lon="-0.53253">
        <ele>178.46</ele>
        <time>2017-04-09T06:24:46Z</time>
      </trkpt>
      <trkpt lat="43.33477" lon="-0.53252">
        <ele>176.54</ele>
        <time>2017-04-09T06:24:47Z</time>
      </trkpt>
      <trkpt lat="43.33473" lon="-0.53251">
        <ele>174.62</ele>
        <time>2017-04-09T06:24:48Z</time>
      </trkpt>
      <trkpt lat="43.33469" lon="-0.53249">
        <ele>172.69</ele>
        <time>2017-04-09T06:24:49Z</time>
      </trkpt>
      <trkpt lat="43.33467" lon="-0.53245">
        <ele>171.25</ele>
        <time>2017-04-09T06:24:50Z</time>
      </trkpt>
      <trkpt lat="43.33467" lon="-0.53241">
        <ele>169.81</ele>
        <time>2017-04-09T06:24:51Z</time>
      </trkpt>
      <trkpt lat="43.33467" lon="-0.53239">
        <ele>168.37</ele>
        <time>2017-04-09T06:24:52Z</time>
      </trkpt>
      <trkpt lat="43.33468" lon="-0.53235">
        <ele>166.93</ele>
        <time>2017-04-09T06:24:53Z</time>
      </trkpt>
      <trkpt lat="43.33475" lon="-0.5322">
        <ele>164.04</ele>
        <time>2017-04-09T06:24:57Z</time>
      </trkpt>
      <trkpt lat="43.33475" lon="-0.53216">
        <ele>163.56</ele>
        <time>2017-04-09T06:24:58Z</time>
      </trkpt>
      <trkpt lat="43.33474" lon="-0.53212">
        <ele>163.08</ele>
        <time>2017-04-09T06:24:59Z</time>
      </trkpt>
      <trkpt lat="43.3347" lon="-0.53208">
        <ele>162.6</ele>
        <time>2017-04-09T06:25:00Z</time>
      </trkpt>
      <trkpt lat="43.33468" lon="-0.53207">
        <ele>162.6</ele>
        <time>2017-04-09T06:25:01Z</time>
      </trkpt>
      <trkpt lat="43.33466" lon="-0.53205">
        <ele>162.6</ele>
        <time>2017-04-09T06:25:02Z</time>
      </trkpt>
      <trkpt lat="43.33463" lon="-0.53204">
        <ele>162.12</ele>
        <time>2017-04-09T06:25:03Z</time>
      </trkpt>
      <trkpt lat="43.33459" lon="-0.53204">
        <ele>162.12</ele>
        <time>2017-04-09T06:25:04Z</time>
      </trkpt>
      <trkpt lat="43.33456" lon="-0.53204">
        <ele>162.12</ele>
        <time>2017-04-09T06:25:05Z</time>
      </trkpt>
      <trkpt lat="43.33453" lon="-0.53204">
        <ele>162.6</ele>
        <time>2017-04-09T06:25:06Z</time>
      </trkpt>
      <trkpt lat="43.33438" lon="-0.53209">
        <ele>163.56</ele>
        <time>2017-04-09T06:25:13Z</time>
      </trkpt>
      <trkpt lat="43.33437" lon="-0.5321">
        <ele>164.04</ele>
        <time>2017-04-09T06:25:14Z</time>
      </trkpt>
      <trkpt lat="43.33408" lon="-0.53221">
        <ele>167.89</ele>
        <time>2017-04-09T06:25:24Z</time>
      </trkpt>
      <trkpt lat="43.33385" lon="-0.53219">
        <ele>172.21</ele>
        <time>2017-04-09T06:25:32Z</time>
      </trkpt>
      <trkpt lat="43.33383" lon="-0.53218">
        <ele>172.69</ele>
        <time>2017-04-09T06:25:33Z</time>
      </trkpt>
      <trkpt lat="43.33357" lon="-0.53197">
        <ele>176.06</ele>
        <time>2017-04-09T06:25:42Z</time>
      </trkpt>
      <trkpt lat="43.33326" lon="-0.53144">
        <ele>173.17</ele>
        <time>2017-04-09T06:25:52Z</time>
      </trkpt>
      <trkpt lat="43.333" lon="-0.53085">
        <ele>166.93</ele>
        <time>2017-04-09T06:26:05Z</time>
      </trkpt>
      <trkpt lat="43.33292" lon="-0.53072">
        <ele>164.52</ele>
        <time>2017-04-09T06:26:08Z</time>
      </trkpt>
      <trkpt lat="43.33289" lon="-0.53068">
        <ele>164.04</ele>
        <time>2017-04-09T06:26:09Z</time>
      </trkpt>
      <trkpt lat="43.33287" lon="-0.53064">
        <ele>163.08</ele>
        <time>2017-04-09T06:26:10Z</time>
      </trkpt>
      <trkpt lat="43.33259" lon="-0.53028">
        <ele>159.72</ele>
        <time>2017-04-09T06:26:16Z</time>
      </trkpt>
      <trkpt lat="43.33253" lon="-0.53022">
        <ele>159.24</ele>
        <time>2017-04-09T06:26:17Z</time>
      </trkpt>
      <trkpt lat="43.33221" lon="-0.52986">
        <ele>157.79</ele>
        <time>2017-04-09T06:26:24Z</time>
      </trkpt>
      <trkpt lat="43.33194" lon="-0.52962">
        <ele>152.99</ele>
        <time>2017-04-09T06:26:30Z</time>
      </trkpt>
      <trkpt lat="43.3319" lon="-0.52957">
        <ele>152.51</ele>
        <time>2017-04-09T06:26:31Z</time>
      </trkpt>
      <trkpt lat="43.3317" lon="-0.5293">
        <ele>148.66</ele>
        <time>2017-04-09T06:26:36Z</time>
      </trkpt>
      <trkpt lat="43.33157" lon="-0.52907">
        <ele>146.74</ele>
        <time>2017-04-09T06:26:40Z</time>
      </trkpt>
      <trkpt lat="43.33154" lon="-0.529">
        <ele>146.26</ele>
        <time>2017-04-09T06:26:41Z</time>
      </trkpt>
      <trkpt lat="43.33148" lon="-0.52888">
        <ele>144.82</ele>
        <time>2017-04-09T06:26:43Z</time>
      </trkpt>
      <trkpt lat="43.33131" lon="-0.52862">
        <ele>143.37</ele>
        <time>2017-04-09T06:26:48Z</time>
      </trkpt>
      <trkpt lat="43.33128" lon="-0.52858">
        <ele>142.89</ele>
        <time>2017-04-09T06:26:49Z</time>
      </trkpt>
      <trkpt lat="43.33122" lon="-0.52853">
        <ele>142.41</ele>
        <time>2017-04-09T06:26:51Z</time>
      </trkpt>
      <trkpt lat="43.33114" lon="-0.52847">
        <ele>142.41</ele>
        <time>2017-04-09T06:26:53Z</time>
      </trkpt>
      <trkpt lat="43.33111" lon="-0.52843">
        <ele>142.41</ele>
        <time>2017-04-09T06:26:54Z</time>
      </trkpt>
      <trkpt lat="43.33108" lon="-0.52839">
        <ele>142.41</ele>
        <time>2017-04-09T06:26:55Z</time>
      </trkpt>
      <trkpt lat="43.33104" lon="-0.52835">
        <ele>142.41</ele>
        <time>2017-04-09T06:26:56Z</time>
      </trkpt>
      <trkpt lat="43.331" lon="-0.52831">
        <ele>142.41</ele>
        <time>2017-04-09T06:26:57Z</time>
      </trkpt>
      <trkpt lat="43.33083" lon="-0.52802">
        <ele>141.45</ele>
        <time>2017-04-09T06:27:02Z</time>
      </trkpt>
      <trkpt lat="43.33076" lon="-0.52789">
        <ele>140.49</ele>
        <time>2017-04-09T06:27:04Z</time>
      </trkpt>
      <trkpt lat="43.33073" lon="-0.52784">
        <ele>140.49</ele>
        <time>2017-04-09T06:27:05Z</time>
      </trkpt>
      <trkpt lat="43.33071" lon="-0.5278">
        <ele>140.49</ele>
        <time>2017-04-09T06:27:06Z</time>
      </trkpt>
      <trkpt lat="43.33069" lon="-0.52774">
        <ele>140.01</ele>
        <time>2017-04-09T06:27:07Z</time>
      </trkpt>
      <trkpt lat="43.33067" lon="-0.52769">
        <ele>139.05</ele>
        <time>2017-04-09T06:27:08Z</time>
      </trkpt>
      <trkpt lat="43.33065" lon="-0.52763">
        <ele>138.57</ele>
        <time>2017-04-09T06:27:09Z</time>
      </trkpt>
      <trkpt lat="43.33064" lon="-0.52757">
        <ele>138.09</ele>
        <time>2017-04-09T06:27:10Z</time>
      </trkpt>
      <trkpt lat="43.33063" lon="-0.5275">
        <ele>138.09</ele>
        <time>2017-04-09T06:27:11Z</time>
      </trkpt>
      <trkpt lat="43.33061" lon="-0.52742">
        <ele>137.13</ele>
        <time>2017-04-09T06:27:12Z</time>
      </trkpt>
      <trkpt lat="43.3306" lon="-0.52735">
        <ele>136.64</ele>
        <time>2017-04-09T06:27:13Z</time>
      </trkpt>
      <trkpt lat="43.33058" lon="-0.52728">
        <ele>136.16</ele>
        <time>2017-04-09T06:27:14Z</time>
      </trkpt>
      <trkpt lat="43.33057" lon="-0.52722">
        <ele>136.16</ele>
        <time>2017-04-09T06:27:15Z</time>
      </trkpt>
      <trkpt lat="43.33055" lon="-0.52715">
        <ele>135.68</ele>
        <time>2017-04-09T06:27:16Z</time>
      </trkpt>
      <trkpt lat="43.33054" lon="-0.52708">
        <ele>135.2</ele>
        <time>2017-04-09T06:27:17Z</time>
      </trkpt>
      <trkpt lat="43.33053" lon="-0.52702">
        <ele>134.72</ele>
        <time>2017-04-09T06:27:18Z</time>
      </trkpt>
      <trkpt lat="43.33052" lon="-0.52695">
        <ele>134.24</ele>
        <time>2017-04-09T06:27:19Z</time>
      </trkpt>
      <trkpt lat="43.3303" lon="-0.52641">
        <ele>128.47</ele>
        <time>2017-04-09T06:27:29Z</time>
      </trkpt>
      <trkpt lat="43.33006" lon="-0.52589">
        <ele>130.88</ele>
        <time>2017-04-09T06:27:41Z</time>
      </trkpt>
      <trkpt lat="43.32981" lon="-0.52537">
        <ele>136.16</ele>
        <time>2017-04-09T06:27:52Z</time>
      </trkpt>
      <trkpt lat="43.32959" lon="-0.52484">
        <ele>137.13</ele>
        <time>2017-04-09T06:28:03Z</time>
      </trkpt>
      <trkpt lat="43.32947" lon="-0.52426">
        <ele>136.64</ele>
        <time>2017-04-09T06:28:13Z</time>
      </trkpt>
      <trkpt lat="43.32936" lon="-0.52357">
        <ele>135.2</ele>
        <time>2017-04-09T06:28:25Z</time>
      </trkpt>
      <trkpt lat="43.32932" lon="-0.52342">
        <ele>133.28</ele>
        <time>2017-04-09T06:28:28Z</time>
      </trkpt>
      <trkpt lat="43.32924" lon="-0.52328">
        <ele>130.88</ele>
        <time>2017-04-09T06:28:31Z</time>
      </trkpt>
      <trkpt lat="43.3292" lon="-0.52323">
        <ele>129.92</ele>
        <time>2017-04-09T06:28:32Z</time>
      </trkpt>
      <trkpt lat="43.32915" lon="-0.52319">
        <ele>128.95</ele>
        <time>2017-04-09T06:28:33Z</time>
      </trkpt>
      <trkpt lat="43.32902" lon="-0.52309">
        <ele>127.03</ele>
        <time>2017-04-09T06:28:36Z</time>
      </trkpt>
      <trkpt lat="43.32897" lon="-0.52307">
        <ele>127.03</ele>
        <time>2017-04-09T06:28:37Z</time>
      </trkpt>
      <trkpt lat="43.32861" lon="-0.52305">
        <ele>125.59</ele>
        <time>2017-04-09T06:28:43Z</time>
      </trkpt>
      <trkpt lat="43.32833" lon="-0.52303">
        <ele>124.15</ele>
        <time>2017-04-09T06:28:47Z</time>
      </trkpt>
      <trkpt lat="43.32826" lon="-0.52301">
        <ele>123.67</ele>
        <time>2017-04-09T06:28:48Z</time>
      </trkpt>
      <trkpt lat="43.32812" lon="-0.52295">
        <ele>123.19</ele>
        <time>2017-04-09T06:28:50Z</time>
      </trkpt>
      <trkpt lat="43.32746" lon="-0.52254">
        <ele>118.38</ele>
        <time>2017-04-09T06:29:00Z</time>
      </trkpt>
      <trkpt lat="43.32732" lon="-0.52247">
        <ele>116.94</ele>
        <time>2017-04-09T06:29:03Z</time>
      </trkpt>
      <trkpt lat="43.32727" lon="-0.52245">
        <ele>116.94</ele>
        <time>2017-04-09T06:29:04Z</time>
      </trkpt>
      <trkpt lat="43.32723" lon="-0.52244">
        <ele>116.94</ele>
        <time>2017-04-09T06:29:05Z</time>
      </trkpt>
      <trkpt lat="43.327" lon="-0.52233">
        <ele>118.86</ele>
        <time>2017-04-09T06:29:11Z</time>
      </trkpt>
      <trkpt lat="43.32695" lon="-0.5223">
        <ele>118.86</ele>
        <time>2017-04-09T06:29:12Z</time>
      </trkpt>
      <trkpt lat="43.32691" lon="-0.52227">
        <ele>118.86</ele>
        <time>2017-04-09T06:29:13Z</time>
      </trkpt>
      <trkpt lat="43.32686" lon="-0.52224">
        <ele>119.34</ele>
        <time>2017-04-09T06:29:14Z</time>
      </trkpt>
      <trkpt lat="43.32681" lon="-0.52221">
        <ele>118.86</ele>
        <time>2017-04-09T06:29:15Z</time>
      </trkpt>
      <trkpt lat="43.32677" lon="-0.52218">
        <ele>118.86</ele>
        <time>2017-04-09T06:29:16Z</time>
      </trkpt>
      <trkpt lat="43.32673" lon="-0.52214">
        <ele>118.38</ele>
        <time>2017-04-09T06:29:17Z</time>
      </trkpt>
      <trkpt lat="43.32665" lon="-0.52207">
        <ele>117.9</ele>
        <time>2017-04-09T06:29:19Z</time>
      </trkpt>
      <trkpt lat="43.3265" lon="-0.5219">
        <ele>117.9</ele>
        <time>2017-04-09T06:29:23Z</time>
      </trkpt>
      <trkpt lat="43.32639" lon="-0.52176">
        <ele>118.86</ele>
        <time>2017-04-09T06:29:26Z</time>
      </trkpt>
      <trkpt lat="43.32636" lon="-0.52172">
        <ele>119.34</ele>
        <time>2017-04-09T06:29:27Z</time>
      </trkpt>
      <trkpt lat="43.32629" lon="-0.52163">
        <ele>120.3</ele>
        <time>2017-04-09T06:29:29Z</time>
      </trkpt>
      <trkpt lat="43.32626" lon="-0.52158">
        <ele>121.26</ele>
        <time>2017-04-09T06:29:30Z</time>
      </trkpt>
      <trkpt lat="43.32622" lon="-0.52152">
        <ele>121.26</ele>
        <time>2017-04-09T06:29:31Z</time>
      </trkpt>
      <trkpt lat="43.32609" lon="-0.52132">
        <ele>123.19</ele>
        <time>2017-04-09T06:29:35Z</time>
      </trkpt>
      <trkpt lat="43.32606" lon="-0.52127">
        <ele>123.67</ele>
        <time>2017-04-09T06:29:36Z</time>
      </trkpt>
      <trkpt lat="43.32603" lon="-0.52123">
        <ele>124.15</ele>
        <time>2017-04-09T06:29:37Z</time>
      </trkpt>
      <trkpt lat="43.3259" lon="-0.52106">
        <ele>125.59</ele>
        <time>2017-04-09T06:29:41Z</time>
      </trkpt>
      <trkpt lat="43.32583" lon="-0.52097">
        <ele>126.07</ele>
        <time>2017-04-09T06:29:43Z</time>
      </trkpt>
      <trkpt lat="43.3258" lon="-0.52093">
        <ele>126.55</ele>
        <time>2017-04-09T06:29:44Z</time>
      </trkpt>
      <trkpt lat="43.32578" lon="-0.52089">
        <ele>126.55</ele>
        <time>2017-04-09T06:29:45Z</time>
      </trkpt>
      <trkpt lat="43.32544" lon="-0.52038">
        <ele>127.51</ele>
        <time>2017-04-09T06:29:58Z</time>
      </trkpt>
      <trkpt lat="43.32513" lon="-0.52003">
        <ele>131.84</ele>
        <time>2017-04-09T06:30:10Z</time>
      </trkpt>
      <trkpt lat="43.32477" lon="-0.51976">
        <ele>134.24</ele>
        <time>2017-04-09T06:30:20Z</time>
      </trkpt>
      <trkpt lat="43.32473" lon="-0.51972">
        <ele>135.2</ele>
        <time>2017-04-09T06:30:21Z</time>
      </trkpt>
      <trkpt lat="43.32444" lon="-0.51947">
        <ele>139.53</ele>
        <time>2017-04-09T06:30:28Z</time>
      </trkpt>
      <trkpt lat="43.3238" lon="-0.51888">
        <ele>145.78</ele>
        <time>2017-04-09T06:30:41Z</time>
      </trkpt>
      <trkpt lat="43.32362" lon="-0.51871">
        <ele>146.26</ele>
        <time>2017-04-09T06:30:44Z</time>
      </trkpt>
      <trkpt lat="43.32357" lon="-0.51865">
        <ele>145.78</ele>
        <time>2017-04-09T06:30:45Z</time>
      </trkpt>
      <trkpt lat="43.32322" lon="-0.51838">
        <ele>144.82</ele>
        <time>2017-04-09T06:30:52Z</time>
      </trkpt>
      <trkpt lat="43.32287" lon="-0.51796">
        <ele>142.41</ele>
        <time>2017-04-09T06:31:04Z</time>
      </trkpt>
      <trkpt lat="43.32257" lon="-0.51739">
        <ele>143.37</ele>
        <time>2017-04-09T06:31:19Z</time>
      </trkpt>
      <trkpt lat="43.32228" lon="-0.51698">
        <ele>144.34</ele>
        <time>2017-04-09T06:31:31Z</time>
      </trkpt>
      <trkpt lat="43.322" lon="-0.51657">
        <ele>147.22</ele>
        <time>2017-04-09T06:31:43Z</time>
      </trkpt>
      <trkpt lat="43.32157" lon="-0.51616">
        <ele>148.18</ele>
        <time>2017-04-09T06:31:57Z</time>
      </trkpt>
      <trkpt lat="43.32123" lon="-0.51595">
        <ele>152.99</ele>
        <time>2017-04-09T06:32:10Z</time>
      </trkpt>
      <trkpt lat="43.32088" lon="-0.51564">
        <ele>158.75</ele>
        <time>2017-04-09T06:32:23Z</time>
      </trkpt>
      <trkpt lat="43.32057" lon="-0.51531">
        <ele>163.08</ele>
        <time>2017-04-09T06:32:35Z</time>
      </trkpt>
      <trkpt lat="43.32025" lon="-0.51476">
        <ele>160.68</ele>
        <time>2017-04-09T06:32:47Z</time>
      </trkpt>
      <trkpt lat="43.32021" lon="-0.51472">
        <ele>160.2</ele>
        <time>2017-04-09T06:32:48Z</time>
      </trkpt>
      <trkpt lat="43.32016" lon="-0.51469">
        <ele>159.72</ele>
        <time>2017-04-09T06:32:49Z</time>
      </trkpt>
      <trkpt lat="43.32006" lon="-0.51463">
        <ele>158.75</ele>
        <time>2017-04-09T06:32:51Z</time>
      </trkpt>
      <trkpt lat="43.32001" lon="-0.5146">
        <ele>158.27</ele>
        <time>2017-04-09T06:32:52Z</time>
      </trkpt>
      <trkpt lat="43.31989" lon="-0.51455">
        <ele>157.79</ele>
        <time>2017-04-09T06:32:54Z</time>
      </trkpt>
      <trkpt lat="43.31984" lon="-0.51451">
        <ele>157.31</ele>
        <time>2017-04-09T06:32:55Z</time>
      </trkpt>
      <trkpt lat="43.31961" lon="-0.51433">
        <ele>154.91</ele>
        <time>2017-04-09T06:32:59Z</time>
      </trkpt>
      <trkpt lat="43.31939" lon="-0.51423">
        <ele>152.51</ele>
        <time>2017-04-09T06:33:03Z</time>
      </trkpt>
      <trkpt lat="43.31915" lon="-0.51398">
        <ele>151.54</ele>
        <time>2017-04-09T06:33:12Z</time>
      </trkpt>
      <trkpt lat="43.31903" lon="-0.51378">
        <ele>153.47</ele>
        <time>2017-04-09T06:33:19Z</time>
      </trkpt>
      <trkpt lat="43.31903" lon="-0.51374">
        <ele>154.43</ele>
        <time>2017-04-09T06:33:20Z</time>
      </trkpt>
      <trkpt lat="43.31903" lon="-0.51323">
        <ele>159.72</ele>
        <time>2017-04-09T06:33:31Z</time>
      </trkpt>
      <trkpt lat="43.31905" lon="-0.51285">
        <ele>165</ele>
        <time>2017-04-09T06:33:41Z</time>
      </trkpt>
      <trkpt lat="43.31905" lon="-0.51282">
        <ele>165.48</ele>
        <time>2017-04-09T06:33:42Z</time>
      </trkpt>
      <trkpt lat="43.31904" lon="-0.51279">
        <ele>165.96</ele>
        <time>2017-04-09T06:33:43Z</time>
      </trkpt>
      <trkpt lat="43.31904" lon="-0.51277">
        <ele>166.93</ele>
        <time>2017-04-09T06:33:44Z</time>
      </trkpt>
      <trkpt lat="43.319" lon="-0.51242">
        <ele>172.21</ele>
        <time>2017-04-09T06:33:57Z</time>
      </trkpt>
      <trkpt lat="43.31899" lon="-0.51237">
        <ele>173.66</ele>
        <time>2017-04-09T06:33:59Z</time>
      </trkpt>
      <trkpt lat="43.31899" lon="-0.51235">
        <ele>174.14</ele>
        <time>2017-04-09T06:34:00Z</time>
      </trkpt>
      <trkpt lat="43.31899" lon="-0.51231">
        <ele>175.1</ele>
        <time>2017-04-09T06:34:01Z</time>
      </trkpt>
      <trkpt lat="43.31899" lon="-0.51228">
        <ele>175.58</ele>
        <time>2017-04-09T06:34:02Z</time>
      </trkpt>
      <trkpt lat="43.31899" lon="-0.51225">
        <ele>176.06</ele>
        <time>2017-04-09T06:34:03Z</time>
      </trkpt>
      <trkpt lat="43.31898" lon="-0.51223">
        <ele>176.54</ele>
        <time>2017-04-09T06:34:04Z</time>
      </trkpt>
      <trkpt lat="43.31897" lon="-0.51221">
        <ele>177.02</ele>
        <time>2017-04-09T06:34:05Z</time>
      </trkpt>
      <trkpt lat="43.31897" lon="-0.51218">
        <ele>177.5</ele>
        <time>2017-04-09T06:34:06Z</time>
      </trkpt>
      <trkpt lat="43.31896" lon="-0.51215">
        <ele>177.98</ele>
        <time>2017-04-09T06:34:07Z</time>
      </trkpt>
      <trkpt lat="43.31894" lon="-0.51182">
        <ele>177.02</ele>
        <time>2017-04-09T06:34:18Z</time>
      </trkpt>
      <trkpt lat="43.31895" lon="-0.51164">
        <ele>177.98</ele>
        <time>2017-04-09T06:34:25Z</time>
      </trkpt>
      <trkpt lat="43.31895" lon="-0.51161">
        <ele>177.98</ele>
        <time>2017-04-09T06:34:26Z</time>
      </trkpt>
      <trkpt lat="43.31895" lon="-0.51158">
        <ele>177.5</ele>
        <time>2017-04-09T06:34:27Z</time>
      </trkpt>
      <trkpt lat="43.31895" lon="-0.51125">
        <ele>178.94</ele>
        <time>2017-04-09T06:34:39Z</time>
      </trkpt>
      <trkpt lat="43.31896" lon="-0.51094">
        <ele>179.9</ele>
        <time>2017-04-09T06:34:51Z</time>
      </trkpt>
      <trkpt lat="43.31896" lon="-0.51092">
        <ele>180.38</ele>
        <time>2017-04-09T06:34:52Z</time>
      </trkpt>
      <trkpt lat="43.31896" lon="-0.5109">
        <ele>180.38</ele>
        <time>2017-04-09T06:34:53Z</time>
      </trkpt>
      <trkpt lat="43.31891" lon="-0.51056">
        <ele>175.58</ele>
        <time>2017-04-09T06:35:07Z</time>
      </trkpt>
      <trkpt lat="43.31885" lon="-0.5103">
        <ele>174.14</ele>
        <time>2017-04-09T06:35:17Z</time>
      </trkpt>
      <trkpt lat="43.31883" lon="-0.51029">
        <ele>174.62</ele>
        <time>2017-04-09T06:35:18Z</time>
      </trkpt>
      <trkpt lat="43.31882" lon="-0.51026">
        <ele>174.62</ele>
        <time>2017-04-09T06:35:19Z</time>
      </trkpt>
      <trkpt lat="43.31881" lon="-0.51024">
        <ele>174.62</ele>
        <time>2017-04-09T06:35:20Z</time>
      </trkpt>
      <trkpt lat="43.31881" lon="-0.51022">
        <ele>174.14</ele>
        <time>2017-04-09T06:35:21Z</time>
      </trkpt>
      <trkpt lat="43.3188" lon="-0.5102">
        <ele>174.14</ele>
        <time>2017-04-09T06:35:22Z</time>
      </trkpt>
      <trkpt lat="43.31875" lon="-0.51013">
        <ele>174.14</ele>
        <time>2017-04-09T06:35:26Z</time>
      </trkpt>
      <trkpt lat="43.31871" lon="-0.51008">
        <ele>174.62</ele>
        <time>2017-04-09T06:35:30Z</time>
      </trkpt>
      <trkpt lat="43.3187" lon="-0.51007">
        <ele>174.62</ele>
        <time>2017-04-09T06:35:31Z</time>
      </trkpt>
      <trkpt lat="43.31868" lon="-0.51007">
        <ele>174.62</ele>
        <time>2017-04-09T06:35:32Z</time>
      </trkpt>
      <trkpt lat="43.31854" lon="-0.50988">
        <ele>174.62</ele>
        <time>2017-04-09T06:35:43Z</time>
      </trkpt>
      <trkpt lat="43.31844" lon="-0.50972">
        <ele>176.54</ele>
        <time>2017-04-09T06:35:54Z</time>
      </trkpt>
      <trkpt lat="43.31842" lon="-0.50963">
        <ele>177.98</ele>
        <time>2017-04-09T06:36:07Z</time>
      </trkpt>
      <trkpt lat="43.31835" lon="-0.5095">
        <ele>179.42</ele>
        <time>2017-04-09T06:36:18Z</time>
      </trkpt>
      <trkpt lat="43.31834" lon="-0.5094">
        <ele>177.98</ele>
        <time>2017-04-09T06:36:29Z</time>
      </trkpt>
      <trkpt lat="43.31832" lon="-0.50935">
        <ele>178.46</ele>
        <time>2017-04-09T06:36:32Z</time>
      </trkpt>
      <trkpt lat="43.31829" lon="-0.5093">
        <ele>179.42</ele>
        <time>2017-04-09T06:36:36Z</time>
      </trkpt>
      <trkpt lat="43.31828" lon="-0.50929">
        <ele>179.9</ele>
        <time>2017-04-09T06:36:37Z</time>
      </trkpt>
      <trkpt lat="43.31814" lon="-0.5091">
        <ele>181.35</ele>
        <time>2017-04-09T06:36:50Z</time>
      </trkpt>
      <trkpt lat="43.31812" lon="-0.50908">
        <ele>180.38</ele>
        <time>2017-04-09T06:36:51Z</time>
      </trkpt>
      <trkpt lat="43.31811" lon="-0.50906">
        <ele>179.42</ele>
        <time>2017-04-09T06:36:52Z</time>
      </trkpt>
      <trkpt lat="43.3181" lon="-0.50903">
        <ele>178.46</ele>
        <time>2017-04-09T06:36:53Z</time>
      </trkpt>
      <trkpt lat="43.31809" lon="-0.509">
        <ele>177.98</ele>
        <time>2017-04-09T06:36:54Z</time>
      </trkpt>
      <trkpt lat="43.31797" lon="-0.50858">
        <ele>171.25</ele>
        <time>2017-04-09T06:37:06Z</time>
      </trkpt>
      <trkpt lat="43.31797" lon="-0.5082">
        <ele>168.37</ele>
        <time>2017-04-09T06:37:15Z</time>
      </trkpt>
      <trkpt lat="43.31802" lon="-0.50791">
        <ele>166.93</ele>
        <time>2017-04-09T06:37:26Z</time>
      </trkpt>
      <trkpt lat="43.31806" lon="-0.50766">
        <ele>171.25</ele>
        <time>2017-04-09T06:37:41Z</time>
      </trkpt>
      <trkpt lat="43.31806" lon="-0.50761">
        <ele>172.21</ele>
        <time>2017-04-09T06:37:45Z</time>
      </trkpt>
      <trkpt lat="43.31808" lon="-0.5075">
        <ele>172.21</ele>
        <time>2017-04-09T06:37:53Z</time>
      </trkpt>
      <trkpt lat="43.31809" lon="-0.50748">
        <ele>172.21</ele>
        <time>2017-04-09T06:37:54Z</time>
      </trkpt>
      <trkpt lat="43.3181" lon="-0.50746">
        <ele>172.21</ele>
        <time>2017-04-09T06:37:55Z</time>
      </trkpt>
      <trkpt lat="43.31819" lon="-0.50722">
        <ele>169.81</ele>
        <time>2017-04-09T06:38:03Z</time>
      </trkpt>
      <trkpt lat="43.31822" lon="-0.50713">
        <ele>168.37</ele>
        <time>2017-04-09T06:38:07Z</time>
      </trkpt>
      <trkpt lat="43.31822" lon="-0.50711">
        <ele>167.89</ele>
        <time>2017-04-09T06:38:08Z</time>
      </trkpt>
      <trkpt lat="43.31822" lon="-0.50708">
        <ele>167.89</ele>
        <time>2017-04-09T06:38:09Z</time>
      </trkpt>
      <trkpt lat="43.31822" lon="-0.50705">
        <ele>167.89</ele>
        <time>2017-04-09T06:38:10Z</time>
      </trkpt>
      <trkpt lat="43.31822" lon="-0.50702">
        <ele>167.89</ele>
        <time>2017-04-09T06:38:11Z</time>
      </trkpt>
      <trkpt lat="43.31823" lon="-0.50699">
        <ele>167.89</ele>
        <time>2017-04-09T06:38:12Z</time>
      </trkpt>
      <trkpt lat="43.31823" lon="-0.50695">
        <ele>167.89</ele>
        <time>2017-04-09T06:38:13Z</time>
      </trkpt>
      <trkpt lat="43.31823" lon="-0.50693">
        <ele>167.89</ele>
        <time>2017-04-09T06:38:14Z</time>
      </trkpt>
      <trkpt lat="43.31822" lon="-0.50691">
        <ele>167.89</ele>
        <time>2017-04-09T06:38:15Z</time>
      </trkpt>
      <trkpt lat="43.3182" lon="-0.50687">
        <ele>167.41</ele>
        <time>2017-04-09T06:38:18Z</time>
      </trkpt>
      <trkpt lat="43.31818" lon="-0.50673">
        <ele>169.81</ele>
        <time>2017-04-09T06:38:26Z</time>
      </trkpt>
      <trkpt lat="43.31818" lon="-0.5067">
        <ele>170.29</ele>
        <time>2017-04-09T06:38:27Z</time>
      </trkpt>
      <trkpt lat="43.31821" lon="-0.5065">
        <ele>171.25</ele>
        <time>2017-04-09T06:38:37Z</time>
      </trkpt>
      <trkpt lat="43.31822" lon="-0.50623">
        <ele>169.81</ele>
        <time>2017-04-09T06:38:50Z</time>
      </trkpt>
      <trkpt lat="43.31821" lon="-0.50595">
        <ele>173.17</ele>
        <time>2017-04-09T06:39:06Z</time>
      </trkpt>
      <trkpt lat="43.31823" lon="-0.50571">
        <ele>173.17</ele>
        <time>2017-04-09T06:39:20Z</time>
      </trkpt>
      <trkpt lat="43.31825" lon="-0.50552">
        <ele>174.62</ele>
        <time>2017-04-09T06:39:29Z</time>
      </trkpt>
      <trkpt lat="43.31829" lon="-0.50528">
        <ele>175.58</ele>
        <time>2017-04-09T06:39:41Z</time>
      </trkpt>
      <trkpt lat="43.31827" lon="-0.50519">
        <ele>175.1</ele>
        <time>2017-04-09T06:39:49Z</time>
      </trkpt>
      <trkpt lat="43.31827" lon="-0.50517">
        <ele>175.1</ele>
        <time>2017-04-09T06:39:50Z</time>
      </trkpt>
      <trkpt lat="43.31822" lon="-0.50502">
        <ele>172.21</ele>
        <time>2017-04-09T06:39:59Z</time>
      </trkpt>
      <trkpt lat="43.31816" lon="-0.50482">
        <ele>177.02</ele>
        <time>2017-04-09T06:40:11Z</time>
      </trkpt>
      <trkpt lat="43.31814" lon="-0.50468">
        <ele>182.79</ele>
        <time>2017-04-09T06:40:21Z</time>
      </trkpt>
      <trkpt lat="43.31808" lon="-0.50445">
        <ele>185.67</ele>
        <time>2017-04-09T06:40:34Z</time>
      </trkpt>
      <trkpt lat="43.31807" lon="-0.50443">
        <ele>186.15</ele>
        <time>2017-04-09T06:40:35Z</time>
      </trkpt>
      <trkpt lat="43.31806" lon="-0.50441">
        <ele>187.11</ele>
        <time>2017-04-09T06:40:36Z</time>
      </trkpt>
      <trkpt lat="43.318" lon="-0.50418">
        <ele>197.69</ele>
        <time>2017-04-09T06:40:51Z</time>
      </trkpt>
      <trkpt lat="43.31795" lon="-0.50398">
        <ele>199.13</ele>
        <time>2017-04-09T06:41:05Z</time>
      </trkpt>
      <trkpt lat="43.31785" lon="-0.50384">
        <ele>200.57</ele>
        <time>2017-04-09T06:41:17Z</time>
      </trkpt>
      <trkpt lat="43.31781" lon="-0.5038">
        <ele>203.46</ele>
        <time>2017-04-09T06:41:21Z</time>
      </trkpt>
      <trkpt lat="43.31779" lon="-0.50359">
        <ele>212.59</ele>
        <time>2017-04-09T06:41:34Z</time>
      </trkpt>
      <trkpt lat="43.31789" lon="-0.50354">
        <ele>217.88</ele>
        <time>2017-04-09T06:41:43Z</time>
      </trkpt>
      <trkpt lat="43.31803" lon="-0.50355">
        <ele>222.68</ele>
        <time>2017-04-09T06:41:56Z</time>
      </trkpt>
      <trkpt lat="43.31825" lon="-0.50351">
        <ele>227.49</ele>
        <time>2017-04-09T06:42:09Z</time>
      </trkpt>
      <trkpt lat="43.31826" lon="-0.50352">
        <ele>227.49</ele>
        <time>2017-04-09T06:42:10Z</time>
      </trkpt>
      <trkpt lat="43.31828" lon="-0.50353">
        <ele>227.49</ele>
        <time>2017-04-09T06:42:11Z</time>
      </trkpt>
      <trkpt lat="43.31849" lon="-0.50367">
        <ele>230.85</ele>
        <time>2017-04-09T06:42:26Z</time>
      </trkpt>
      <trkpt lat="43.31863" lon="-0.50371">
        <ele>232.3</ele>
        <time>2017-04-09T06:42:40Z</time>
      </trkpt>
      <trkpt lat="43.31886" lon="-0.50378">
        <ele>227.97</ele>
        <time>2017-04-09T06:42:55Z</time>
      </trkpt>
      <trkpt lat="43.31905" lon="-0.50394">
        <ele>227.97</ele>
        <time>2017-04-09T06:43:10Z</time>
      </trkpt>
      <trkpt lat="43.31924" lon="-0.50409">
        <ele>225.09</ele>
        <time>2017-04-09T06:43:25Z</time>
      </trkpt>
      <trkpt lat="43.31938" lon="-0.50415">
        <ele>224.12</ele>
        <time>2017-04-09T06:43:36Z</time>
      </trkpt>
      <trkpt lat="43.31942" lon="-0.50416">
        <ele>224.61</ele>
        <time>2017-04-09T06:43:40Z</time>
      </trkpt>
      <trkpt lat="43.31946" lon="-0.50414">
        <ele>225.57</ele>
        <time>2017-04-09T06:43:45Z</time>
      </trkpt>
      <trkpt lat="43.31946" lon="-0.50413">
        <ele>226.53</ele>
        <time>2017-04-09T06:43:47Z</time>
      </trkpt>
      <trkpt lat="43.31945" lon="-0.50412">
        <ele>227.01</ele>
        <time>2017-04-09T06:43:48Z</time>
      </trkpt>
      <trkpt lat="43.31945" lon="-0.50411">
        <ele>227.49</ele>
        <time>2017-04-09T06:43:49Z</time>
      </trkpt>
      <trkpt lat="43.31945" lon="-0.50411">
        <ele>227.97</ele>
        <time>2017-04-09T06:43:50Z</time>
      </trkpt>
      <trkpt lat="43.31944" lon="-0.50411">
        <ele>228.45</ele>
        <time>2017-04-09T06:43:51Z</time>
      </trkpt>
      <trkpt lat="43.31944" lon="-0.50411">
        <ele>228.93</ele>
        <time>2017-04-09T06:43:52Z</time>
      </trkpt>
      <trkpt lat="43.31944" lon="-0.5041">
        <ele>228.93</ele>
        <time>2017-04-09T06:43:53Z</time>
      </trkpt>
      <trkpt lat="43.3194" lon="-0.50396">
        <ele>233.74</ele>
        <time>2017-04-09T06:44:06Z</time>
      </trkpt>
      <trkpt lat="43.31937" lon="-0.50385">
        <ele>233.74</ele>
        <time>2017-04-09T06:44:14Z</time>
      </trkpt>
      <trkpt lat="43.31936" lon="-0.50383">
        <ele>234.22</ele>
        <time>2017-04-09T06:44:15Z</time>
      </trkpt>
      <trkpt lat="43.31936" lon="-0.50381">
        <ele>234.7</ele>
        <time>2017-04-09T06:44:16Z</time>
      </trkpt>
      <trkpt lat="43.31931" lon="-0.50363">
        <ele>235.66</ele>
        <time>2017-04-09T06:44:27Z</time>
      </trkpt>
      <trkpt lat="43.31931" lon="-0.50359">
        <ele>235.66</ele>
        <time>2017-04-09T06:44:29Z</time>
      </trkpt>
      <trkpt lat="43.31931" lon="-0.50357">
        <ele>235.18</ele>
        <time>2017-04-09T06:44:30Z</time>
      </trkpt>
      <trkpt lat="43.31931" lon="-0.50355">
        <ele>235.18</ele>
        <time>2017-04-09T06:44:31Z</time>
      </trkpt>
      <trkpt lat="43.3193" lon="-0.50353">
        <ele>235.18</ele>
        <time>2017-04-09T06:44:32Z</time>
      </trkpt>
      <trkpt lat="43.3193" lon="-0.50351">
        <ele>235.18</ele>
        <time>2017-04-09T06:44:33Z</time>
      </trkpt>
      <trkpt lat="43.31929" lon="-0.5035">
        <ele>234.7</ele>
        <time>2017-04-09T06:44:34Z</time>
      </trkpt>
      <trkpt lat="43.31926" lon="-0.50324">
        <ele>237.1</ele>
        <time>2017-04-09T06:44:47Z</time>
      </trkpt>
      <trkpt lat="43.31921" lon="-0.50294">
        <ele>238.54</ele>
        <time>2017-04-09T06:44:58Z</time>
      </trkpt>
      <trkpt lat="43.31913" lon="-0.50259">
        <ele>241.91</ele>
        <time>2017-04-09T06:45:12Z</time>
      </trkpt>
      <trkpt lat="43.31894" lon="-0.50236">
        <ele>241.43</ele>
        <time>2017-04-09T06:45:25Z</time>
      </trkpt>
      <trkpt lat="43.31879" lon="-0.50203">
        <ele>237.58</ele>
        <time>2017-04-09T06:45:37Z</time>
      </trkpt>
      <trkpt lat="43.31867" lon="-0.50192">
        <ele>239.02</ele>
        <time>2017-04-09T06:45:46Z</time>
      </trkpt>
      <trkpt lat="43.31851" lon="-0.50185">
        <ele>242.87</ele>
        <time>2017-04-09T06:45:57Z</time>
      </trkpt>
      <trkpt lat="43.31836" lon="-0.50162">
        <ele>245.75</ele>
        <time>2017-04-09T06:46:08Z</time>
      </trkpt>
      <trkpt lat="43.31828" lon="-0.50154">
        <ele>247.68</ele>
        <time>2017-04-09T06:46:14Z</time>
      </trkpt>
      <trkpt lat="43.31818" lon="-0.50141">
        <ele>248.64</ele>
        <time>2017-04-09T06:46:22Z</time>
      </trkpt>
      <trkpt lat="43.31808" lon="-0.50135">
        <ele>248.64</ele>
        <time>2017-04-09T06:46:31Z</time>
      </trkpt>
      <trkpt lat="43.31797" lon="-0.50125">
        <ele>253.44</ele>
        <time>2017-04-09T06:46:42Z</time>
      </trkpt>
      <trkpt lat="43.31782" lon="-0.50103">
        <ele>252.96</ele>
        <time>2017-04-09T06:46:55Z</time>
      </trkpt>
      <trkpt lat="43.3178" lon="-0.50101">
        <ele>253.93</ele>
        <time>2017-04-09T06:46:57Z</time>
      </trkpt>
      <trkpt lat="43.31767" lon="-0.50075">
        <ele>251.04</ele>
        <time>2017-04-09T06:47:11Z</time>
      </trkpt>
      <trkpt lat="43.3176" lon="-0.50057">
        <ele>251.04</ele>
        <time>2017-04-09T06:47:23Z</time>
      </trkpt>
      <trkpt lat="43.31759" lon="-0.50029">
        <ele>250.08</ele>
        <time>2017-04-09T06:47:36Z</time>
      </trkpt>
      <trkpt lat="43.31762" lon="-0.50015">
        <ele>248.16</ele>
        <time>2017-04-09T06:48:05Z</time>
      </trkpt>
      <trkpt lat="43.3177" lon="-0.50001">
        <ele>242.39</ele>
        <time>2017-04-09T06:48:10Z</time>
      </trkpt>
      <trkpt lat="43.31779" lon="-0.49997">
        <ele>242.39</ele>
        <time>2017-04-09T06:48:15Z</time>
      </trkpt>
      <trkpt lat="43.31783" lon="-0.49998">
        <ele>242.39</ele>
        <time>2017-04-09T06:48:16Z</time>
      </trkpt>
      <trkpt lat="43.31813" lon="-0.50026">
        <ele>241.43</ele>
        <time>2017-04-09T06:48:28Z</time>
      </trkpt>
      <trkpt lat="43.31839" lon="-0.50029">
        <ele>245.75</ele>
        <time>2017-04-09T06:48:39Z</time>
      </trkpt>
      <trkpt lat="43.31862" lon="-0.50026">
        <ele>247.68</ele>
        <time>2017-04-09T06:48:50Z</time>
      </trkpt>
      <trkpt lat="43.319" lon="-0.50046">
        <ele>250.08</ele>
        <time>2017-04-09T06:49:05Z</time>
      </trkpt>
      <trkpt lat="43.31939" lon="-0.50084">
        <ele>250.08</ele>
        <time>2017-04-09T06:49:17Z</time>
      </trkpt>
      <trkpt lat="43.31985" lon="-0.50149">
        <ele>250.56</ele>
        <time>2017-04-09T06:49:26Z</time>
      </trkpt>
      <trkpt lat="43.31992" lon="-0.50166">
        <ele>251.04</ele>
        <time>2017-04-09T06:49:28Z</time>
      </trkpt>
      <trkpt lat="43.32014" lon="-0.50226">
        <ele>250.56</ele>
        <time>2017-04-09T06:49:35Z</time>
      </trkpt>
      <trkpt lat="43.32019" lon="-0.50242">
        <ele>250.08</ele>
        <time>2017-04-09T06:49:37Z</time>
      </trkpt>
      <trkpt lat="43.32022" lon="-0.50251">
        <ele>250.08</ele>
        <time>2017-04-09T06:49:38Z</time>
      </trkpt>
      <trkpt lat="43.32026" lon="-0.5026">
        <ele>249.6</ele>
        <time>2017-04-09T06:49:39Z</time>
      </trkpt>
      <trkpt lat="43.32029" lon="-0.50269">
        <ele>249.6</ele>
        <time>2017-04-09T06:49:40Z</time>
      </trkpt>
      <trkpt lat="43.32033" lon="-0.50277">
        <ele>249.6</ele>
        <time>2017-04-09T06:49:41Z</time>
      </trkpt>
      <trkpt lat="43.32038" lon="-0.50284">
        <ele>249.6</ele>
        <time>2017-04-09T06:49:42Z</time>
      </trkpt>
      <trkpt lat="43.32043" lon="-0.50291">
        <ele>249.12</ele>
        <time>2017-04-09T06:49:43Z</time>
      </trkpt>
      <trkpt lat="43.32048" lon="-0.50298">
        <ele>249.12</ele>
        <time>2017-04-09T06:49:44Z</time>
      </trkpt>
      <trkpt lat="43.32053" lon="-0.50303">
        <ele>249.12</ele>
        <time>2017-04-09T06:49:45Z</time>
      </trkpt>
      <trkpt lat="43.32057" lon="-0.50307">
        <ele>249.12</ele>
        <time>2017-04-09T06:49:46Z</time>
      </trkpt>
      <trkpt lat="43.32079" lon="-0.50327">
        <ele>246.72</ele>
        <time>2017-04-09T06:49:55Z</time>
      </trkpt>
      <trkpt lat="43.32101" lon="-0.50374">
        <ele>246.72</ele>
        <time>2017-04-09T06:50:11Z</time>
      </trkpt>
      <trkpt lat="43.32115" lon="-0.50413">
        <ele>249.12</ele>
        <time>2017-04-09T06:50:28Z</time>
      </trkpt>
      <trkpt lat="43.3213" lon="-0.50455">
        <ele>251.52</ele>
        <time>2017-04-09T06:50:45Z</time>
      </trkpt>
      <trkpt lat="43.3215" lon="-0.50498">
        <ele>253.44</ele>
        <time>2017-04-09T06:51:03Z</time>
      </trkpt>
      <trkpt lat="43.32169" lon="-0.50538">
        <ele>252.96</ele>
        <time>2017-04-09T06:51:16Z</time>
      </trkpt>
      <trkpt lat="43.32196" lon="-0.50595">
        <ele>251.04</ele>
        <time>2017-04-09T06:51:30Z</time>
      </trkpt>
      <trkpt lat="43.32232" lon="-0.50644">
        <ele>250.56</ele>
        <time>2017-04-09T06:51:47Z</time>
      </trkpt>
      <trkpt lat="43.32291" lon="-0.50699">
        <ele>246.23</ele>
        <time>2017-04-09T06:51:59Z</time>
      </trkpt>
      <trkpt lat="43.32344" lon="-0.50752">
        <ele>246.23</ele>
        <time>2017-04-09T06:52:11Z</time>
      </trkpt>
      <trkpt lat="43.32369" lon="-0.50784">
        <ele>246.72</ele>
        <time>2017-04-09T06:52:24Z</time>
      </trkpt>
      <trkpt lat="43.32396" lon="-0.50823">
        <ele>248.16</ele>
        <time>2017-04-09T06:52:40Z</time>
      </trkpt>
      <trkpt lat="43.32415" lon="-0.5085">
        <ele>252.96</ele>
        <time>2017-04-09T06:52:52Z</time>
      </trkpt>
      <trkpt lat="43.32428" lon="-0.50886">
        <ele>256.81</ele>
        <time>2017-04-09T06:53:06Z</time>
      </trkpt>
      <trkpt lat="43.32441" lon="-0.50931">
        <ele>259.21</ele>
        <time>2017-04-09T06:53:19Z</time>
      </trkpt>
      <trkpt lat="43.32459" lon="-0.50956">
        <ele>262.58</ele>
        <time>2017-04-09T06:53:30Z</time>
      </trkpt>
      <trkpt lat="43.32477" lon="-0.50987">
        <ele>265.94</ele>
        <time>2017-04-09T06:53:41Z</time>
      </trkpt>
      <trkpt lat="43.32493" lon="-0.51047">
        <ele>267.38</ele>
        <time>2017-04-09T06:53:58Z</time>
      </trkpt>
      <trkpt lat="43.32508" lon="-0.5109">
        <ele>265.94</ele>
        <time>2017-04-09T06:54:10Z</time>
      </trkpt>
      <trkpt lat="43.32542" lon="-0.51141">
        <ele>261.14</ele>
        <time>2017-04-09T06:54:23Z</time>
      </trkpt>
      <trkpt lat="43.32594" lon="-0.51201">
        <ele>256.81</ele>
        <time>2017-04-09T06:54:39Z</time>
      </trkpt>
      <trkpt lat="43.32661" lon="-0.51262">
        <ele>252</ele>
        <time>2017-04-09T06:54:54Z</time>
      </trkpt>
      <trkpt lat="43.3274" lon="-0.51324">
        <ele>245.75</ele>
        <time>2017-04-09T06:55:06Z</time>
      </trkpt>
      <trkpt lat="43.32798" lon="-0.51385">
        <ele>245.27</ele>
        <time>2017-04-09T06:55:18Z</time>
      </trkpt>
      <trkpt lat="43.32826" lon="-0.51414">
        <ele>248.16</ele>
        <time>2017-04-09T06:55:30Z</time>
      </trkpt>
      <trkpt lat="43.32867" lon="-0.51424">
        <ele>249.6</ele>
        <time>2017-04-09T06:55:44Z</time>
      </trkpt>
      <trkpt lat="43.32879" lon="-0.51427">
        <ele>251.04</ele>
        <time>2017-04-09T06:55:55Z</time>
      </trkpt>
      <trkpt lat="43.32881" lon="-0.51431">
        <ele>252</ele>
        <time>2017-04-09T06:56:20Z</time>
      </trkpt>
      <trkpt lat="43.32883" lon="-0.51431">
        <ele>251.04</ele>
        <time>2017-04-09T06:56:42Z</time>
      </trkpt>
      <trkpt lat="43.32892" lon="-0.51436">
        <ele>248.64</ele>
        <time>2017-04-09T06:57:07Z</time>
      </trkpt>
      <trkpt lat="43.32934" lon="-0.5147">
        <ele>247.68</ele>
        <time>2017-04-09T06:57:21Z</time>
      </trkpt>
      <trkpt lat="43.32987" lon="-0.51542">
        <ele>246.23</ele>
        <time>2017-04-09T06:57:31Z</time>
      </trkpt>
      <trkpt lat="43.33039" lon="-0.51607">
        <ele>245.27</ele>
        <time>2017-04-09T06:57:39Z</time>
      </trkpt>
      <trkpt lat="43.33046" lon="-0.51613">
        <ele>245.27</ele>
        <time>2017-04-09T06:57:40Z</time>
      </trkpt>
      <trkpt lat="43.33091" lon="-0.51664">
        <ele>240.47</ele>
        <time>2017-04-09T06:57:49Z</time>
      </trkpt>
      <trkpt lat="43.33103" lon="-0.51681">
        <ele>237.58</ele>
        <time>2017-04-09T06:57:53Z</time>
      </trkpt>
      <trkpt lat="43.33112" lon="-0.5169">
        <ele>235.66</ele>
        <time>2017-04-09T06:57:55Z</time>
      </trkpt>
      <trkpt lat="43.3313" lon="-0.51703">
        <ele>231.33</ele>
        <time>2017-04-09T06:58:01Z</time>
      </trkpt>
      <trkpt lat="43.33131" lon="-0.51705">
        <ele>230.85</ele>
        <time>2017-04-09T06:58:02Z</time>
      </trkpt>
      <trkpt lat="43.33133" lon="-0.5171">
        <ele>230.37</ele>
        <time>2017-04-09T06:58:03Z</time>
      </trkpt>
      <trkpt lat="43.33134" lon="-0.51716">
        <ele>229.89</ele>
        <time>2017-04-09T06:58:04Z</time>
      </trkpt>
      <trkpt lat="43.33137" lon="-0.51721">
        <ele>228.93</ele>
        <time>2017-04-09T06:58:05Z</time>
      </trkpt>
      <trkpt lat="43.3314" lon="-0.51724">
        <ele>228.45</ele>
        <time>2017-04-09T06:58:06Z</time>
      </trkpt>
      <trkpt lat="43.33142" lon="-0.51725">
        <ele>227.97</ele>
        <time>2017-04-09T06:58:07Z</time>
      </trkpt>
      <trkpt lat="43.33143" lon="-0.51725">
        <ele>227.97</ele>
        <time>2017-04-09T06:58:08Z</time>
      </trkpt>
      <trkpt lat="43.33153" lon="-0.51727">
        <ele>231.33</ele>
        <time>2017-04-09T06:58:20Z</time>
      </trkpt>
      <trkpt lat="43.33159" lon="-0.51728">
        <ele>235.18</ele>
        <time>2017-04-09T06:58:26Z</time>
      </trkpt>
      <trkpt lat="43.33163" lon="-0.51729">
        <ele>237.1</ele>
        <time>2017-04-09T06:58:29Z</time>
      </trkpt>
      <trkpt lat="43.3318" lon="-0.5174">
        <ele>246.72</ele>
        <time>2017-04-09T06:58:43Z</time>
      </trkpt>
      <trkpt lat="43.33198" lon="-0.51754">
        <ele>253.93</ele>
        <time>2017-04-09T06:58:57Z</time>
      </trkpt>
      <trkpt lat="43.33208" lon="-0.51761">
        <ele>255.37</ele>
        <time>2017-04-09T06:59:03Z</time>
      </trkpt>
      <trkpt lat="43.33224" lon="-0.51788">
        <ele>259.21</ele>
        <time>2017-04-09T06:59:13Z</time>
      </trkpt>
      <trkpt lat="43.33242" lon="-0.51832">
        <ele>267.38</ele>
        <time>2017-04-09T06:59:26Z</time>
      </trkpt>
      <trkpt lat="43.33256" lon="-0.51869">
        <ele>271.23</ele>
        <time>2017-04-09T06:59:37Z</time>
      </trkpt>
      <trkpt lat="43.33272" lon="-0.5192">
        <ele>271.71</ele>
        <time>2017-04-09T06:59:49Z</time>
      </trkpt>
      <trkpt lat="43.33277" lon="-0.51932">
        <ele>270.27</ele>
        <time>2017-04-09T06:59:51Z</time>
      </trkpt>
      <trkpt lat="43.3328" lon="-0.51949">
        <ele>269.79</ele>
        <time>2017-04-09T06:59:55Z</time>
      </trkpt>
      <trkpt lat="43.33283" lon="-0.51953">
        <ele>269.31</ele>
        <time>2017-04-09T06:59:56Z</time>
      </trkpt>
      <trkpt lat="43.33285" lon="-0.51958">
        <ele>269.31</ele>
        <time>2017-04-09T06:59:57Z</time>
      </trkpt>
      <trkpt lat="43.33288" lon="-0.51965">
        <ele>269.31</ele>
        <time>2017-04-09T06:59:58Z</time>
      </trkpt>
      <trkpt lat="43.33289" lon="-0.51972">
        <ele>269.31</ele>
        <time>2017-04-09T06:59:59Z</time>
      </trkpt>
      <trkpt lat="43.3329" lon="-0.51978">
        <ele>269.31</ele>
        <time>2017-04-09T07:00:00Z</time>
      </trkpt>
      <trkpt lat="43.33298" lon="-0.52035">
        <ele>265.94</ele>
        <time>2017-04-09T07:00:14Z</time>
      </trkpt>
      <trkpt lat="43.33289" lon="-0.52041">
        <ele>257.77</ele>
        <time>2017-04-09T07:00:35Z</time>
      </trkpt>
      <trkpt lat="43.33287" lon="-0.52058">
        <ele>256.33</ele>
        <time>2017-04-09T07:00:43Z</time>
      </trkpt>
      <trkpt lat="43.33287" lon="-0.52061">
        <ele>256.33</ele>
        <time>2017-04-09T07:00:44Z</time>
      </trkpt>
      <trkpt lat="43.33284" lon="-0.52093">
        <ele>260.65</ele>
        <time>2017-04-09T07:00:56Z</time>
      </trkpt>
      <trkpt lat="43.33286" lon="-0.52142">
        <ele>266.9</ele>
        <time>2017-04-09T07:01:09Z</time>
      </trkpt>
      <trkpt lat="43.33292" lon="-0.52175">
        <ele>268.35</ele>
        <time>2017-04-09T07:01:18Z</time>
      </trkpt>
      <trkpt lat="43.33298" lon="-0.52197">
        <ele>268.83</ele>
        <time>2017-04-09T07:01:22Z</time>
      </trkpt>
      <trkpt lat="43.333" lon="-0.52203">
        <ele>268.83</ele>
        <time>2017-04-09T07:01:23Z</time>
      </trkpt>
      <trkpt lat="43.33304" lon="-0.52216">
        <ele>268.83</ele>
        <time>2017-04-09T07:01:25Z</time>
      </trkpt>
      <trkpt lat="43.33307" lon="-0.52221">
        <ele>268.83</ele>
        <time>2017-04-09T07:01:26Z</time>
      </trkpt>
      <trkpt lat="43.3331" lon="-0.52229">
        <ele>268.83</ele>
        <time>2017-04-09T07:01:27Z</time>
      </trkpt>
      <trkpt lat="43.33313" lon="-0.52237">
        <ele>268.83</ele>
        <time>2017-04-09T07:01:28Z</time>
      </trkpt>
      <trkpt lat="43.33316" lon="-0.52247">
        <ele>268.35</ele>
        <time>2017-04-09T07:01:29Z</time>
      </trkpt>
      <trkpt lat="43.33319" lon="-0.52258">
        <ele>268.35</ele>
        <time>2017-04-09T07:01:30Z</time>
      </trkpt>
      <trkpt lat="43.33351" lon="-0.52372">
        <ele>255.37</ele>
        <time>2017-04-09T07:01:41Z</time>
      </trkpt>
      <trkpt lat="43.33362" lon="-0.52408">
        <ele>247.2</ele>
        <time>2017-04-09T07:01:47Z</time>
      </trkpt>
      <trkpt lat="43.33363" lon="-0.52409">
        <ele>245.75</ele>
        <time>2017-04-09T07:01:48Z</time>
      </trkpt>
      <trkpt lat="43.33364" lon="-0.52409">
        <ele>244.79</ele>
        <time>2017-04-09T07:01:49Z</time>
      </trkpt>
      <trkpt lat="43.33366" lon="-0.52407">
        <ele>243.83</ele>
        <time>2017-04-09T07:01:50Z</time>
      </trkpt>
      <trkpt lat="43.33367" lon="-0.52405">
        <ele>242.87</ele>
        <time>2017-04-09T07:01:51Z</time>
      </trkpt>
      <trkpt lat="43.33369" lon="-0.52402">
        <ele>241.91</ele>
        <time>2017-04-09T07:01:52Z</time>
      </trkpt>
      <trkpt lat="43.33371" lon="-0.52399">
        <ele>240.95</ele>
        <time>2017-04-09T07:01:53Z</time>
      </trkpt>
      <trkpt lat="43.33386" lon="-0.5236">
        <ele>235.18</ele>
        <time>2017-04-09T07:02:01Z</time>
      </trkpt>
      <trkpt lat="43.33386" lon="-0.52354">
        <ele>234.22</ele>
        <time>2017-04-09T07:02:02Z</time>
      </trkpt>
      <trkpt lat="43.33387" lon="-0.52328">
        <ele>230.85</ele>
        <time>2017-04-09T07:02:06Z</time>
      </trkpt>
      <trkpt lat="43.3339" lon="-0.52285">
        <ele>227.49</ele>
        <time>2017-04-09T07:02:11Z</time>
      </trkpt>
      <trkpt lat="43.3339" lon="-0.52277">
        <ele>227.01</ele>
        <time>2017-04-09T07:02:12Z</time>
      </trkpt>
      <trkpt lat="43.33384" lon="-0.52196">
        <ele>222.2</ele>
        <time>2017-04-09T07:02:23Z</time>
      </trkpt>
      <trkpt lat="43.33379" lon="-0.52181">
        <ele>221.24</ele>
        <time>2017-04-09T07:02:26Z</time>
      </trkpt>
      <trkpt lat="43.33378" lon="-0.52177">
        <ele>221.24</ele>
        <time>2017-04-09T07:02:27Z</time>
      </trkpt>
      <trkpt lat="43.33361" lon="-0.52124">
        <ele>223.64</ele>
        <time>2017-04-09T07:02:39Z</time>
      </trkpt>
      <trkpt lat="43.33346" lon="-0.52048">
        <ele>233.26</ele>
        <time>2017-04-09T07:02:52Z</time>
      </trkpt>
      <trkpt lat="43.33344" lon="-0.51993">
        <ele>243.35</ele>
        <time>2017-04-09T07:03:02Z</time>
      </trkpt>
      <trkpt lat="43.33346" lon="-0.51985">
        <ele>243.83</ele>
        <time>2017-04-09T07:03:03Z</time>
      </trkpt>
      <trkpt lat="43.33353" lon="-0.51961">
        <ele>245.27</ele>
        <time>2017-04-09T07:03:06Z</time>
      </trkpt>
      <trkpt lat="43.33355" lon="-0.51954">
        <ele>245.75</ele>
        <time>2017-04-09T07:03:07Z</time>
      </trkpt>
      <trkpt lat="43.33357" lon="-0.51945">
        <ele>245.75</ele>
        <time>2017-04-09T07:03:08Z</time>
      </trkpt>
      <trkpt lat="43.33362" lon="-0.51915">
        <ele>245.75</ele>
        <time>2017-04-09T07:03:12Z</time>
      </trkpt>
      <trkpt lat="43.33361" lon="-0.5191">
        <ele>245.75</ele>
        <time>2017-04-09T07:03:13Z</time>
      </trkpt>
      <trkpt lat="43.3336" lon="-0.51906">
        <ele>246.23</ele>
        <time>2017-04-09T07:03:14Z</time>
      </trkpt>
      <trkpt lat="43.33344" lon="-0.51855">
        <ele>249.6</ele>
        <time>2017-04-09T07:03:26Z</time>
      </trkpt>
      <trkpt lat="43.33333" lon="-0.51824">
        <ele>260.17</ele>
        <time>2017-04-09T07:03:35Z</time>
      </trkpt>
      <trkpt lat="43.33323" lon="-0.51788">
        <ele>269.79</ele>
        <time>2017-04-09T07:03:47Z</time>
      </trkpt>
      <trkpt lat="43.33299" lon="-0.5175">
        <ele>273.63</ele>
        <time>2017-04-09T07:04:02Z</time>
      </trkpt>
      <trkpt lat="43.33267" lon="-0.51721">
        <ele>272.19</ele>
        <time>2017-04-09T07:04:13Z</time>
      </trkpt>
      <trkpt lat="43.33234" lon="-0.51696">
        <ele>275.07</ele>
        <time>2017-04-09T07:04:26Z</time>
      </trkpt>
      <trkpt lat="43.33225" lon="-0.51692">
        <ele>276.52</ele>
        <time>2017-04-09T07:04:29Z</time>
      </trkpt>
      <trkpt lat="43.33222" lon="-0.5169">
        <ele>277</ele>
        <time>2017-04-09T07:04:30Z</time>
      </trkpt>
      <trkpt lat="43.33219" lon="-0.51688">
        <ele>277.48</ele>
        <time>2017-04-09T07:04:31Z</time>
      </trkpt>
      <trkpt lat="43.33217" lon="-0.51685">
        <ele>278.44</ele>
        <time>2017-04-09T07:04:32Z</time>
      </trkpt>
      <trkpt lat="43.33217" lon="-0.51684">
        <ele>279.4</ele>
        <time>2017-04-09T07:04:33Z</time>
      </trkpt>
      <trkpt lat="43.33225" lon="-0.51668">
        <ele>280.36</ele>
        <time>2017-04-09T07:04:39Z</time>
      </trkpt>
      <trkpt lat="43.33229" lon="-0.51662">
        <ele>280.36</ele>
        <time>2017-04-09T07:04:41Z</time>
      </trkpt>
      <trkpt lat="43.33231" lon="-0.51659">
        <ele>280.36</ele>
        <time>2017-04-09T07:04:42Z</time>
      </trkpt>
      <trkpt lat="43.33233" lon="-0.51656">
        <ele>280.36</ele>
        <time>2017-04-09T07:04:43Z</time>
      </trkpt>
      <trkpt lat="43.33235" lon="-0.51654">
        <ele>280.36</ele>
        <time>2017-04-09T07:04:44Z</time>
      </trkpt>
      <trkpt lat="43.33237" lon="-0.51651">
        <ele>279.88</ele>
        <time>2017-04-09T07:04:45Z</time>
      </trkpt>
      <trkpt lat="43.33239" lon="-0.51649">
        <ele>279.88</ele>
        <time>2017-04-09T07:04:46Z</time>
      </trkpt>
      <trkpt lat="43.33242" lon="-0.51647">
        <ele>279.88</ele>
        <time>2017-04-09T07:04:47Z</time>
      </trkpt>
      <trkpt lat="43.33272" lon="-0.51611">
        <ele>277.96</ele>
        <time>2017-04-09T07:04:55Z</time>
      </trkpt>
      <trkpt lat="43.33283" lon="-0.51602">
        <ele>277</ele>
        <time>2017-04-09T07:04:57Z</time>
      </trkpt>
      <trkpt lat="43.33289" lon="-0.51598">
        <ele>276.52</ele>
        <time>2017-04-09T07:04:58Z</time>
      </trkpt>
      <trkpt lat="43.33295" lon="-0.51596">
        <ele>276.04</ele>
        <time>2017-04-09T07:04:59Z</time>
      </trkpt>
      <trkpt lat="43.33301" lon="-0.51595">
        <ele>275.56</ele>
        <time>2017-04-09T07:05:00Z</time>
      </trkpt>
      <trkpt lat="43.33308" lon="-0.51593">
        <ele>275.07</ele>
        <time>2017-04-09T07:05:01Z</time>
      </trkpt>
      <trkpt lat="43.33315" lon="-0.51593">
        <ele>274.59</ele>
        <time>2017-04-09T07:05:02Z</time>
      </trkpt>
      <trkpt lat="43.33385" lon="-0.51605">
        <ele>264.5</ele>
        <time>2017-04-09T07:05:12Z</time>
      </trkpt>
      <trkpt lat="43.33396" lon="-0.51608">
        <ele>262.1</ele>
        <time>2017-04-09T07:05:14Z</time>
      </trkpt>
      <trkpt lat="43.334" lon="-0.51608">
        <ele>261.14</ele>
        <time>2017-04-09T07:05:15Z</time>
      </trkpt>
      <trkpt lat="43.33404" lon="-0.51607">
        <ele>259.69</ele>
        <time>2017-04-09T07:05:16Z</time>
      </trkpt>
      <trkpt lat="43.33406" lon="-0.51606">
        <ele>258.25</ele>
        <time>2017-04-09T07:05:17Z</time>
      </trkpt>
      <trkpt lat="43.33408" lon="-0.51605">
        <ele>257.29</ele>
        <time>2017-04-09T07:05:18Z</time>
      </trkpt>
      <trkpt lat="43.33437" lon="-0.51596">
        <ele>240.47</ele>
        <time>2017-04-09T07:05:33Z</time>
      </trkpt>
      <trkpt lat="43.33458" lon="-0.51604">
        <ele>237.58</ele>
        <time>2017-04-09T07:05:48Z</time>
      </trkpt>
      <trkpt lat="43.33468" lon="-0.51605">
        <ele>237.58</ele>
        <time>2017-04-09T07:05:55Z</time>
      </trkpt>
      <trkpt lat="43.3347" lon="-0.51606">
        <ele>237.58</ele>
        <time>2017-04-09T07:05:56Z</time>
      </trkpt>
      <trkpt lat="43.33471" lon="-0.51607">
        <ele>237.1</ele>
        <time>2017-04-09T07:05:57Z</time>
      </trkpt>
      <trkpt lat="43.33493" lon="-0.51616">
        <ele>233.26</ele>
        <time>2017-04-09T07:06:14Z</time>
      </trkpt>
      <trkpt lat="43.33495" lon="-0.51617">
        <ele>233.26</ele>
        <time>2017-04-09T07:06:15Z</time>
      </trkpt>
      <trkpt lat="43.33504" lon="-0.51618">
        <ele>230.85</ele>
        <time>2017-04-09T07:06:21Z</time>
      </trkpt>
      <trkpt lat="43.33527" lon="-0.51623">
        <ele>227.49</ele>
        <time>2017-04-09T07:06:34Z</time>
      </trkpt>
      <trkpt lat="43.33559" lon="-0.5164">
        <ele>220.76</ele>
        <time>2017-04-09T07:06:49Z</time>
      </trkpt>
      <trkpt lat="43.33568" lon="-0.5164">
        <ele>222.2</ele>
        <time>2017-04-09T07:06:56Z</time>
      </trkpt>
      <trkpt lat="43.33588" lon="-0.5165">
        <ele>224.12</ele>
        <time>2017-04-09T07:07:11Z</time>
      </trkpt>
      <trkpt lat="43.33616" lon="-0.51671">
        <ele>225.57</ele>
        <time>2017-04-09T07:07:23Z</time>
      </trkpt>
      <trkpt lat="43.33651" lon="-0.51691">
        <ele>227.01</ele>
        <time>2017-04-09T07:07:38Z</time>
      </trkpt>
      <trkpt lat="43.33683" lon="-0.51718">
        <ele>231.33</ele>
        <time>2017-04-09T07:07:52Z</time>
      </trkpt>
      <trkpt lat="43.33719" lon="-0.51763">
        <ele>227.97</ele>
        <time>2017-04-09T07:08:06Z</time>
      </trkpt>
      <trkpt lat="43.33747" lon="-0.51798">
        <ele>227.49</ele>
        <time>2017-04-09T07:08:21Z</time>
      </trkpt>
      <trkpt lat="43.33767" lon="-0.51821">
        <ele>229.89</ele>
        <time>2017-04-09T07:08:33Z</time>
      </trkpt>
      <trkpt lat="43.33783" lon="-0.51863">
        <ele>231.33</ele>
        <time>2017-04-09T07:08:44Z</time>
      </trkpt>
      <trkpt lat="43.33806" lon="-0.51904">
        <ele>230.85</ele>
        <time>2017-04-09T07:08:59Z</time>
      </trkpt>
      <trkpt lat="43.33816" lon="-0.51941">
        <ele>225.57</ele>
        <time>2017-04-09T07:09:08Z</time>
      </trkpt>
      <trkpt lat="43.33823" lon="-0.51986">
        <ele>225.09</ele>
        <time>2017-04-09T07:09:20Z</time>
      </trkpt>
      <trkpt lat="43.3384" lon="-0.52022">
        <ele>227.01</ele>
        <time>2017-04-09T07:09:30Z</time>
      </trkpt>
      <trkpt lat="43.33865" lon="-0.52055">
        <ele>233.26</ele>
        <time>2017-04-09T07:09:42Z</time>
      </trkpt>
      <trkpt lat="43.33886" lon="-0.52091">
        <ele>239.99</ele>
        <time>2017-04-09T07:09:54Z</time>
      </trkpt>
      <trkpt lat="43.33887" lon="-0.52092">
        <ele>240.95</ele>
        <time>2017-04-09T07:09:55Z</time>
      </trkpt>
      <trkpt lat="43.33924" lon="-0.52123">
        <ele>242.87</ele>
        <time>2017-04-09T07:10:08Z</time>
      </trkpt>
      <trkpt lat="43.33969" lon="-0.52137">
        <ele>239.51</ele>
        <time>2017-04-09T07:10:16Z</time>
      </trkpt>
      <trkpt lat="43.33983" lon="-0.52146">
        <ele>238.06</ele>
        <time>2017-04-09T07:10:18Z</time>
      </trkpt>
      <trkpt lat="43.33988" lon="-0.5215">
        <ele>237.58</ele>
        <time>2017-04-09T07:10:19Z</time>
      </trkpt>
      <trkpt lat="43.33992" lon="-0.52155">
        <ele>236.62</ele>
        <time>2017-04-09T07:10:20Z</time>
      </trkpt>
      <trkpt lat="43.33996" lon="-0.5216">
        <ele>236.14</ele>
        <time>2017-04-09T07:10:21Z</time>
      </trkpt>
      <trkpt lat="43.33999" lon="-0.52166">
        <ele>235.66</ele>
        <time>2017-04-09T07:10:22Z</time>
      </trkpt>
      <trkpt lat="43.34003" lon="-0.52173">
        <ele>235.18</ele>
        <time>2017-04-09T07:10:23Z</time>
      </trkpt>
      <trkpt lat="43.34033" lon="-0.52246">
        <ele>231.33</ele>
        <time>2017-04-09T07:10:31Z</time>
      </trkpt>
      <trkpt lat="43.34036" lon="-0.52251">
        <ele>230.85</ele>
        <time>2017-04-09T07:10:32Z</time>
      </trkpt>
      <trkpt lat="43.34063" lon="-0.52277">
        <ele>230.85</ele>
        <time>2017-04-09T07:10:41Z</time>
      </trkpt>
      <trkpt lat="43.34081" lon="-0.5231">
        <ele>237.1</ele>
        <time>2017-04-09T07:10:54Z</time>
      </trkpt>
      <trkpt lat="43.34094" lon="-0.52347">
        <ele>243.83</ele>
        <time>2017-04-09T07:11:06Z</time>
      </trkpt>
      <trkpt lat="43.34108" lon="-0.52382">
        <ele>252.96</ele>
        <time>2017-04-09T07:11:19Z</time>
      </trkpt>
      <trkpt lat="43.34123" lon="-0.52423">
        <ele>262.1</ele>
        <time>2017-04-09T07:11:29Z</time>
      </trkpt>
      <trkpt lat="43.34132" lon="-0.52448">
        <ele>275.56</ele>
        <time>2017-04-09T07:11:38Z</time>
      </trkpt>
      <trkpt lat="43.34134" lon="-0.52461">
        <ele>281.32</ele>
        <time>2017-04-09T07:11:42Z</time>
      </trkpt>
      <trkpt lat="43.34134" lon="-0.52465">
        <ele>282.77</ele>
        <time>2017-04-09T07:11:43Z</time>
      </trkpt>
      <trkpt lat="43.34132" lon="-0.52477">
        <ele>286.13</ele>
        <time>2017-04-09T07:11:45Z</time>
      </trkpt>
      <trkpt lat="43.34092" lon="-0.52556">
        <ele>303.91</ele>
        <time>2017-04-09T07:11:59Z</time>
      </trkpt>
      <trkpt lat="43.34073" lon="-0.52596">
        <ele>308.24</ele>
        <time>2017-04-09T07:12:10Z</time>
      </trkpt>
      <trkpt lat="43.34058" lon="-0.52622">
        <ele>305.36</ele>
        <time>2017-04-09T07:12:18Z</time>
      </trkpt>
      <trkpt lat="43.34056" lon="-0.52625">
        <ele>305.36</ele>
        <time>2017-04-09T07:12:19Z</time>
      </trkpt>
      <trkpt lat="43.34035" lon="-0.52658">
        <ele>304.88</ele>
        <time>2017-04-09T07:12:31Z</time>
      </trkpt>
      <trkpt lat="43.3402" lon="-0.52703">
        <ele>298.15</ele>
        <time>2017-04-09T07:12:42Z</time>
      </trkpt>
      <trkpt lat="43.33993" lon="-0.52764">
        <ele>279.4</ele>
        <time>2017-04-09T07:12:56Z</time>
      </trkpt>
      <trkpt lat="43.33985" lon="-0.52769">
        <ele>263.06</ele>
        <time>2017-04-09T07:13:07Z</time>
      </trkpt>
      <trkpt lat="43.33971" lon="-0.52779">
        <ele>225.57</ele>
        <time>2017-04-09T07:13:26Z</time>
      </trkpt>
      <trkpt lat="43.33971" lon="-0.52778">
        <ele>214.51</ele>
        <time>2017-04-09T07:13:41Z</time>
      </trkpt>
      <trkpt lat="43.33971" lon="-0.52781">
        <ele>207.78</ele>
        <time>2017-04-09T07:14:05Z</time>
      </trkpt>
      <trkpt lat="43.3397" lon="-0.52782">
        <ele>207.78</ele>
        <time>2017-04-09T07:14:06Z</time>
      </trkpt>
      <trkpt lat="43.3397" lon="-0.52785">
        <ele>207.78</ele>
        <time>2017-04-09T07:14:07Z</time>
      </trkpt>
      <trkpt lat="43.33961" lon="-0.52842">
        <ele>205.86</ele>
        <time>2017-04-09T07:14:20Z</time>
      </trkpt>
      <trkpt lat="43.3395" lon="-0.52907">
        <ele>201.53</ele>
        <time>2017-04-09T07:14:34Z</time>
      </trkpt>
      <trkpt lat="43.33948" lon="-0.52969">
        <ele>202.49</ele>
        <time>2017-04-09T07:14:50Z</time>
      </trkpt>
      <trkpt lat="43.33955" lon="-0.5303">
        <ele>200.09</ele>
        <time>2017-04-09T07:15:04Z</time>
      </trkpt>
      <trkpt lat="43.33958" lon="-0.53046">
        <ele>199.61</ele>
        <time>2017-04-09T07:15:07Z</time>
      </trkpt>
      <trkpt lat="43.33959" lon="-0.53052">
        <ele>199.61</ele>
        <time>2017-04-09T07:15:08Z</time>
      </trkpt>
      <trkpt lat="43.3396" lon="-0.53069">
        <ele>199.61</ele>
        <time>2017-04-09T07:15:11Z</time>
      </trkpt>
      <trkpt lat="43.3396" lon="-0.53074">
        <ele>199.61</ele>
        <time>2017-04-09T07:15:12Z</time>
      </trkpt>
      <trkpt lat="43.33969" lon="-0.53135">
        <ele>200.09</ele>
        <time>2017-04-09T07:15:25Z</time>
      </trkpt>
      <trkpt lat="43.33998" lon="-0.53166">
        <ele>202.98</ele>
        <time>2017-04-09T07:15:37Z</time>
      </trkpt>
      <trkpt lat="43.33998" lon="-0.53169">
        <ele>203.94</ele>
        <time>2017-04-09T07:15:38Z</time>
      </trkpt>
      <trkpt lat="43.34" lon="-0.53189">
        <ele>206.34</ele>
        <time>2017-04-09T07:15:43Z</time>
      </trkpt>
      <trkpt lat="43.33981" lon="-0.5321">
        <ele>210.67</ele>
        <time>2017-04-09T07:15:53Z</time>
      </trkpt>
      <trkpt lat="43.33954" lon="-0.53215">
        <ele>217.4</ele>
        <time>2017-04-09T07:16:05Z</time>
      </trkpt>
      <trkpt lat="43.33952" lon="-0.53216">
        <ele>217.88</ele>
        <time>2017-04-09T07:16:06Z</time>
      </trkpt>
      <trkpt lat="43.33948" lon="-0.53215">
        <ele>218.84</ele>
        <time>2017-04-09T07:16:08Z</time>
      </trkpt>
      <trkpt lat="43.33919" lon="-0.53211">
        <ele>227.97</ele>
        <time>2017-04-09T07:16:16Z</time>
      </trkpt>
      <trkpt lat="43.33906" lon="-0.53214">
        <ele>234.22</ele>
        <time>2017-04-09T07:16:23Z</time>
      </trkpt>
      <trkpt lat="43.33862" lon="-0.53199">
        <ele>248.16</ele>
        <time>2017-04-09T07:16:36Z</time>
      </trkpt>
      <trkpt lat="43.33856" lon="-0.53197">
        <ele>251.52</ele>
        <time>2017-04-09T07:16:38Z</time>
      </trkpt>
      <trkpt lat="43.33831" lon="-0.53194">
        <ele>261.62</ele>
        <time>2017-04-09T07:16:47Z</time>
      </trkpt>
      <trkpt lat="43.33803" lon="-0.53195">
        <ele>266.42</ele>
        <time>2017-04-09T07:16:55Z</time>
      </trkpt>
      <trkpt lat="43.33795" lon="-0.53194">
        <ele>267.86</ele>
        <time>2017-04-09T07:16:57Z</time>
      </trkpt>
      <trkpt lat="43.33762" lon="-0.53207">
        <ele>269.79</ele>
        <time>2017-04-09T07:17:05Z</time>
      </trkpt>
      <trkpt lat="43.33742" lon="-0.53195">
        <ele>270.27</ele>
        <time>2017-04-09T07:17:09Z</time>
      </trkpt>
      <trkpt lat="43.33724" lon="-0.53181">
        <ele>272.19</ele>
        <time>2017-04-09T07:17:14Z</time>
      </trkpt>
      <trkpt lat="43.33712" lon="-0.53178">
        <ele>270.75</ele>
        <time>2017-04-09T07:17:17Z</time>
      </trkpt>
      <trkpt lat="43.3367" lon="-0.53202">
        <ele>262.58</ele>
        <time>2017-04-09T07:17:25Z</time>
      </trkpt>
      <trkpt lat="43.33664" lon="-0.53201">
        <ele>261.62</ele>
        <time>2017-04-09T07:17:26Z</time>
      </trkpt>
      <trkpt lat="43.33636" lon="-0.53198">
        <ele>255.85</ele>
        <time>2017-04-09T07:17:30Z</time>
      </trkpt>
      <trkpt lat="43.3362" lon="-0.53211">
        <ele>247.2</ele>
        <time>2017-04-09T07:17:37Z</time>
      </trkpt>
      <trkpt lat="43.3361" lon="-0.53207">
        <ele>244.79</ele>
        <time>2017-04-09T07:17:40Z</time>
      </trkpt>
      <trkpt lat="43.3359" lon="-0.53204">
        <ele>241.91</ele>
        <time>2017-04-09T07:17:44Z</time>
      </trkpt>
      <trkpt lat="43.33565" lon="-0.53219">
        <ele>233.74</ele>
        <time>2017-04-09T07:17:51Z</time>
      </trkpt>
      <trkpt lat="43.33522" lon="-0.5324">
        <ele>222.2</ele>
        <time>2017-04-09T07:18:01Z</time>
      </trkpt>
      <trkpt lat="43.33515" lon="-0.53246">
        <ele>219.8</ele>
        <time>2017-04-09T07:18:04Z</time>
      </trkpt>
      <trkpt lat="43.33511" lon="-0.53241">
        <ele>214.03</ele>
        <time>2017-04-09T07:18:11Z</time>
      </trkpt>
      <trkpt lat="43.33519" lon="-0.53229">
        <ele>192.88</ele>
        <time>2017-04-09T07:18:26Z</time>
      </trkpt>
      <trkpt lat="43.3353" lon="-0.53227">
        <ele>188.56</ele>
        <time>2017-04-09T07:18:40Z</time>
      </trkpt>
      <trkpt lat="43.33544" lon="-0.53233">
        <ele>184.23</ele>
        <time>2017-04-09T07:18:54Z</time>
      </trkpt>
      <trkpt lat="43.33559" lon="-0.53238">
        <ele>180.38</ele>
        <time>2017-04-09T07:19:09Z</time>
      </trkpt>
      <trkpt lat="43.33577" lon="-0.5324">
        <ele>182.79</ele>
        <time>2017-04-09T07:19:25Z</time>
      </trkpt>
      <trkpt lat="43.33594" lon="-0.53243">
        <ele>185.19</ele>
        <time>2017-04-09T07:19:40Z</time>
      </trkpt>
      <trkpt lat="43.3362" lon="-0.53249">
        <ele>183.75</ele>
        <time>2017-04-09T07:19:56Z</time>
      </trkpt>
      <trkpt lat="43.33639" lon="-0.53259">
        <ele>187.11</ele>
        <time>2017-04-09T07:20:12Z</time>
      </trkpt>
      <trkpt lat="43.33658" lon="-0.53263">
        <ele>185.19</ele>
        <time>2017-04-09T07:20:26Z</time>
      </trkpt>
      <trkpt lat="43.33665" lon="-0.53274">
        <ele>174.62</ele>
        <time>2017-04-09T07:20:46Z</time>
      </trkpt>
      <trkpt lat="43.33668" lon="-0.53273">
        <ele>168.37</ele>
        <time>2017-04-09T07:21:00Z</time>
      </trkpt>
      <trkpt lat="43.33669" lon="-0.53274">
        <ele>166.93</ele>
        <time>2017-04-09T07:21:08Z</time>
      </trkpt>
      <trkpt lat="43.3369" lon="-0.53302">
        <ele>164.52</ele>
        <time>2017-04-09T07:21:27Z</time>
      </trkpt>
      <trkpt lat="43.3371" lon="-0.53315">
        <ele>165.48</ele>
        <time>2017-04-09T07:21:43Z</time>
      </trkpt>
      <trkpt lat="43.3373" lon="-0.53311">
        <ele>172.21</ele>
        <time>2017-04-09T07:21:59Z</time>
      </trkpt>
      <trkpt lat="43.3375" lon="-0.5331">
        <ele>175.58</ele>
        <time>2017-04-09T07:22:13Z</time>
      </trkpt>
      <trkpt lat="43.33768" lon="-0.53311">
        <ele>177.98</ele>
        <time>2017-04-09T07:22:27Z</time>
      </trkpt>
      <trkpt lat="43.33786" lon="-0.53316">
        <ele>186.63</ele>
        <time>2017-04-09T07:22:41Z</time>
      </trkpt>
      <trkpt lat="43.33802" lon="-0.53313">
        <ele>192.4</ele>
        <time>2017-04-09T07:22:54Z</time>
      </trkpt>
      <trkpt lat="43.33823" lon="-0.53314">
        <ele>196.73</ele>
        <time>2017-04-09T07:23:10Z</time>
      </trkpt>
      <trkpt lat="43.33842" lon="-0.53317">
        <ele>202.49</ele>
        <time>2017-04-09T07:23:24Z</time>
      </trkpt>
      <trkpt lat="43.33865" lon="-0.53314">
        <ele>199.61</ele>
        <time>2017-04-09T07:23:38Z</time>
      </trkpt>
      <trkpt lat="43.3388" lon="-0.53312">
        <ele>198.65</ele>
        <time>2017-04-09T07:23:50Z</time>
      </trkpt>
      <trkpt lat="43.3389" lon="-0.53314">
        <ele>199.61</ele>
        <time>2017-04-09T07:23:57Z</time>
      </trkpt>
      <trkpt lat="43.33894" lon="-0.53317">
        <ele>202.01</ele>
        <time>2017-04-09T07:24:01Z</time>
      </trkpt>
      <trkpt lat="43.33923" lon="-0.53323">
        <ele>205.38</ele>
        <time>2017-04-09T07:24:19Z</time>
      </trkpt>
      <trkpt lat="43.33933" lon="-0.53324">
        <ele>206.82</ele>
        <time>2017-04-09T07:24:27Z</time>
      </trkpt>
      <trkpt lat="43.33939" lon="-0.53323">
        <ele>211.63</ele>
        <time>2017-04-09T07:24:33Z</time>
      </trkpt>
      <trkpt lat="43.33945" lon="-0.53323">
        <ele>212.11</ele>
        <time>2017-04-09T07:24:38Z</time>
      </trkpt>
      <trkpt lat="43.33949" lon="-0.53321">
        <ele>212.59</ele>
        <time>2017-04-09T07:24:42Z</time>
      </trkpt>
      <trkpt lat="43.33952" lon="-0.53321">
        <ele>212.11</ele>
        <time>2017-04-09T07:24:44Z</time>
      </trkpt>
      <trkpt lat="43.3397" lon="-0.53315">
        <ele>210.67</ele>
        <time>2017-04-09T07:24:55Z</time>
      </trkpt>
      <trkpt lat="43.33993" lon="-0.53321">
        <ele>214.03</ele>
        <time>2017-04-09T07:25:11Z</time>
      </trkpt>
      <trkpt lat="43.34013" lon="-0.53319">
        <ele>216.91</ele>
        <time>2017-04-09T07:25:25Z</time>
      </trkpt>
      <trkpt lat="43.34031" lon="-0.53319">
        <ele>220.28</ele>
        <time>2017-04-09T07:25:40Z</time>
      </trkpt>
      <trkpt lat="43.34054" lon="-0.53298">
        <ele>224.12</ele>
        <time>2017-04-09T07:25:57Z</time>
      </trkpt>
      <trkpt lat="43.34056" lon="-0.53297">
        <ele>224.12</ele>
        <time>2017-04-09T07:25:58Z</time>
      </trkpt>
      <trkpt lat="43.34073" lon="-0.53288">
        <ele>232.3</ele>
        <time>2017-04-09T07:26:13Z</time>
      </trkpt>
      <trkpt lat="43.34077" lon="-0.53284">
        <ele>232.3</ele>
        <time>2017-04-09T07:26:16Z</time>
      </trkpt>
      <trkpt lat="43.34093" lon="-0.53271">
        <ele>237.1</ele>
        <time>2017-04-09T07:26:32Z</time>
      </trkpt>
      <trkpt lat="43.34103" lon="-0.53265">
        <ele>241.91</ele>
        <time>2017-04-09T07:26:43Z</time>
      </trkpt>
      <trkpt lat="43.34119" lon="-0.53246">
        <ele>239.99</ele>
        <time>2017-04-09T07:26:54Z</time>
      </trkpt>
      <trkpt lat="43.34126" lon="-0.53232">
        <ele>244.79</ele>
        <time>2017-04-09T07:27:05Z</time>
      </trkpt>
      <trkpt lat="43.34134" lon="-0.53212">
        <ele>239.51</ele>
        <time>2017-04-09T07:27:16Z</time>
      </trkpt>
      <trkpt lat="43.34139" lon="-0.53202">
        <ele>238.06</ele>
        <time>2017-04-09T07:27:21Z</time>
      </trkpt>
      <trkpt lat="43.34142" lon="-0.53193">
        <ele>235.66</ele>
        <time>2017-04-09T07:27:25Z</time>
      </trkpt>
      <trkpt lat="43.34149" lon="-0.53182">
        <ele>232.78</ele>
        <time>2017-04-09T07:27:34Z</time>
      </trkpt>
      <trkpt lat="43.34151" lon="-0.53177">
        <ele>231.81</ele>
        <time>2017-04-09T07:27:47Z</time>
      </trkpt>
      <trkpt lat="43.34155" lon="-0.53179">
        <ele>225.57</ele>
        <time>2017-04-09T07:28:05Z</time>
      </trkpt>
      <trkpt lat="43.34158" lon="-0.53171">
        <ele>220.76</ele>
        <time>2017-04-09T07:28:20Z</time>
      </trkpt>
      <trkpt lat="43.34151" lon="-0.53168">
        <ele>217.4</ele>
        <time>2017-04-09T07:28:47Z</time>
      </trkpt>
      <trkpt lat="43.34151" lon="-0.53167">
        <ele>222.2</ele>
        <time>2017-04-09T07:29:12Z</time>
      </trkpt>
      <trkpt lat="43.34152" lon="-0.53166">
        <ele>220.28</ele>
        <time>2017-04-09T07:29:39Z</time>
      </trkpt>
      <trkpt lat="43.34159" lon="-0.53167">
        <ele>216.43</ele>
        <time>2017-04-09T07:30:02Z</time>
      </trkpt>
      <trkpt lat="43.3416" lon="-0.53164">
        <ele>221.72</ele>
        <time>2017-04-09T07:30:43Z</time>
      </trkpt>
      <trkpt lat="43.34152" lon="-0.53172">
        <ele>224.61</ele>
        <time>2017-04-09T07:31:21Z</time>
      </trkpt>
      <trkpt lat="43.34151" lon="-0.5317">
        <ele>222.2</ele>
        <time>2017-04-09T07:31:38Z</time>
      </trkpt>
      <trkpt lat="43.34155" lon="-0.53166">
        <ele>219.32</ele>
        <time>2017-04-09T07:32:02Z</time>
      </trkpt>
      <trkpt lat="43.34151" lon="-0.5317">
        <ele>218.36</ele>
        <time>2017-04-09T07:32:27Z</time>
      </trkpt>
      <trkpt lat="43.34153" lon="-0.5317">
        <ele>220.76</ele>
        <time>2017-04-09T07:32:58Z</time>
      </trkpt>
      <trkpt lat="43.34152" lon="-0.53171">
        <ele>213.07</ele>
        <time>2017-04-09T07:33:19Z</time>
      </trkpt>
      <trkpt lat="43.34153" lon="-0.53169">
        <ele>218.84</ele>
        <time>2017-04-09T07:33:45Z</time>
      </trkpt>
      <trkpt lat="43.34156" lon="-0.5317">
        <ele>220.76</ele>
        <time>2017-04-09T07:34:08Z</time>
      </trkpt>
      <trkpt lat="43.34157" lon="-0.53167">
        <ele>219.8</ele>
        <time>2017-04-09T07:34:38Z</time>
      </trkpt>
      <trkpt lat="43.34158" lon="-0.53165">
        <ele>216.43</ele>
        <time>2017-04-09T07:35:06Z</time>
      </trkpt>
      <trkpt lat="43.34157" lon="-0.53163">
        <ele>220.28</ele>
        <time>2017-04-09T07:35:32Z</time>
      </trkpt>
      <trkpt lat="43.34156" lon="-0.53168">
        <ele>221.24</ele>
        <time>2017-04-09T07:35:58Z</time>
      </trkpt>
      <trkpt lat="43.34155" lon="-0.53169">
        <ele>217.4</ele>
        <time>2017-04-09T07:36:28Z</time>
      </trkpt>
      <trkpt lat="43.34153" lon="-0.53171">
        <ele>217.4</ele>
        <time>2017-04-09T07:36:43Z</time>
      </trkpt>
      <trkpt lat="43.34155" lon="-0.53172">
        <ele>219.32</ele>
        <time>2017-04-09T07:36:56Z</time>
      </trkpt>
      <trkpt lat="43.34156" lon="-0.53172">
        <ele>218.84</ele>
        <time>2017-04-09T07:37:09Z</time>
      </trkpt>
      <trkpt lat="43.34156" lon="-0.53162">
        <ele>219.8</ele>
        <time>2017-04-09T07:37:21Z</time>
      </trkpt>
      <trkpt lat="43.34161" lon="-0.53143">
        <ele>225.09</ele>
        <time>2017-04-09T07:37:35Z</time>
      </trkpt>
      <trkpt lat="43.34169" lon="-0.53123">
        <ele>233.26</ele>
        <time>2017-04-09T07:37:51Z</time>
      </trkpt>
      <trkpt lat="43.34179" lon="-0.53103">
        <ele>239.51</ele>
        <time>2017-04-09T07:38:08Z</time>
      </trkpt>
      <trkpt lat="43.34187" lon="-0.53088">
        <ele>249.12</ele>
        <time>2017-04-09T07:38:23Z</time>
      </trkpt>
      <trkpt lat="43.34196" lon="-0.53077">
        <ele>255.85</ele>
        <time>2017-04-09T07:38:35Z</time>
      </trkpt>
      <trkpt lat="43.34198" lon="-0.53073">
        <ele>256.33</ele>
        <time>2017-04-09T07:38:38Z</time>
      </trkpt>
      <trkpt lat="43.34214" lon="-0.53053">
        <ele>256.33</ele>
        <time>2017-04-09T07:38:49Z</time>
      </trkpt>
      <trkpt lat="43.34223" lon="-0.53046">
        <ele>257.29</ele>
        <time>2017-04-09T07:38:51Z</time>
      </trkpt>
      <trkpt lat="43.34249" lon="-0.53018">
        <ele>261.62</ele>
        <time>2017-04-09T07:39:01Z</time>
      </trkpt>
      <trkpt lat="43.34255" lon="-0.5301">
        <ele>261.62</ele>
        <time>2017-04-09T07:39:05Z</time>
      </trkpt>
      <trkpt lat="43.34267" lon="-0.52995">
        <ele>263.54</ele>
        <time>2017-04-09T07:39:17Z</time>
      </trkpt>
      <trkpt lat="43.34276" lon="-0.52971">
        <ele>264.02</ele>
        <time>2017-04-09T07:39:30Z</time>
      </trkpt>
      <trkpt lat="43.34278" lon="-0.52968">
        <ele>264.98</ele>
        <time>2017-04-09T07:39:33Z</time>
      </trkpt>
      <trkpt lat="43.34279" lon="-0.52966">
        <ele>265.46</ele>
        <time>2017-04-09T07:39:34Z</time>
      </trkpt>
      <trkpt lat="43.34282" lon="-0.52958">
        <ele>266.42</ele>
        <time>2017-04-09T07:39:38Z</time>
      </trkpt>
      <trkpt lat="43.34284" lon="-0.52952">
        <ele>266.42</ele>
        <time>2017-04-09T07:39:41Z</time>
      </trkpt>
      <trkpt lat="43.34286" lon="-0.52951">
        <ele>266.9</ele>
        <time>2017-04-09T07:39:43Z</time>
      </trkpt>
      <trkpt lat="43.34288" lon="-0.5295">
        <ele>267.38</ele>
        <time>2017-04-09T07:39:45Z</time>
      </trkpt>
      <trkpt lat="43.343" lon="-0.52942">
        <ele>269.31</ele>
        <time>2017-04-09T07:39:55Z</time>
      </trkpt>
      <trkpt lat="43.34316" lon="-0.52924">
        <ele>275.56</ele>
        <time>2017-04-09T07:40:10Z</time>
      </trkpt>
      <trkpt lat="43.34324" lon="-0.52917">
        <ele>277.96</ele>
        <time>2017-04-09T07:40:19Z</time>
      </trkpt>
      <trkpt lat="43.34329" lon="-0.52916">
        <ele>278.92</ele>
        <time>2017-04-09T07:40:22Z</time>
      </trkpt>
      <trkpt lat="43.34338" lon="-0.52902">
        <ele>279.4</ele>
        <time>2017-04-09T07:40:30Z</time>
      </trkpt>
      <trkpt lat="43.34347" lon="-0.52893">
        <ele>280.84</ele>
        <time>2017-04-09T07:40:35Z</time>
      </trkpt>
      <trkpt lat="43.3436" lon="-0.52861">
        <ele>281.32</ele>
        <time>2017-04-09T07:40:45Z</time>
      </trkpt>
      <trkpt lat="43.34362" lon="-0.52859">
        <ele>282.28</ele>
        <time>2017-04-09T07:40:46Z</time>
      </trkpt>
      <trkpt lat="43.34368" lon="-0.5285">
        <ele>283.73</ele>
        <time>2017-04-09T07:40:50Z</time>
      </trkpt>
      <trkpt lat="43.34386" lon="-0.52843">
        <ele>286.13</ele>
        <time>2017-04-09T07:40:57Z</time>
      </trkpt>
      <trkpt lat="43.34397" lon="-0.52838">
        <ele>285.65</ele>
        <time>2017-04-09T07:41:03Z</time>
      </trkpt>
      <trkpt lat="43.34406" lon="-0.52841">
        <ele>282.77</ele>
        <time>2017-04-09T07:41:09Z</time>
      </trkpt>
      <trkpt lat="43.34408" lon="-0.52844">
        <ele>281.8</ele>
        <time>2017-04-09T07:41:10Z</time>
      </trkpt>
      <trkpt lat="43.34411" lon="-0.52843">
        <ele>280.36</ele>
        <time>2017-04-09T07:41:11Z</time>
      </trkpt>
      <trkpt lat="43.34427" lon="-0.52857">
        <ele>271.71</ele>
        <time>2017-04-09T07:41:23Z</time>
      </trkpt>
      <trkpt lat="43.34439" lon="-0.52886">
        <ele>269.31</ele>
        <time>2017-04-09T07:41:36Z</time>
      </trkpt>
      <trkpt lat="43.34448" lon="-0.52913">
        <ele>269.31</ele>
        <time>2017-04-09T07:41:51Z</time>
      </trkpt>
      <trkpt lat="43.34455" lon="-0.52928">
        <ele>268.35</ele>
        <time>2017-04-09T07:42:00Z</time>
      </trkpt>
      <trkpt lat="43.34456" lon="-0.5293">
        <ele>268.35</ele>
        <time>2017-04-09T07:42:01Z</time>
      </trkpt>
      <trkpt lat="43.34458" lon="-0.52933">
        <ele>268.83</ele>
        <time>2017-04-09T07:42:03Z</time>
      </trkpt>
      <trkpt lat="43.34472" lon="-0.52949">
        <ele>270.27</ele>
        <time>2017-04-09T07:42:17Z</time>
      </trkpt>
      <trkpt lat="43.34475" lon="-0.52951">
        <ele>270.27</ele>
        <time>2017-04-09T07:42:19Z</time>
      </trkpt>
      <trkpt lat="43.34489" lon="-0.52967">
        <ele>272.19</ele>
        <time>2017-04-09T07:42:32Z</time>
      </trkpt>
      <trkpt lat="43.34498" lon="-0.52989">
        <ele>273.63</ele>
        <time>2017-04-09T07:42:45Z</time>
      </trkpt>
      <trkpt lat="43.3451" lon="-0.53009">
        <ele>276.52</ele>
        <time>2017-04-09T07:42:58Z</time>
      </trkpt>
      <trkpt lat="43.3453" lon="-0.5304">
        <ele>274.59</ele>
        <time>2017-04-09T07:43:14Z</time>
      </trkpt>
      <trkpt lat="43.3454" lon="-0.53068">
        <ele>270.75</ele>
        <time>2017-04-09T07:43:20Z</time>
      </trkpt>
      <trkpt lat="43.34541" lon="-0.53075">
        <ele>270.27</ele>
        <time>2017-04-09T07:43:21Z</time>
      </trkpt>
      <trkpt lat="43.34542" lon="-0.53083">
        <ele>269.79</ele>
        <time>2017-04-09T07:43:22Z</time>
      </trkpt>
      <trkpt lat="43.34544" lon="-0.5311">
        <ele>267.86</ele>
        <time>2017-04-09T07:43:25Z</time>
      </trkpt>
      <trkpt lat="43.34552" lon="-0.53158">
        <ele>263.06</ele>
        <time>2017-04-09T07:43:30Z</time>
      </trkpt>
      <trkpt lat="43.34552" lon="-0.53169">
        <ele>262.1</ele>
        <time>2017-04-09T07:43:31Z</time>
      </trkpt>
      <trkpt lat="43.34552" lon="-0.5318">
        <ele>260.65</ele>
        <time>2017-04-09T07:43:32Z</time>
      </trkpt>
      <trkpt lat="43.34553" lon="-0.53192">
        <ele>259.21</ele>
        <time>2017-04-09T07:43:33Z</time>
      </trkpt>
      <trkpt lat="43.34554" lon="-0.53205">
        <ele>257.77</ele>
        <time>2017-04-09T07:43:34Z</time>
      </trkpt>
      <trkpt lat="43.34564" lon="-0.53276">
        <ele>251.52</ele>
        <time>2017-04-09T07:43:40Z</time>
      </trkpt>
      <trkpt lat="43.34567" lon="-0.53292">
        <ele>251.04</ele>
        <time>2017-04-09T07:43:42Z</time>
      </trkpt>
      <trkpt lat="43.34567" lon="-0.533">
        <ele>251.04</ele>
        <time>2017-04-09T07:43:43Z</time>
      </trkpt>
      <trkpt lat="43.34567" lon="-0.53315">
        <ele>251.04</ele>
        <time>2017-04-09T07:43:45Z</time>
      </trkpt>
      <trkpt lat="43.3457" lon="-0.53346">
        <ele>251.04</ele>
        <time>2017-04-09T07:43:49Z</time>
      </trkpt>
      <trkpt lat="43.34571" lon="-0.53354">
        <ele>251.04</ele>
        <time>2017-04-09T07:43:50Z</time>
      </trkpt>
      <trkpt lat="43.34573" lon="-0.53363">
        <ele>250.56</ele>
        <time>2017-04-09T07:43:51Z</time>
      </trkpt>
      <trkpt lat="43.34576" lon="-0.53395">
        <ele>247.68</ele>
        <time>2017-04-09T07:43:54Z</time>
      </trkpt>
      <trkpt lat="43.34578" lon="-0.53435">
        <ele>243.83</ele>
        <time>2017-04-09T07:43:57Z</time>
      </trkpt>
      <trkpt lat="43.34585" lon="-0.53527">
        <ele>236.62</ele>
        <time>2017-04-09T07:44:03Z</time>
      </trkpt>
      <trkpt lat="43.34584" lon="-0.53542">
        <ele>235.66</ele>
        <time>2017-04-09T07:44:04Z</time>
      </trkpt>
      <trkpt lat="43.34583" lon="-0.53557">
        <ele>234.7</ele>
        <time>2017-04-09T07:44:05Z</time>
      </trkpt>
      <trkpt lat="43.34569" lon="-0.53633">
        <ele>228.45</ele>
        <time>2017-04-09T07:44:11Z</time>
      </trkpt>
      <trkpt lat="43.34533" lon="-0.53759">
        <ele>216.43</ele>
        <time>2017-04-09T07:44:20Z</time>
      </trkpt>
      <trkpt lat="43.34511" lon="-0.53852">
        <ele>210.67</ele>
        <time>2017-04-09T07:44:27Z</time>
      </trkpt>
      <trkpt lat="43.34512" lon="-0.53863">
        <ele>210.67</ele>
        <time>2017-04-09T07:44:28Z</time>
      </trkpt>
      <trkpt lat="43.34528" lon="-0.5396">
        <ele>202.01</ele>
        <time>2017-04-09T07:44:37Z</time>
      </trkpt>
      <trkpt lat="43.34528" lon="-0.5397">
        <ele>200.57</ele>
        <time>2017-04-09T07:44:38Z</time>
      </trkpt>
      <trkpt lat="43.34527" lon="-0.53981">
        <ele>199.61</ele>
        <time>2017-04-09T07:44:39Z</time>
      </trkpt>
      <trkpt lat="43.34525" lon="-0.53991">
        <ele>198.65</ele>
        <time>2017-04-09T07:44:40Z</time>
      </trkpt>
      <trkpt lat="43.34522" lon="-0.54001">
        <ele>197.69</ele>
        <time>2017-04-09T07:44:41Z</time>
      </trkpt>
      <trkpt lat="43.34519" lon="-0.54011">
        <ele>197.21</ele>
        <time>2017-04-09T07:44:42Z</time>
      </trkpt>
      <trkpt lat="43.3451" lon="-0.54028">
        <ele>195.77</ele>
        <time>2017-04-09T07:44:44Z</time>
      </trkpt>
      <trkpt lat="43.34505" lon="-0.54036">
        <ele>194.8</ele>
        <time>2017-04-09T07:44:45Z</time>
      </trkpt>
      <trkpt lat="43.34499" lon="-0.54043">
        <ele>193.84</ele>
        <time>2017-04-09T07:44:46Z</time>
      </trkpt>
      <trkpt lat="43.34491" lon="-0.54049">
        <ele>192.88</ele>
        <time>2017-04-09T07:44:47Z</time>
      </trkpt>
      <trkpt lat="43.34483" lon="-0.54055">
        <ele>191.92</ele>
        <time>2017-04-09T07:44:48Z</time>
      </trkpt>
      <trkpt lat="43.34462" lon="-0.54065">
        <ele>189.04</ele>
        <time>2017-04-09T07:44:51Z</time>
      </trkpt>
      <trkpt lat="43.34458" lon="-0.54067">
        <ele>188.08</ele>
        <time>2017-04-09T07:44:52Z</time>
      </trkpt>
      <trkpt lat="43.34456" lon="-0.54071">
        <ele>187.11</ele>
        <time>2017-04-09T07:44:53Z</time>
      </trkpt>
      <trkpt lat="43.34456" lon="-0.54075">
        <ele>187.11</ele>
        <time>2017-04-09T07:44:54Z</time>
      </trkpt>
      <trkpt lat="43.34457" lon="-0.54079">
        <ele>186.63</ele>
        <time>2017-04-09T07:44:55Z</time>
      </trkpt>
      <trkpt lat="43.34458" lon="-0.54083">
        <ele>186.15</ele>
        <time>2017-04-09T07:44:56Z</time>
      </trkpt>
      <trkpt lat="43.34463" lon="-0.5409">
        <ele>186.15</ele>
        <time>2017-04-09T07:44:58Z</time>
      </trkpt>
      <trkpt lat="43.34483" lon="-0.54107">
        <ele>186.15</ele>
        <time>2017-04-09T07:45:02Z</time>
      </trkpt>
      <trkpt lat="43.34489" lon="-0.54111">
        <ele>186.15</ele>
        <time>2017-04-09T07:45:03Z</time>
      </trkpt>
      <trkpt lat="43.34495" lon="-0.54114">
        <ele>185.67</ele>
        <time>2017-04-09T07:45:04Z</time>
      </trkpt>
      <trkpt lat="43.34516" lon="-0.54123">
        <ele>186.15</ele>
        <time>2017-04-09T07:45:07Z</time>
      </trkpt>
      <trkpt lat="43.34568" lon="-0.54161">
        <ele>185.19</ele>
        <time>2017-04-09T07:45:15Z</time>
      </trkpt>
      <trkpt lat="43.34572" lon="-0.54167">
        <ele>184.71</ele>
        <time>2017-04-09T07:45:16Z</time>
      </trkpt>
      <trkpt lat="43.34575" lon="-0.54172">
        <ele>184.71</ele>
        <time>2017-04-09T07:45:17Z</time>
      </trkpt>
      <trkpt lat="43.34575" lon="-0.54177">
        <ele>184.23</ele>
        <time>2017-04-09T07:45:18Z</time>
      </trkpt>
      <trkpt lat="43.34574" lon="-0.54181">
        <ele>183.75</ele>
        <time>2017-04-09T07:45:19Z</time>
      </trkpt>
      <trkpt lat="43.34572" lon="-0.54185">
        <ele>183.75</ele>
        <time>2017-04-09T07:45:20Z</time>
      </trkpt>
      <trkpt lat="43.3457" lon="-0.54189">
        <ele>183.75</ele>
        <time>2017-04-09T07:45:21Z</time>
      </trkpt>
      <trkpt lat="43.34558" lon="-0.54208">
        <ele>180.87</ele>
        <time>2017-04-09T07:45:25Z</time>
      </trkpt>
      <trkpt lat="43.34557" lon="-0.54214">
        <ele>180.38</ele>
        <time>2017-04-09T07:45:26Z</time>
      </trkpt>
      <trkpt lat="43.34555" lon="-0.54221">
        <ele>179.9</ele>
        <time>2017-04-09T07:45:27Z</time>
      </trkpt>
      <trkpt lat="43.34555" lon="-0.54227">
        <ele>178.94</ele>
        <time>2017-04-09T07:45:28Z</time>
      </trkpt>
      <trkpt lat="43.34555" lon="-0.54234">
        <ele>178.46</ele>
        <time>2017-04-09T07:45:29Z</time>
      </trkpt>
      <trkpt lat="43.34557" lon="-0.5424">
        <ele>177.98</ele>
        <time>2017-04-09T07:45:30Z</time>
      </trkpt>
      <trkpt lat="43.34559" lon="-0.54246">
        <ele>177.5</ele>
        <time>2017-04-09T07:45:31Z</time>
      </trkpt>
      <trkpt lat="43.34564" lon="-0.5425">
        <ele>177.02</ele>
        <time>2017-04-09T07:45:32Z</time>
      </trkpt>
      <trkpt lat="43.34568" lon="-0.54253">
        <ele>176.54</ele>
        <time>2017-04-09T07:45:33Z</time>
      </trkpt>
      <trkpt lat="43.34574" lon="-0.54256">
        <ele>176.06</ele>
        <time>2017-04-09T07:45:34Z</time>
      </trkpt>
      <trkpt lat="43.34579" lon="-0.54258">
        <ele>175.58</ele>
        <time>2017-04-09T07:45:35Z</time>
      </trkpt>
      <trkpt lat="43.34586" lon="-0.54259">
        <ele>175.1</ele>
        <time>2017-04-09T07:45:36Z</time>
      </trkpt>
      <trkpt lat="43.34593" lon="-0.54258">
        <ele>174.62</ele>
        <time>2017-04-09T07:45:37Z</time>
      </trkpt>
      <trkpt lat="43.34601" lon="-0.54256">
        <ele>174.14</ele>
        <time>2017-04-09T07:45:38Z</time>
      </trkpt>
      <trkpt lat="43.34608" lon="-0.54254">
        <ele>173.66</ele>
        <time>2017-04-09T07:45:39Z</time>
      </trkpt>
      <trkpt lat="43.3468" lon="-0.54221">
        <ele>164.52</ele>
        <time>2017-04-09T07:45:48Z</time>
      </trkpt>
      <trkpt lat="43.34692" lon="-0.54214">
        <ele>161.64</ele>
        <time>2017-04-09T07:45:50Z</time>
      </trkpt>
      <trkpt lat="43.34696" lon="-0.54214">
        <ele>160.68</ele>
        <time>2017-04-09T07:45:51Z</time>
      </trkpt>
      <trkpt lat="43.34702" lon="-0.54226">
        <ele>159.72</ele>
        <time>2017-04-09T07:45:54Z</time>
      </trkpt>
      <trkpt lat="43.34701" lon="-0.54233">
        <ele>159.72</ele>
        <time>2017-04-09T07:45:55Z</time>
      </trkpt>
      <trkpt lat="43.34701" lon="-0.54238">
        <ele>159.24</ele>
        <time>2017-04-09T07:45:56Z</time>
      </trkpt>
      <trkpt lat="43.347" lon="-0.54245">
        <ele>158.75</ele>
        <time>2017-04-09T07:45:57Z</time>
      </trkpt>
      <trkpt lat="43.34699" lon="-0.54252">
        <ele>158.27</ele>
        <time>2017-04-09T07:45:58Z</time>
      </trkpt>
      <trkpt lat="43.34682" lon="-0.54345">
        <ele>149.62</ele>
        <time>2017-04-09T07:46:06Z</time>
      </trkpt>
      <trkpt lat="43.34675" lon="-0.54365">
        <ele>147.7</ele>
        <time>2017-04-09T07:46:08Z</time>
      </trkpt>
      <trkpt lat="43.34672" lon="-0.54373">
        <ele>146.26</ele>
        <time>2017-04-09T07:46:09Z</time>
      </trkpt>
      <trkpt lat="43.34671" lon="-0.54381">
        <ele>145.3</ele>
        <time>2017-04-09T07:46:10Z</time>
      </trkpt>
      <trkpt lat="43.34672" lon="-0.54389">
        <ele>144.34</ele>
        <time>2017-04-09T07:46:11Z</time>
      </trkpt>
      <trkpt lat="43.34673" lon="-0.54397">
        <ele>143.85</ele>
        <time>2017-04-09T07:46:12Z</time>
      </trkpt>
      <trkpt lat="43.34674" lon="-0.54405">
        <ele>143.37</ele>
        <time>2017-04-09T07:46:13Z</time>
      </trkpt>
      <trkpt lat="43.34675" lon="-0.54412">
        <ele>143.37</ele>
        <time>2017-04-09T07:46:14Z</time>
      </trkpt>
      <trkpt lat="43.34674" lon="-0.54419">
        <ele>142.89</ele>
        <time>2017-04-09T07:46:15Z</time>
      </trkpt>
      <trkpt lat="43.34673" lon="-0.54425">
        <ele>142.89</ele>
        <time>2017-04-09T07:46:16Z</time>
      </trkpt>
      <trkpt lat="43.34662" lon="-0.54488">
        <ele>147.22</ele>
        <time>2017-04-09T07:46:28Z</time>
      </trkpt>
      <trkpt lat="43.34657" lon="-0.54543">
        <ele>151.54</ele>
        <time>2017-04-09T07:46:39Z</time>
      </trkpt>
      <trkpt lat="43.3465" lon="-0.54594">
        <ele>152.99</ele>
        <time>2017-04-09T07:46:51Z</time>
      </trkpt>
      <trkpt lat="43.3465" lon="-0.54602">
        <ele>152.03</ele>
        <time>2017-04-09T07:46:53Z</time>
      </trkpt>
      <trkpt lat="43.3465" lon="-0.54605">
        <ele>151.54</ele>
        <time>2017-04-09T07:46:54Z</time>
      </trkpt>
      <trkpt lat="43.34651" lon="-0.54608">
        <ele>151.06</ele>
        <time>2017-04-09T07:46:55Z</time>
      </trkpt>
      <trkpt lat="43.34652" lon="-0.54609">
        <ele>151.06</ele>
        <time>2017-04-09T07:46:56Z</time>
      </trkpt>
      <trkpt lat="43.34653" lon="-0.5461">
        <ele>151.06</ele>
        <time>2017-04-09T07:46:57Z</time>
      </trkpt>
      <trkpt lat="43.34654" lon="-0.5461">
        <ele>151.06</ele>
        <time>2017-04-09T07:46:58Z</time>
      </trkpt>
      <trkpt lat="43.34654" lon="-0.5461">
        <ele>150.58</ele>
        <time>2017-04-09T07:46:59Z</time>
      </trkpt>
      <trkpt lat="43.34669" lon="-0.54598">
        <ele>153.95</ele>
        <time>2017-04-09T07:47:15Z</time>
      </trkpt>
      <trkpt lat="43.34688" lon="-0.54578">
        <ele>163.56</ele>
        <time>2017-04-09T07:47:34Z</time>
      </trkpt>
      <trkpt lat="43.34701" lon="-0.54564">
        <ele>170.29</ele>
        <time>2017-04-09T07:47:45Z</time>
      </trkpt>
      <trkpt lat="43.34702" lon="-0.54563">
        <ele>170.29</ele>
        <time>2017-04-09T07:47:46Z</time>
      </trkpt>
      <trkpt lat="43.34703" lon="-0.54562">
        <ele>170.77</ele>
        <time>2017-04-09T07:47:47Z</time>
      </trkpt>
      <trkpt lat="43.34725" lon="-0.54528">
        <ele>171.25</ele>
        <time>2017-04-09T07:48:05Z</time>
      </trkpt>
      <trkpt lat="43.34745" lon="-0.54499">
        <ele>170.77</ele>
        <time>2017-04-09T07:48:23Z</time>
      </trkpt>
      <trkpt lat="43.34774" lon="-0.5447">
        <ele>168.85</ele>
        <time>2017-04-09T07:48:43Z</time>
      </trkpt>
      <trkpt lat="43.34795" lon="-0.54442">
        <ele>167.89</ele>
        <time>2017-04-09T07:49:01Z</time>
      </trkpt>
      <trkpt lat="43.34816" lon="-0.54417">
        <ele>171.25</ele>
        <time>2017-04-09T07:49:18Z</time>
      </trkpt>
      <trkpt lat="43.34835" lon="-0.54399">
        <ele>175.1</ele>
        <time>2017-04-09T07:49:32Z</time>
      </trkpt>
      <trkpt lat="43.34856" lon="-0.54383">
        <ele>177.02</ele>
        <time>2017-04-09T07:49:46Z</time>
      </trkpt>
      <trkpt lat="43.34888" lon="-0.54369">
        <ele>171.73</ele>
        <time>2017-04-09T07:50:03Z</time>
      </trkpt>
      <trkpt lat="43.34922" lon="-0.54342">
        <ele>164.52</ele>
        <time>2017-04-09T07:50:20Z</time>
      </trkpt>
      <trkpt lat="43.3495" lon="-0.54305">
        <ele>164.52</ele>
        <time>2017-04-09T07:50:39Z</time>
      </trkpt>
      <trkpt lat="43.34971" lon="-0.54278">
        <ele>166.45</ele>
        <time>2017-04-09T07:50:58Z</time>
      </trkpt>
      <trkpt lat="43.34996" lon="-0.54248">
        <ele>169.33</ele>
        <time>2017-04-09T07:51:21Z</time>
      </trkpt>
      <trkpt lat="43.35006" lon="-0.54224">
        <ele>171.73</ele>
        <time>2017-04-09T07:51:38Z</time>
      </trkpt>
      <trkpt lat="43.34999" lon="-0.54189">
        <ele>174.62</ele>
        <time>2017-04-09T07:51:57Z</time>
      </trkpt>
      <trkpt lat="43.34988" lon="-0.54143">
        <ele>175.1</ele>
        <time>2017-04-09T07:52:14Z</time>
      </trkpt>
      <trkpt lat="43.34991" lon="-0.54073">
        <ele>176.06</ele>
        <time>2017-04-09T07:52:34Z</time>
      </trkpt>
      <trkpt lat="43.35" lon="-0.54018">
        <ele>176.54</ele>
        <time>2017-04-09T07:52:50Z</time>
      </trkpt>
      <trkpt lat="43.34986" lon="-0.53963">
        <ele>178.94</ele>
        <time>2017-04-09T07:53:07Z</time>
      </trkpt>
      <trkpt lat="43.34971" lon="-0.539">
        <ele>178.94</ele>
        <time>2017-04-09T07:53:20Z</time>
      </trkpt>
      <trkpt lat="43.34968" lon="-0.53828">
        <ele>178.46</ele>
        <time>2017-04-09T07:53:34Z</time>
      </trkpt>
      <trkpt lat="43.34968" lon="-0.53795">
        <ele>180.38</ele>
        <time>2017-04-09T07:53:46Z</time>
      </trkpt>
      <trkpt lat="43.34982" lon="-0.53772">
        <ele>186.15</ele>
        <time>2017-04-09T07:54:02Z</time>
      </trkpt>
      <trkpt lat="43.34999" lon="-0.53754">
        <ele>191.44</ele>
        <time>2017-04-09T07:54:19Z</time>
      </trkpt>
      <trkpt lat="43.3502" lon="-0.53732">
        <ele>194.32</ele>
        <time>2017-04-09T07:54:38Z</time>
      </trkpt>
      <trkpt lat="43.35038" lon="-0.53725">
        <ele>194.8</ele>
        <time>2017-04-09T07:54:54Z</time>
      </trkpt>
      <trkpt lat="43.35039" lon="-0.53727">
        <ele>194.8</ele>
        <time>2017-04-09T07:54:55Z</time>
      </trkpt>
      <trkpt lat="43.3504" lon="-0.5373">
        <ele>194.8</ele>
        <time>2017-04-09T07:54:56Z</time>
      </trkpt>
      <trkpt lat="43.35052" lon="-0.53788">
        <ele>196.25</ele>
        <time>2017-04-09T07:55:13Z</time>
      </trkpt>
      <trkpt lat="43.35061" lon="-0.5383">
        <ele>198.17</ele>
        <time>2017-04-09T07:55:27Z</time>
      </trkpt>
      <trkpt lat="43.35065" lon="-0.53877">
        <ele>203.46</ele>
        <time>2017-04-09T07:55:40Z</time>
      </trkpt>
      <trkpt lat="43.35065" lon="-0.53928">
        <ele>210.67</ele>
        <time>2017-04-09T07:55:52Z</time>
      </trkpt>
      <trkpt lat="43.35077" lon="-0.53972">
        <ele>216.91</ele>
        <time>2017-04-09T07:56:03Z</time>
      </trkpt>
      <trkpt lat="43.3509" lon="-0.54004">
        <ele>219.8</ele>
        <time>2017-04-09T07:56:13Z</time>
      </trkpt>
      <trkpt lat="43.35115" lon="-0.54028">
        <ele>234.22</ele>
        <time>2017-04-09T07:56:25Z</time>
      </trkpt>
      <trkpt lat="43.35117" lon="-0.5403">
        <ele>235.66</ele>
        <time>2017-04-09T07:56:26Z</time>
      </trkpt>
      <trkpt lat="43.35119" lon="-0.54032">
        <ele>237.1</ele>
        <time>2017-04-09T07:56:27Z</time>
      </trkpt>
      <trkpt lat="43.35121" lon="-0.54033">
        <ele>238.06</ele>
        <time>2017-04-09T07:56:28Z</time>
      </trkpt>
      <trkpt lat="43.35124" lon="-0.54036">
        <ele>239.02</ele>
        <time>2017-04-09T07:56:29Z</time>
      </trkpt>
      <trkpt lat="43.35127" lon="-0.54039">
        <ele>240.47</ele>
        <time>2017-04-09T07:56:30Z</time>
      </trkpt>
      <trkpt lat="43.3513" lon="-0.54041">
        <ele>241.43</ele>
        <time>2017-04-09T07:56:31Z</time>
      </trkpt>
      <trkpt lat="43.35133" lon="-0.54044">
        <ele>242.87</ele>
        <time>2017-04-09T07:56:32Z</time>
      </trkpt>
      <trkpt lat="43.35137" lon="-0.54046">
        <ele>244.79</ele>
        <time>2017-04-09T07:56:33Z</time>
      </trkpt>
      <trkpt lat="43.35141" lon="-0.54049">
        <ele>246.23</ele>
        <time>2017-04-09T07:56:34Z</time>
      </trkpt>
      <trkpt lat="43.35176" lon="-0.5407">
        <ele>252.48</ele>
        <time>2017-04-09T07:56:43Z</time>
      </trkpt>
      <trkpt lat="43.35198" lon="-0.54075">
        <ele>254.41</ele>
        <time>2017-04-09T07:56:52Z</time>
      </trkpt>
      <trkpt lat="43.352" lon="-0.54077">
        <ele>253.44</ele>
        <time>2017-04-09T07:56:53Z</time>
      </trkpt>
      <trkpt lat="43.35202" lon="-0.54079">
        <ele>252.96</ele>
        <time>2017-04-09T07:56:54Z</time>
      </trkpt>
      <trkpt lat="43.35215" lon="-0.54112">
        <ele>250.56</ele>
        <time>2017-04-09T07:57:00Z</time>
      </trkpt>
      <trkpt lat="43.35219" lon="-0.5412">
        <ele>250.08</ele>
        <time>2017-04-09T07:57:01Z</time>
      </trkpt>
      <trkpt lat="43.35256" lon="-0.54214">
        <ele>241.43</ele>
        <time>2017-04-09T07:57:14Z</time>
      </trkpt>
      <trkpt lat="43.35259" lon="-0.54226">
        <ele>240.47</ele>
        <time>2017-04-09T07:57:16Z</time>
      </trkpt>
      <trkpt lat="43.35287" lon="-0.5433">
        <ele>229.89</ele>
        <time>2017-04-09T07:57:33Z</time>
      </trkpt>
      <trkpt lat="43.35289" lon="-0.54347">
        <ele>228.45</ele>
        <time>2017-04-09T07:57:36Z</time>
      </trkpt>
      <trkpt lat="43.3529" lon="-0.54375">
        <ele>225.09</ele>
        <time>2017-04-09T07:57:41Z</time>
      </trkpt>
      <trkpt lat="43.35295" lon="-0.54461">
        <ele>212.11</ele>
        <time>2017-04-09T07:57:55Z</time>
      </trkpt>
      <trkpt lat="43.35297" lon="-0.54492">
        <ele>211.15</ele>
        <time>2017-04-09T07:58:00Z</time>
      </trkpt>
      <trkpt lat="43.35296" lon="-0.54531">
        <ele>210.67</ele>
        <time>2017-04-09T07:58:06Z</time>
      </trkpt>
      <trkpt lat="43.35296" lon="-0.54563">
        <ele>210.67</ele>
        <time>2017-04-09T07:58:11Z</time>
      </trkpt>
      <trkpt lat="43.35295" lon="-0.54568">
        <ele>211.15</ele>
        <time>2017-04-09T07:58:12Z</time>
      </trkpt>
      <trkpt lat="43.35287" lon="-0.54633">
        <ele>214.03</ele>
        <time>2017-04-09T07:58:24Z</time>
      </trkpt>
      <trkpt lat="43.35287" lon="-0.54639">
        <ele>214.03</ele>
        <time>2017-04-09T07:58:25Z</time>
      </trkpt>
      <trkpt lat="43.35297" lon="-0.5471">
        <ele>214.03</ele>
        <time>2017-04-09T07:58:36Z</time>
      </trkpt>
      <trkpt lat="43.353" lon="-0.54715">
        <ele>214.03</ele>
        <time>2017-04-09T07:58:37Z</time>
      </trkpt>
      <trkpt lat="43.35302" lon="-0.5472">
        <ele>214.03</ele>
        <time>2017-04-09T07:58:38Z</time>
      </trkpt>
      <trkpt lat="43.35305" lon="-0.54725">
        <ele>214.03</ele>
        <time>2017-04-09T07:58:39Z</time>
      </trkpt>
      <trkpt lat="43.35307" lon="-0.54728">
        <ele>214.51</ele>
        <time>2017-04-09T07:58:40Z</time>
      </trkpt>
      <trkpt lat="43.35336" lon="-0.54757">
        <ele>220.28</ele>
        <time>2017-04-09T07:58:52Z</time>
      </trkpt>
      <trkpt lat="43.35337" lon="-0.5476">
        <ele>220.76</ele>
        <time>2017-04-09T07:58:53Z</time>
      </trkpt>
      <trkpt lat="43.35335" lon="-0.54773">
        <ele>220.28</ele>
        <time>2017-04-09T07:58:56Z</time>
      </trkpt>
      <trkpt lat="43.35328" lon="-0.54783">
        <ele>216.91</ele>
        <time>2017-04-09T07:59:01Z</time>
      </trkpt>
      <trkpt lat="43.35325" lon="-0.54807">
        <ele>213.07</ele>
        <time>2017-04-09T07:59:06Z</time>
      </trkpt>
      <trkpt lat="43.35314" lon="-0.54856">
        <ele>204.9</ele>
        <time>2017-04-09T07:59:14Z</time>
      </trkpt>
      <trkpt lat="43.35307" lon="-0.54941">
        <ele>188.08</ele>
        <time>2017-04-09T07:59:23Z</time>
      </trkpt>
      <trkpt lat="43.35316" lon="-0.55043">
        <ele>165.48</ele>
        <time>2017-04-09T07:59:36Z</time>
      </trkpt>
      <trkpt lat="43.35321" lon="-0.55126">
        <ele>149.62</ele>
        <time>2017-04-09T07:59:47Z</time>
      </trkpt>
      <trkpt lat="43.35319" lon="-0.55131">
        <ele>148.66</ele>
        <time>2017-04-09T07:59:48Z</time>
      </trkpt>
      <trkpt lat="43.35316" lon="-0.55135">
        <ele>148.18</ele>
        <time>2017-04-09T07:59:49Z</time>
      </trkpt>
      <trkpt lat="43.35313" lon="-0.55139">
        <ele>147.22</ele>
        <time>2017-04-09T07:59:50Z</time>
      </trkpt>
      <trkpt lat="43.35309" lon="-0.55142">
        <ele>146.74</ele>
        <time>2017-04-09T07:59:51Z</time>
      </trkpt>
      <trkpt lat="43.35305" lon="-0.55147">
        <ele>145.78</ele>
        <time>2017-04-09T07:59:52Z</time>
      </trkpt>
      <trkpt lat="43.35279" lon="-0.55188">
        <ele>139.05</ele>
        <time>2017-04-09T08:00:00Z</time>
      </trkpt>
      <trkpt lat="43.35277" lon="-0.55192">
        <ele>138.09</ele>
        <time>2017-04-09T08:00:01Z</time>
      </trkpt>
      <trkpt lat="43.35274" lon="-0.55197">
        <ele>137.61</ele>
        <time>2017-04-09T08:00:02Z</time>
      </trkpt>
      <trkpt lat="43.3527" lon="-0.552">
        <ele>137.13</ele>
        <time>2017-04-09T08:00:03Z</time>
      </trkpt>
      <trkpt lat="43.35266" lon="-0.55204">
        <ele>136.64</ele>
        <time>2017-04-09T08:00:04Z</time>
      </trkpt>
      <trkpt lat="43.35261" lon="-0.55209">
        <ele>136.16</ele>
        <time>2017-04-09T08:00:05Z</time>
      </trkpt>
      <trkpt lat="43.35256" lon="-0.55217">
        <ele>135.2</ele>
        <time>2017-04-09T08:00:06Z</time>
      </trkpt>
      <trkpt lat="43.35252" lon="-0.55224">
        <ele>134.24</ele>
        <time>2017-04-09T08:00:07Z</time>
      </trkpt>
      <trkpt lat="43.35225" lon="-0.55268">
        <ele>127.99</ele>
        <time>2017-04-09T08:00:15Z</time>
      </trkpt>
      <trkpt lat="43.35224" lon="-0.55273">
        <ele>127.99</ele>
        <time>2017-04-09T08:00:16Z</time>
      </trkpt>
      <trkpt lat="43.35224" lon="-0.55278">
        <ele>127.51</ele>
        <time>2017-04-09T08:00:17Z</time>
      </trkpt>
      <trkpt lat="43.35222" lon="-0.55322">
        <ele>125.59</ele>
        <time>2017-04-09T08:00:27Z</time>
      </trkpt>
      <trkpt lat="43.35221" lon="-0.55321">
        <ele>123.19</ele>
        <time>2017-04-09T08:00:35Z</time>
      </trkpt>
      <trkpt lat="43.35221" lon="-0.55322">
        <ele>122.22</ele>
        <time>2017-04-09T08:00:43Z</time>
      </trkpt>
    </trkseg>
  </trk>
</gpx>